Provisional Data: Baldwin Run near Wellsboro Junction, PA


Please select a monitoring station.
Please select start date.
Please select start date.

Toggle Unit: C/F Toggle Unit: C/F
Sample Time Temperature (C) Temperature (F) Specific Conductivity (mS/cm) pH   Turbidity (NTU+) DO (mg/L)
8/1/2022 12:00:00 AM 17.26 63.068 0.121 7.62 11.04 8.83
8/1/2022 12:15:00 AM 17.22 62.996 0.121 7.62 11.51 8.83
8/1/2022 12:30:00 AM 17.17 62.906 0.121 7.62 10.94 8.85
8/1/2022 12:45:00 AM -99999.99 -179968 -99999.99 -99999.99 -99999.99 -99999.99
8/1/2022 1:00:00 AM -99999.99 -179968 -99999.99 -99999.99 -99999.99 -99999.99
8/1/2022 1:15:00 AM -99999.99 -179968 -99999.99 -99999.99 -99999.99 -99999.99
8/1/2022 1:30:00 AM -99999.99 -179968 -99999.99 -99999.99 -99999.99 -99999.99
8/1/2022 1:45:00 AM -99999.99 -179968 -99999.99 -99999.99 -99999.99 -99999.99
8/1/2022 2:00:00 AM -99999.99 -179968 -99999.99 -99999.99 -99999.99 -99999.99
8/1/2022 2:15:00 AM -99999.99 -179968 -99999.99 -99999.99 -99999.99 -99999.99
8/1/2022 2:30:00 AM -99999.99 -179968 -99999.99 -99999.99 -99999.99 -99999.99
8/1/2022 2:45:00 AM -99999.99 -179968 -99999.99 -99999.99 -99999.99 -99999.99
8/1/2022 3:00:00 AM -99999.99 -179968 -99999.99 -99999.99 -99999.99 -99999.99
8/1/2022 3:15:00 AM -99999.99 -179968 -99999.99 -99999.99 -99999.99 -99999.99
8/1/2022 3:30:00 AM -99999.99 -179968 -99999.99 -99999.99 -99999.99 -99999.99
8/1/2022 3:45:00 AM -99999.99 -179968 -99999.99 -99999.99 -99999.99 -99999.99
8/1/2022 4:00:00 AM -99999.99 -179968 -99999.99 -99999.99 -99999.99 -99999.99
8/1/2022 4:15:00 AM -99999.99 -179968 -99999.99 -99999.99 -99999.99 -99999.99
8/1/2022 4:30:00 AM -99999.99 -179968 -99999.99 -99999.99 -99999.99 -99999.99
8/1/2022 4:45:00 AM -99999.99 -179968 -99999.99 -99999.99 -99999.99 -99999.99
8/1/2022 5:00:00 AM -99999.99 -179968 -99999.99 -99999.99 -99999.99 -99999.99
8/1/2022 5:15:00 AM -99999.99 -179968 -99999.99 -99999.99 -99999.99 -99999.99
8/1/2022 5:30:00 AM -99999.99 -179968 -99999.99 -99999.99 -99999.99 -99999.99
8/1/2022 5:45:00 AM -99999.99 -179968 -99999.99 -99999.99 -99999.99 -99999.99
8/1/2022 6:00:00 AM -99999.99 -179968 -99999.99 -99999.99 -99999.99 -99999.99
8/1/2022 6:15:00 AM -99999.99 -179968 -99999.99 -99999.99 -99999.99 -99999.99
8/1/2022 6:30:00 AM -99999.99 -179968 -99999.99 -99999.99 -99999.99 -99999.99
8/1/2022 6:45:00 AM -99999.99 -179968 -99999.99 -99999.99 -99999.99 -99999.99
8/1/2022 7:00:00 AM 16.53 61.754 0.121 7.63 13.47 9.03
8/1/2022 7:15:00 AM -99999.99 -179968 -99999.99 -99999.99 -99999.99 -99999.99
8/1/2022 7:30:00 AM 16.56 61.808 0.121 7.64 13.37 9.06
8/1/2022 7:45:00 AM 16.57 61.826 0.121 7.64 13.72 9.08
8/1/2022 8:00:00 AM 16.6 61.88 0.121 7.65 13.22 9.09
8/1/2022 8:15:00 AM 16.66 61.988 0.121 7.65 12.93 9.09
8/1/2022 8:30:00 AM 16.71 62.078 0.121 7.66 12.29 9.08
8/1/2022 8:45:00 AM 16.8 62.24 0.12 7.66 12.6 9.09
8/1/2022 9:00:00 AM 16.92 62.456 0.12 7.68 12.76 9.11
8/1/2022 9:15:00 AM 17.06 62.708 0.12 7.69 12.39 9.13
8/1/2022 9:30:00 AM 17.21 62.978 0.12 7.71 12.32 9.13
8/1/2022 9:45:00 AM 17.25 63.05 0.12 7.72 11.93 9.16
8/1/2022 10:00:00 AM 17.43 63.374 0.12 7.75 11.64 9.16
8/1/2022 10:15:00 AM 17.51 63.518 0.12 7.75 11.53 9.1
8/1/2022 10:30:00 AM 17.56 63.608 0.12 7.76 11.73 9.15
8/1/2022 10:45:00 AM 17.61 63.698 0.12 7.77 10.88 9.15
8/1/2022 11:00:00 AM 17.8 64.04 0.12 7.79 10.71 9.14
8/1/2022 11:15:00 AM 17.99 64.382 0.12 7.79 10.62 9.08
8/1/2022 11:30:00 AM 18.28 64.904 0.12 7.81 10.39 9.08
8/1/2022 11:45:00 AM 18.55 65.39 0.12 7.82 11.17 9.06
8/1/2022 12:00:00 PM 18.72 65.696 0.12 7.82 11.31 8.98
8/1/2022 12:15:00 PM 18.83 65.894 0.119 7.82 10.82 8.97
8/1/2022 12:30:00 PM 19.11 66.398 0.119 7.83 10.61 8.95
8/1/2022 12:45:00 PM 19.22 66.596 0.12 7.82 9.81 8.9
8/1/2022 1:00:00 PM 19.25 66.65 0.12 7.82 10.45 8.85
8/1/2022 1:15:00 PM 19.4 66.92 0.12 7.85 10.31 8.91
8/1/2022 1:30:00 PM 19.5 67.1 0.12 7.84 11.53 8.85
8/1/2022 1:45:00 PM 19.52 67.136 0.12 7.82 11.43 8.79
8/1/2022 2:00:00 PM 19.66 67.388 0.12 7.81 11.46 8.77
8/1/2022 2:15:00 PM 19.74 67.532 0.12 7.81 11.33 8.75
8/1/2022 2:30:00 PM 19.81 67.658 0.12 7.81 11.52 8.74
8/1/2022 2:45:00 PM 19.86 67.748 0.12 7.82 11.37 8.76
8/1/2022 3:00:00 PM 19.82 67.676 0.12 7.82 11.35 8.73
8/1/2022 3:15:00 PM 19.81 67.658 0.12 7.81 11.13 8.69
8/1/2022 3:30:00 PM 19.88 67.784 0.12 7.8 12.31 8.67
8/1/2022 3:45:00 PM 19.86 67.748 0.12 7.79 11.73 8.65
8/1/2022 4:00:00 PM 19.79 67.622 0.12 7.77 11.95 8.62
8/1/2022 4:15:00 PM 19.72 67.496 0.12 7.77 12.13 8.6
8/1/2022 4:30:00 PM 19.7 67.46 0.12 7.76 12.23 8.61
8/1/2022 4:45:00 PM 19.64 67.352 0.12 7.74 12.01 8.56
8/1/2022 5:00:00 PM 19.64 67.352 0.12 7.76 12.52 8.63
8/1/2022 5:15:00 PM 19.63 67.334 0.12 7.75 12.07 8.6
8/1/2022 5:30:00 PM 19.6 67.28 0.12 7.74 12.95 8.6
8/1/2022 5:45:00 PM 19.55 67.19 0.12 7.72 12.57 8.57
8/1/2022 6:00:00 PM 19.45 67.01 0.121 7.71 12.97 8.51
8/1/2022 6:15:00 PM 19.38 66.884 0.121 7.68 13.49 8.5
8/1/2022 6:30:00 PM 19.33 66.794 0.121 7.67 13.06 8.52
8/1/2022 6:45:00 PM 19.27 66.686 0.121 7.66 13.36 8.49
8/1/2022 7:00:00 PM 19.21 66.578 0.121 7.65 13.39 8.48
8/1/2022 7:15:00 PM 19.16 66.488 0.121 7.63 13.5 8.49
8/1/2022 7:30:00 PM 19.11 66.398 0.121 7.64 13.31 8.48
8/1/2022 7:45:00 PM 19.04 66.272 0.121 7.62 14.25 8.47
8/1/2022 8:00:00 PM 18.99 66.182 0.121 7.62 13.29 8.46
8/1/2022 8:15:00 PM 18.94 66.092 0.121 7.61 12.96 8.46
8/1/2022 8:30:00 PM 18.9 66.02 0.121 7.59 13.5 8.46
8/1/2022 8:45:00 PM 18.85 65.93 0.122 7.59 13.98 8.46
8/1/2022 9:00:00 PM 18.79 65.82201 0.122 7.59 13.58 8.47
8/1/2022 9:15:00 PM 18.74 65.732 0.122 7.6 16.16 8.47
8/1/2022 9:30:00 PM 18.69 65.642 0.122 7.6 13.61 8.48
8/1/2022 9:45:00 PM 18.64 65.552 0.122 7.6 15.09 8.5
8/1/2022 10:00:00 PM 18.59 65.462 0.122 7.6 14.97 8.51
8/1/2022 10:15:00 PM 18.53 65.354 0.122 7.6 13.28 8.52
8/1/2022 10:30:00 PM 18.48 65.264 0.122 7.61 12.61 8.54
8/1/2022 10:45:00 PM 18.43 65.174 0.122 7.61 12.55 8.54
8/1/2022 11:00:00 PM 18.38 65.084 0.122 7.61 12.66 8.55
8/1/2022 11:15:00 PM 18.33 64.994 0.122 7.61 12.17 8.55
8/1/2022 11:30:00 PM 18.28 64.904 0.122 7.61 12.11 8.56
8/1/2022 11:45:00 PM -99999.99 -179968 -99999.99 -99999.99 -99999.99 -99999.99
8/2/2022 12:00:00 AM 18.19 64.742 0.122 7.61 12.38 8.58
8/2/2022 12:15:00 AM 18.15 64.67 0.122 7.61 12.45 8.59
8/2/2022 12:30:00 AM -99999.99 -179968 -99999.99 -99999.99 -99999.99 -99999.99
8/2/2022 12:45:00 AM -99999.99 -179968 -99999.99 -99999.99 -99999.99 -99999.99
8/2/2022 1:00:00 AM -99999.99 -179968 -99999.99 -99999.99 -99999.99 -99999.99
8/2/2022 1:15:00 AM -99999.99 -179968 -99999.99 -99999.99 -99999.99 -99999.99
8/2/2022 1:30:00 AM -99999.99 -179968 -99999.99 -99999.99 -99999.99 -99999.99
8/2/2022 1:45:00 AM -99999.99 -179968 -99999.99 -99999.99 -99999.99 -99999.99
8/2/2022 2:00:00 AM -99999.99 -179968 -99999.99 -99999.99 -99999.99 -99999.99
8/2/2022 2:15:00 AM -99999.99 -179968 -99999.99 -99999.99 -99999.99 -99999.99
8/2/2022 2:30:00 AM -99999.99 -179968 -99999.99 -99999.99 -99999.99 -99999.99
8/2/2022 2:45:00 AM -99999.99 -179968 -99999.99 -99999.99 -99999.99 -99999.99
8/2/2022 3:00:00 AM -99999.99 -179968 -99999.99 -99999.99 -99999.99 -99999.99
8/2/2022 3:15:00 AM -99999.99 -179968 -99999.99 -99999.99 -99999.99 -99999.99
8/2/2022 3:30:00 AM -99999.99 -179968 -99999.99 -99999.99 -99999.99 -99999.99
8/2/2022 3:45:00 AM -99999.99 -179968 -99999.99 -99999.99 -99999.99 -99999.99
8/2/2022 4:00:00 AM -99999.99 -179968 -99999.99 -99999.99 -99999.99 -99999.99
8/2/2022 4:15:00 AM -99999.99 -179968 -99999.99 -99999.99 -99999.99 -99999.99
8/2/2022 4:30:00 AM -99999.99 -179968 -99999.99 -99999.99 -99999.99 -99999.99
8/2/2022 4:45:00 AM -99999.99 -179968 -99999.99 -99999.99 -99999.99 -99999.99
8/2/2022 5:00:00 AM -99999.99 -179968 -99999.99 -99999.99 -99999.99 -99999.99
8/2/2022 5:15:00 AM -99999.99 -179968 -99999.99 -99999.99 -99999.99 -99999.99
8/2/2022 5:30:00 AM -99999.99 -179968 -99999.99 -99999.99 -99999.99 -99999.99
8/2/2022 5:45:00 AM -99999.99 -179968 -99999.99 -99999.99 -99999.99 -99999.99
8/2/2022 6:00:00 AM -99999.99 -179968 -99999.99 -99999.99 -99999.99 -99999.99
8/2/2022 6:15:00 AM -99999.99 -179968 -99999.99 -99999.99 -99999.99 -99999.99
8/2/2022 6:30:00 AM 17.52 63.536 0.122 7.6 13.82 8.71
8/2/2022 6:45:00 AM 17.52 63.536 0.122 7.6 13.9 8.72
8/2/2022 7:00:00 AM 17.52 63.536 0.122 7.61 14.27 8.74
8/2/2022 7:15:00 AM 17.53 63.554 0.122 7.62 15.34 8.76
8/2/2022 7:30:00 AM 17.54 63.572 0.121 7.62 14.29 8.78
8/2/2022 7:45:00 AM 17.58 63.644 0.121 7.63 13.69 8.83
8/2/2022 8:00:00 AM 17.62 63.716 0.121 7.63 13.44 8.86
8/2/2022 8:15:00 AM 17.66 63.788 0.121 7.64 13.26 8.87
8/2/2022 8:30:00 AM 17.74 63.932 0.121 7.64 12.61 8.86
8/2/2022 8:45:00 AM 17.82 64.076 0.121 7.65 12.33 8.87
8/2/2022 9:00:00 AM 17.98 64.364 0.121 7.68 12.54 8.91
8/2/2022 9:15:00 AM 18.1 64.58 0.121 7.7 12.43 8.93
8/2/2022 9:30:00 AM 18.23 64.814 0.121 7.72 13.97 8.92
8/2/2022 9:45:00 AM 18.45 65.21 0.121 7.75 12.59 8.95
8/2/2022 10:00:00 AM 18.6 65.48 0.121 7.76 12.48 8.89
8/2/2022 10:15:00 AM 18.68 65.624 0.121 7.76 12.09 8.89
8/2/2022 10:30:00 AM 18.75 65.75 0.12 7.77 12.08 8.9
8/2/2022 10:45:00 AM 18.78 65.804 0.12 7.77 12.26 8.85
8/2/2022 11:00:00 AM 18.91 66.038 0.12 7.79 12.14 8.91
8/2/2022 11:15:00 AM 19 66.2 0.12 7.79 12.45 8.88
8/2/2022 11:30:00 AM 19.05 66.29 0.12 7.77 11.65 8.78
8/2/2022 11:45:00 AM 19.29 66.722 0.12 7.8 11.56 8.83
8/2/2022 12:00:00 PM 19.55 67.19 0.12 7.82 11.96 8.83
8/2/2022 12:15:00 PM 19.69 67.442 0.12 7.81 11.5 8.75
8/2/2022 12:30:00 PM 19.97 67.946 0.12 7.83 11.19 8.76
8/2/2022 12:45:00 PM 20.07 68.126 0.12 7.82 11.56 8.68
8/2/2022 1:00:00 PM 20.12 68.216 0.12 7.8 11.64 8.6
8/2/2022 1:15:00 PM 20.23 68.414 0.121 7.8 11.58 8.6
8/2/2022 1:30:00 PM 20.13 68.234 0.121 7.78 11.69 8.57
8/2/2022 1:45:00 PM 20.29 68.522 0.121 7.8 11.06 8.63
8/2/2022 2:00:00 PM 20.4 68.72 0.121 7.8 11.88 8.61
8/2/2022 2:15:00 PM 20.48 68.864 0.121 7.8 11.29 8.57
8/2/2022 2:30:00 PM 20.46 68.828 0.121 7.79 12.31 8.56
8/2/2022 2:45:00 PM 20.49 68.882 0.121 7.79 12.02 8.55
8/2/2022 3:00:00 PM 20.54 68.972 0.121 7.79 12.07 8.54
8/2/2022 3:15:00 PM 20.4 68.72 0.121 7.78 13.19 8.49
8/2/2022 3:30:00 PM 20.49 68.882 0.121 7.78 12.49 8.54
8/2/2022 3:45:00 PM 20.46 68.828 0.121 7.78 12.87 8.5
8/2/2022 4:00:00 PM 20.35 68.63 0.121 7.77 12.6 8.5
8/2/2022 4:15:00 PM 20.3 68.54 0.121 7.78 12.57 8.52
8/2/2022 4:30:00 PM 20.33 68.594 0.121 7.78 12.55 8.53
8/2/2022 4:45:00 PM 20.29 68.522 0.121 7.76 12.42 8.49
8/2/2022 5:00:00 PM 20.25 68.45 0.121 7.75 13.06 8.46
8/2/2022 5:15:00 PM 20.14 68.252 0.121 7.73 12.97 8.4
8/2/2022 5:30:00 PM 20.11 68.198 0.121 7.73 13.39 8.45
8/2/2022 5:45:00 PM 20.01 68.018 0.121 7.72 12.09 8.41
8/2/2022 6:00:00 PM 19.95 67.91 0.121 7.71 13.61 8.4
8/2/2022 6:15:00 PM 19.86 67.748 0.122 7.69 13.24 8.38
8/2/2022 6:30:00 PM 19.79 67.622 0.122 7.68 14.29 8.37
8/2/2022 6:45:00 PM 19.72 67.496 0.122 7.67 13.59 8.37
8/2/2022 7:00:00 PM 19.63 67.334 0.122 7.67 14.66 8.39
8/2/2022 7:15:00 PM 19.56 67.208 0.122 7.67 13.59 8.38
8/2/2022 7:30:00 PM 19.49 67.082 0.122 7.65 13.59 8.4
8/2/2022 7:45:00 PM 19.41 66.938 0.122 7.65 14.4 8.4
8/2/2022 8:00:00 PM 19.32 66.776 0.122 7.64 14.37 8.4
8/2/2022 8:15:00 PM 19.23 66.614 0.122 7.64 14.22 8.41
8/2/2022 8:30:00 PM 19.13 66.434 0.122 7.64 14.21 8.42
8/2/2022 8:45:00 PM 19.04 66.272 0.122 7.63 14.22 8.43
8/2/2022 9:00:00 PM 18.94 66.092 0.122 7.63 14.67 8.45
8/2/2022 9:15:00 PM 18.84 65.912 0.122 7.64 14.13 8.47
8/2/2022 9:30:00 PM 18.74 65.732 0.122 7.63 14.14 8.49
8/2/2022 9:45:00 PM 18.63 65.534 0.122 7.63 14.13 8.51
8/2/2022 10:00:00 PM 18.55 65.39 0.122 7.63 14.33 8.53
8/2/2022 10:15:00 PM 18.45 65.21 0.122 7.64 13.25 8.55
8/2/2022 10:30:00 PM 18.37 65.066 0.122 7.63 13.79 8.57
8/2/2022 10:45:00 PM 18.28 64.904 0.122 7.64 12.29 8.59
8/2/2022 11:00:00 PM 18.2 64.76 0.122 7.63 11.7 8.6
8/2/2022 11:15:00 PM 18.11 64.598 0.122 7.63 12.57 8.62
8/2/2022 11:30:00 PM 18.03 64.454 0.122 7.63 12.16 8.64
8/2/2022 11:45:00 PM -99999.99 -179968 -99999.99 -99999.99 -99999.99 -99999.99
8/3/2022 12:00:00 AM -99999.99 -179968 -99999.99 -99999.99 -99999.99 -99999.99
8/3/2022 12:15:00 AM -99999.99 -179968 -99999.99 -99999.99 -99999.99 -99999.99
8/3/2022 12:30:00 AM -99999.99 -179968 -99999.99 -99999.99 -99999.99 -99999.99
8/3/2022 12:45:00 AM -99999.99 -179968 -99999.99 -99999.99 -99999.99 -99999.99
8/3/2022 1:00:00 AM -99999.99 -179968 -99999.99 -99999.99 -99999.99 -99999.99
8/3/2022 1:15:00 AM -99999.99 -179968 -99999.99 -99999.99 -99999.99 -99999.99
8/3/2022 1:30:00 AM -99999.99 -179968 -99999.99 -99999.99 -99999.99 -99999.99
8/3/2022 1:45:00 AM -99999.99 -179968 -99999.99 -99999.99 -99999.99 -99999.99
8/3/2022 2:00:00 AM -99999.99 -179968 -99999.99 -99999.99 -99999.99 -99999.99
8/3/2022 2:15:00 AM -99999.99 -179968 -99999.99 -99999.99 -99999.99 -99999.99
8/3/2022 2:30:00 AM -99999.99 -179968 -99999.99 -99999.99 -99999.99 -99999.99
8/3/2022 2:45:00 AM -99999.99 -179968 -99999.99 -99999.99 -99999.99 -99999.99
8/3/2022 3:00:00 AM -99999.99 -179968 -99999.99 -99999.99 -99999.99 -99999.99
8/3/2022 3:15:00 AM -99999.99 -179968 -99999.99 -99999.99 -99999.99 -99999.99
8/3/2022 3:30:00 AM -99999.99 -179968 -99999.99 -99999.99 -99999.99 -99999.99
8/3/2022 3:45:00 AM -99999.99 -179968 -99999.99 -99999.99 -99999.99 -99999.99
8/3/2022 4:00:00 AM -99999.99 -179968 -99999.99 -99999.99 -99999.99 -99999.99
8/3/2022 4:15:00 AM -99999.99 -179968 -99999.99 -99999.99 -99999.99 -99999.99
8/3/2022 4:30:00 AM -99999.99 -179968 -99999.99 -99999.99 -99999.99 -99999.99
8/3/2022 4:45:00 AM -99999.99 -179968 -99999.99 -99999.99 -99999.99 -99999.99
8/3/2022 5:00:00 AM -99999.99 -179968 -99999.99 -99999.99 -99999.99 -99999.99
8/3/2022 5:15:00 AM -99999.99 -179968 -99999.99 -99999.99 -99999.99 -99999.99
8/3/2022 5:30:00 AM -99999.99 -179968 -99999.99 -99999.99 -99999.99 -99999.99
8/3/2022 5:45:00 AM -99999.99 -179968 -99999.99 -99999.99 -99999.99 -99999.99
8/3/2022 6:00:00 AM -99999.99 -179968 -99999.99 -99999.99 -99999.99 -99999.99
8/3/2022 6:15:00 AM -99999.99 -179968 -99999.99 -99999.99 -99999.99 -99999.99
8/3/2022 6:30:00 AM -99999.99 -179968 -99999.99 -99999.99 -99999.99 -99999.99
8/3/2022 6:45:00 AM 16.06 60.908 0.122 7.61 13.06 9.07
8/3/2022 7:00:00 AM 16.05 60.89 0.122 7.61 13.41 9.08
8/3/2022 7:15:00 AM 16.05 60.89 0.122 7.62 13.27 9.11
8/3/2022 7:30:00 AM 16.07 60.926 0.122 7.63 13.12 9.12
8/3/2022 7:45:00 AM 16.08 60.944 0.121 7.64 12.06 9.13
8/3/2022 8:00:00 AM 16.1 60.98 0.121 7.64 12.12 9.14
8/3/2022 8:15:00 AM 16.13 61.034 0.121 7.65 11.69 9.16
8/3/2022 8:30:00 AM 16.19 61.142 0.121 7.65 12.57 9.16
8/3/2022 8:45:00 AM 16.27 61.286 0.121 7.66 11.52 9.18
8/3/2022 9:00:00 AM 16.4 61.52 0.121 7.68 11.91 9.21
8/3/2022 9:15:00 AM 16.55 61.79 0.121 7.7 11.06 9.23
8/3/2022 9:30:00 AM 16.72 62.096 0.121 7.71 11.17 9.23
8/3/2022 9:45:00 AM 16.92 62.456 0.121 7.73 11.27 9.23
8/3/2022 10:00:00 AM 17.13 62.834 0.121 7.75 11.02 9.23
8/3/2022 10:15:00 AM 17.34 63.212 0.121 7.76 11.25 9.21
8/3/2022 10:30:00 AM 17.57 63.626 0.12 7.78 10.84 9.17
8/3/2022 10:45:00 AM 17.82 64.076 0.12 7.79 10.18 9.13
8/3/2022 11:00:00 AM 18.09 64.562 0.12 7.8 10.48 9.1
8/3/2022 11:15:00 AM 18.35 65.03 0.12 7.8 10.07 9.05
8/3/2022 11:30:00 AM 18.6 65.48 0.12 7.81 11.16 9.01
8/3/2022 11:45:00 AM 18.86 65.948 0.12 7.82 10.02 8.96
8/3/2022 12:00:00 PM 19.1 66.38 0.12 7.82 10.55 8.92
8/3/2022 12:15:00 PM 19.31 66.758 0.12 7.82 10.8 8.88
8/3/2022 12:30:00 PM 19.49 67.082 0.12 7.83 10.72 8.85
8/3/2022 12:45:00 PM 19.66 67.388 0.121 7.83 10.35 8.8
8/3/2022 1:00:00 PM 19.81 67.658 0.121 7.82 10.93 8.78
8/3/2022 1:15:00 PM 19.91 67.838 0.121 7.82 11.17 8.75
8/3/2022 1:30:00 PM 20 68 0.121 7.82 11.43 8.72
8/3/2022 1:45:00 PM 20.06 68.108 0.121 7.81 12.76 8.7
8/3/2022 2:00:00 PM 20.13 68.234 0.121 7.81 12.23 8.68
8/3/2022 2:15:00 PM 20.19 68.342 0.121 7.81 11.78 8.66
8/3/2022 2:30:00 PM 20.23 68.414 0.121 7.81 12.39 8.65
8/3/2022 2:45:00 PM 20.25 68.45 0.121 7.81 12.27 8.63
8/3/2022 3:00:00 PM 20.26 68.468 0.121 7.8 11.78 8.62
8/3/2022 3:15:00 PM 20.27 68.486 0.121 7.79 12.03 8.6
8/3/2022 3:30:00 PM 20.26 68.468 0.121 7.79 12.7 8.59
8/3/2022 3:45:00 PM 20.24 68.432 0.121 7.78 12.63 8.58
8/3/2022 4:00:00 PM 20.16 68.288 0.121 7.78 12.02 8.56
8/3/2022 4:15:00 PM 20.09 68.162 0.122 7.76 12.81 8.53
8/3/2022 4:30:00 PM 20.08 68.144 0.122 7.76 12.36 8.52
8/3/2022 4:45:00 PM 20.09 68.162 0.122 7.75 12.79 8.52
8/3/2022 5:00:00 PM 20.06 68.108 0.122 7.74 13.62 8.51
8/3/2022 5:15:00 PM 20.04 68.07201 0.122 7.73 13.17 8.5
8/3/2022 5:30:00 PM 19.99 67.982 0.122 7.73 13.59 8.49
8/3/2022 5:45:00 PM 19.94 67.892 0.122 7.71 13.09 8.46
8/3/2022 6:00:00 PM 19.86 67.748 0.122 7.69 13.73 8.42
8/3/2022 6:15:00 PM 19.8 67.64 0.122 7.68 13.16 8.41
8/3/2022 6:30:00 PM 19.76 67.568 0.122 7.67 13.36 8.4
8/3/2022 6:45:00 PM 19.71 67.478 0.122 7.66 13.13 8.4
8/3/2022 7:00:00 PM 19.66 67.388 0.122 7.65 13.7 8.39
8/3/2022 7:15:00 PM 19.61 67.298 0.122 7.64 13.66 8.4
8/3/2022 7:30:00 PM 19.56 67.208 0.122 7.64 13.49 8.4
8/3/2022 7:45:00 PM 19.5 67.1 0.123 7.63 15.17 8.39
8/3/2022 8:00:00 PM 19.44 66.992 0.123 7.62 13.15 8.39
8/3/2022 8:15:00 PM 19.38 66.884 0.123 7.62 12.44 8.39
8/3/2022 8:30:00 PM 19.32 66.776 0.123 7.62 12.97 8.39
8/3/2022 8:45:00 PM 19.25 66.65 0.123 7.62 13.91 8.4
8/3/2022 9:00:00 PM 19.19 66.542 0.123 7.61 13.87 8.41
8/3/2022 9:15:00 PM 19.13 66.434 0.123 7.61 15.1 8.42
8/3/2022 9:30:00 PM 19.08 66.344 0.123 7.61 13.46 8.44
8/3/2022 9:45:00 PM 19.02 66.236 0.123 7.61 12.6 8.45
8/3/2022 10:00:00 PM 18.96 66.128 0.123 7.61 13.22 8.46
8/3/2022 10:15:00 PM 18.9 66.02 0.123 7.62 13.21 8.47
8/3/2022 10:30:00 PM 18.85 65.93 0.123 7.62 12.9 8.48
8/3/2022 10:45:00 PM 18.79 65.82201 0.123 7.62 12.73 8.49
8/3/2022 11:00:00 PM 18.74 65.732 0.123 7.61 12.26 8.5
8/3/2022 11:15:00 PM 18.69 65.642 0.123 7.62 12.47 8.51
8/3/2022 11:30:00 PM 18.64 65.552 0.123 7.61 12.35 8.51
8/3/2022 11:45:00 PM -99999.99 -179968 -99999.99 -99999.99 -99999.99 -99999.99
8/4/2022 12:00:00 AM -99999.99 -179968 -99999.99 -99999.99 -99999.99 -99999.99
8/4/2022 12:15:00 AM -99999.99 -179968 -99999.99 -99999.99 -99999.99 -99999.99
8/4/2022 12:30:00 AM -99999.99 -179968 -99999.99 -99999.99 -99999.99 -99999.99
8/4/2022 12:45:00 AM -99999.99 -179968 -99999.99 -99999.99 -99999.99 -99999.99
8/4/2022 1:00:00 AM -99999.99 -179968 -99999.99 -99999.99 -99999.99 -99999.99
8/4/2022 1:15:00 AM -99999.99 -179968 -99999.99 -99999.99 -99999.99 -99999.99
8/4/2022 1:30:00 AM -99999.99 -179968 -99999.99 -99999.99 -99999.99 -99999.99
8/4/2022 1:45:00 AM -99999.99 -179968 -99999.99 -99999.99 -99999.99 -99999.99
8/4/2022 2:00:00 AM -99999.99 -179968 -99999.99 -99999.99 -99999.99 -99999.99
8/4/2022 2:15:00 AM -99999.99 -179968 -99999.99 -99999.99 -99999.99 -99999.99
8/4/2022 2:30:00 AM -99999.99 -179968 -99999.99 -99999.99 -99999.99 -99999.99
8/4/2022 2:45:00 AM -99999.99 -179968 -99999.99 -99999.99 -99999.99 -99999.99
8/4/2022 3:00:00 AM -99999.99 -179968 -99999.99 -99999.99 -99999.99 -99999.99
8/4/2022 3:15:00 AM -99999.99 -179968 -99999.99 -99999.99 -99999.99 -99999.99
8/4/2022 3:30:00 AM -99999.99 -179968 -99999.99 -99999.99 -99999.99 -99999.99
8/4/2022 3:45:00 AM -99999.99 -179968 -99999.99 -99999.99 -99999.99 -99999.99
8/4/2022 4:00:00 AM -99999.99 -179968 -99999.99 -99999.99 -99999.99 -99999.99
8/4/2022 4:15:00 AM -99999.99 -179968 -99999.99 -99999.99 -99999.99 -99999.99
8/4/2022 4:30:00 AM -99999.99 -179968 -99999.99 -99999.99 -99999.99 -99999.99
8/4/2022 4:45:00 AM -99999.99 -179968 -99999.99 -99999.99 -99999.99 -99999.99
8/4/2022 5:00:00 AM -99999.99 -179968 -99999.99 -99999.99 -99999.99 -99999.99
8/4/2022 5:15:00 AM -99999.99 -179968 -99999.99 -99999.99 -99999.99 -99999.99
8/4/2022 5:30:00 AM -99999.99 -179968 -99999.99 -99999.99 -99999.99 -99999.99
8/4/2022 5:45:00 AM -99999.99 -179968 -99999.99 -99999.99 -99999.99 -99999.99
8/4/2022 6:00:00 AM -99999.99 -179968 -99999.99 -99999.99 -99999.99 -99999.99
8/4/2022 6:15:00 AM -99999.99 -179968 -99999.99 -99999.99 -99999.99 -99999.99
8/4/2022 6:30:00 AM 17.64 63.752 0.123 7.6 13.49 8.72
8/4/2022 6:45:00 AM 17.64 63.752 0.123 7.59 15.33 8.73
8/4/2022 7:00:00 AM 17.65 63.77 0.123 7.61 14.06 8.75
8/4/2022 7:15:00 AM 17.67 63.806 0.123 7.61 15.53 8.76
8/4/2022 7:30:00 AM 17.7 63.86 0.123 7.62 14.17 8.78
8/4/2022 7:45:00 AM 17.74 63.932 0.123 7.62 12.31 8.78
8/4/2022 8:00:00 AM 17.78 64.004 0.122 7.62 13.99 8.79
8/4/2022 8:15:00 AM 17.84 64.112 0.122 7.63 13.97 8.81
8/4/2022 8:30:00 AM 17.9 64.22 0.122 7.63 13.14 8.81
8/4/2022 8:45:00 AM 18 64.4 0.122 7.64 13.71 8.86
8/4/2022 9:00:00 AM 18.13 64.634 0.122 7.66 13.07 8.88
8/4/2022 9:15:00 AM 18.26 64.868 0.122 7.66 12.42 8.88
8/4/2022 9:30:00 AM 18.42 65.156 0.122 7.67 12.88 8.89
8/4/2022 9:45:00 AM 18.62 65.516 0.122 7.7 12.21 8.9
8/4/2022 10:00:00 AM 18.84 65.912 0.122 7.73 12.44 8.9
8/4/2022 10:15:00 AM 19.08 66.344 0.122 7.75 11.85 8.88
8/4/2022 10:30:00 AM 19.31 66.758 0.122 7.76 11.98 8.85
8/4/2022 10:45:00 AM 19.58 67.244 0.122 7.77 11.68 8.81
8/4/2022 11:00:00 AM 19.84 67.712 0.121 7.78 11.66 8.78
8/4/2022 11:15:00 AM 20.15 68.27 0.121 7.8 11.76 8.75
8/4/2022 11:30:00 AM 20.43 68.774 0.121 7.8 11.82 8.71
8/4/2022 11:45:00 AM 20.71 69.278 0.121 7.8 11.59 8.67
8/4/2022 12:00:00 PM 20.83 69.494 0.121 7.77 12.2 8.61
8/4/2022 12:15:00 PM 20.79 69.422 0.122 7.76 11.67 8.47
8/4/2022 12:30:00 PM 20.75 69.35 0.122 7.74 11.29 8.42
8/4/2022 12:45:00 PM 20.81 69.458 0.122 7.75 11.57 8.45
8/4/2022 1:00:00 PM 20.84 69.512 0.122 7.74 12.17 8.5
8/4/2022 1:15:00 PM 21.09 69.962 0.122 7.79 12.54 8.56
8/4/2022 1:30:00 PM 21.05 69.89 0.122 7.75 12.95 8.38
8/4/2022 1:45:00 PM 20.9 69.62 0.117 7.66 29.64 8.25
8/4/2022 2:00:00 PM 20.71 69.278 0.114 7.61 29.89 8.14
8/4/2022 2:15:00 PM 20.56 69.008 0.115 7.63 34.5 8.24
8/4/2022 2:30:00 PM 20.47 68.846 0.115 7.66 43.31 8.38
8/4/2022 2:45:00 PM 20.5 68.9 0.114 7.69 38.36 8.51
8/4/2022 3:00:00 PM 20.45 68.81 0.114 7.71 32.55 8.52
8/4/2022 3:15:00 PM 20.39 68.702 0.12 7.72 54.7 8.52
8/4/2022 3:30:00 PM 20.31 68.558 0.126 7.71 54.63 8.51
8/4/2022 3:45:00 PM 20.26 68.468 0.124 7.72 35.06 8.54
8/4/2022 4:00:00 PM 20.24 68.432 0.122 7.74 28.99 8.6
8/4/2022 4:15:00 PM 20.2 68.36 0.121 7.72 24.93 8.58
8/4/2022 4:30:00 PM 20.17 68.306 0.121 7.72 22.23 8.57
8/4/2022 4:45:00 PM 20.17 68.306 0.12 7.73 22.29 8.6
8/4/2022 5:00:00 PM 20.1 68.18 0.12 7.7 20.77 8.55
8/4/2022 5:15:00 PM 20.07 68.126 0.12 7.69 19.97 8.53
8/4/2022 5:30:00 PM 20.04 68.07201 0.12 7.67 18.91 8.52
8/4/2022 5:45:00 PM 20 68 0.12 7.66 19.66 8.52
8/4/2022 6:00:00 PM 19.97 67.946 0.12 7.66 18.09 8.52
8/4/2022 6:15:00 PM 19.94 67.892 0.12 7.65 17.03 8.51
8/4/2022 6:30:00 PM 19.91 67.838 0.12 7.65 18.47 8.52
8/4/2022 6:45:00 PM 19.88 67.784 0.12 7.64 17.49 8.51
8/4/2022 7:00:00 PM 19.85 67.73 0.12 7.63 16.29 8.51
8/4/2022 7:15:00 PM 19.8 67.64 0.12 7.62 16.13 8.46
8/4/2022 7:30:00 PM 19.76 67.568 0.12 7.6 15.73 8.48
8/4/2022 7:45:00 PM 19.72 67.496 0.12 7.6 15.18 8.47
8/4/2022 8:00:00 PM 19.68 67.424 0.12 7.6 15.31 8.46
8/4/2022 8:15:00 PM 19.63 67.334 0.12 7.58 14.46 8.44
8/4/2022 8:30:00 PM 19.59 67.262 0.12 7.59 15.3 8.45
8/4/2022 8:45:00 PM 19.54 67.172 0.12 7.58 16.46 8.46
8/4/2022 9:00:00 PM 19.5 67.1 0.12 7.58 16.78 8.47
8/4/2022 9:15:00 PM 19.45 67.01 0.12 7.58 16.06 8.47
8/4/2022 9:30:00 PM 19.41 66.938 0.12 7.58 15.62 8.48
8/4/2022 9:45:00 PM 19.37 66.866 0.12 7.58 15.32 8.49
8/4/2022 10:00:00 PM 19.33 66.794 0.12 7.58 15.81 8.5
8/4/2022 10:15:00 PM 19.29 66.722 0.12 7.58 14.54 8.51
8/4/2022 10:30:00 PM 19.24 66.632 0.12 7.57 14.27 8.52
8/4/2022 10:45:00 PM 19.2 66.56 0.119 7.57 15.02 8.53
8/4/2022 11:00:00 PM 19.17 66.506 0.119 7.57 14.31 8.54
8/4/2022 11:15:00 PM 19.14 66.452 0.119 7.56 14.43 8.55
8/4/2022 11:30:00 PM 19.11 66.398 0.119 7.56 13.41 8.55
8/4/2022 11:45:00 PM 19.08 66.344 0.119 7.56 13.65 8.55
8/5/2022 12:00:00 AM 19.06 66.308 0.119 7.55 13.52 8.56
8/5/2022 12:15:00 AM 19.03 66.254 0.119 7.55 12.86 8.56
8/5/2022 12:30:00 AM 19.01 66.218 0.119 7.54 13.21 8.56
8/5/2022 12:45:00 AM 18.99 66.182 0.119 7.54 13.15 8.57
8/5/2022 1:00:00 AM 18.97 66.146 0.119 7.53 12.86 8.56
8/5/2022 1:15:00 AM 18.96 66.128 0.12 7.52 10.37 8.57
8/5/2022 1:30:00 AM 18.94 66.092 0.12 7.52 12.97 8.57
8/5/2022 1:45:00 AM 18.92 66.056 0.12 7.53 12.79 8.57
8/5/2022 2:00:00 AM 18.9 66.02 0.12 7.54 12.8 8.57
8/5/2022 2:15:00 AM 18.88 65.984 0.12 7.55 12.77 8.57
8/5/2022 2:30:00 AM 18.85 65.93 0.12 7.55 12.97 8.58
8/5/2022 2:45:00 AM 18.83 65.894 0.12 7.56 13.4 8.58
8/5/2022 3:00:00 AM 18.8 65.84 0.12 7.55 12.87 8.59
8/5/2022 3:15:00 AM 18.78 65.804 0.12 7.57 10.44 8.59
8/5/2022 3:30:00 AM 18.75 65.75 0.12 7.57 13.37 8.59
8/5/2022 3:45:00 AM 18.73 65.714 0.12 7.57 13.56 8.6
8/5/2022 4:00:00 AM 18.7 65.66 0.12 7.57 13.76 8.61
8/5/2022 4:15:00 AM 18.68 65.624 0.12 7.57 13.95 8.61
8/5/2022 4:30:00 AM 18.66 65.588 0.12 7.58 10.8 8.61
8/5/2022 4:45:00 AM 18.64 65.552 0.12 7.58 13.69 8.62
8/5/2022 5:00:00 AM 18.62 65.516 0.12 7.57 13.56 8.62
8/5/2022 5:15:00 AM 18.6 65.48 0.12 7.57 13.73 8.63
8/5/2022 5:30:00 AM 18.57 65.426 0.12 7.57 13.92 8.63
8/5/2022 5:45:00 AM 18.56 65.408 0.12 7.57 14.17 8.63
8/5/2022 6:00:00 AM 18.53 65.354 0.12 7.57 14.89 8.63
8/5/2022 6:15:00 AM 18.51 65.318 0.12 7.57 15.13 8.64
8/5/2022 6:30:00 AM 18.5 65.3 0.12 7.58 15.26 8.66
8/5/2022 6:45:00 AM 18.49 65.282 0.12 7.58 15.02 8.67
8/5/2022 7:00:00 AM 18.48 65.264 0.12 7.58 14.51 8.69
8/5/2022 7:15:00 AM 18.48 65.264 0.12 7.58 15.74 8.71
8/5/2022 7:30:00 AM 18.49 65.282 0.12 7.58 14.63 8.73
8/5/2022 7:45:00 AM 18.51 65.318 0.12 7.59 14.83 8.77
8/5/2022 8:00:00 AM 18.53 65.354 0.12 7.6 14.97 8.77
8/5/2022 8:15:00 AM 18.55 65.39 0.12 7.61 14.05 8.79
8/5/2022 8:30:00 AM 18.59 65.462 0.12 7.62 13.58 8.83
8/5/2022 8:45:00 AM 18.63 65.534 0.12 7.64 13.25 8.86
8/5/2022 9:00:00 AM 18.69 65.642 0.12 7.66 13.08 8.89
8/5/2022 9:15:00 AM 18.74 65.732 0.12 7.67 13.15 8.91
8/5/2022 9:30:00 AM 18.79 65.82201 0.12 7.68 12.69 8.9
8/5/2022 9:45:00 AM 18.81 65.858 0.12 7.65 12.47 8.85
8/5/2022 10:00:00 AM 18.83 65.894 0.12 7.63 12.27 8.83
8/5/2022 10:15:00 AM 18.84 65.912 0.12 7.63 13.08 8.8
8/5/2022 10:30:00 AM 18.87 65.966 0.12 7.63 11.62 8.84
8/5/2022 10:45:00 AM 18.92 66.056 0.12 7.64 12.28 8.88
8/5/2022 11:00:00 AM 18.98 66.164 0.12 7.66 12.16 8.89
8/5/2022 11:15:00 AM 19.02 66.236 0.12 7.65 12.04 8.88
8/5/2022 11:30:00 AM 19.07 66.326 0.12 7.65 11.48 8.89
8/5/2022 11:45:00 AM 19.14 66.452 0.12 7.68 11.66 8.94
8/5/2022 12:00:00 PM 19.23 66.614 0.12 7.71 11.57 8.94
8/5/2022 12:15:00 PM 19.3 66.74 0.12 7.72 11.73 8.9
8/5/2022 12:30:00 PM 19.32 66.776 0.12 7.69 11.56 8.84
8/5/2022 12:45:00 PM 19.57 67.226 0.12 7.74 12.45 8.9
8/5/2022 1:00:00 PM 19.76 67.568 0.12 7.77 11.63 8.87
8/5/2022 1:15:00 PM 19.85 67.73 0.12 7.76 11.41 8.79
8/5/2022 1:30:00 PM 19.98 67.964 0.12 7.76 12.13 8.77
8/5/2022 1:45:00 PM 20.26 68.468 0.12 7.77 11.9 8.72
8/5/2022 2:00:00 PM 20.45 68.81 0.12 7.77 11.72 8.69
8/5/2022 2:15:00 PM 20.55 68.99 0.12 7.77 12.64 8.65
8/5/2022 2:30:00 PM 20.71 69.278 0.12 7.77 12.02 8.61
8/5/2022 2:45:00 PM 20.81 69.458 0.12 7.76 12.34 8.59
8/5/2022 3:00:00 PM 20.87 69.566 0.12 7.76 11.88 8.56
8/5/2022 3:15:00 PM 20.94 69.692 0.12 7.75 12.26 8.54
8/5/2022 3:30:00 PM 20.98 69.764 0.121 7.76 11.67 8.53
8/5/2022 3:45:00 PM 20.85 69.53 0.121 7.73 12.41 8.46
8/5/2022 4:00:00 PM 20.77 69.386 0.121 7.73 12.37 8.42
8/5/2022 4:15:00 PM 20.72 69.296 0.121 7.71 12.08 8.37
8/5/2022 4:30:00 PM 20.65 69.17 0.121 7.68 11.86 8.34
8/5/2022 4:45:00 PM 20.57 69.026 0.121 7.69 12.18 8.34
8/5/2022 5:00:00 PM 20.48 68.864 0.121 7.67 12 8.33
8/5/2022 5:15:00 PM 20.38 68.684 0.121 7.65 12.24 8.33
8/5/2022 5:30:00 PM 20.29 68.522 0.121 7.65 12.14 8.35
8/5/2022 5:45:00 PM 20.21 68.378 0.121 7.65 12.41 8.37
8/5/2022 6:00:00 PM 20.14 68.252 0.121 7.65 12.54 8.39
8/5/2022 6:15:00 PM 20.07 68.126 0.121 7.65 12.77 8.41
8/5/2022 6:30:00 PM 20.02 68.036 0.121 7.66 12.62 8.43
8/5/2022 6:45:00 PM 19.97 67.946 0.121 7.66 12.52 8.43
8/5/2022 7:00:00 PM 19.92 67.856 0.121 7.66 12.78 8.45
8/5/2022 7:15:00 PM 19.88 67.784 0.121 7.65 13.46 8.45
8/5/2022 7:30:00 PM 19.84 67.712 0.121 7.64 13.32 8.45
8/5/2022 7:45:00 PM 19.8 67.64 0.122 7.64 13.87 8.43
8/5/2022 8:00:00 PM 19.76 67.568 0.122 7.63 13.43 8.43
8/5/2022 8:15:00 PM 19.71 67.478 0.122 7.62 13.92 8.42
8/5/2022 8:30:00 PM 19.67 67.406 0.122 7.61 14 8.41
8/5/2022 8:45:00 PM 19.63 67.334 0.122 7.6 17.92 8.43
8/5/2022 9:00:00 PM 19.59 67.262 0.122 7.61 14.81 8.43
8/5/2022 9:15:00 PM 19.56 67.208 0.122 7.6 14.52 8.43
8/5/2022 9:30:00 PM 19.52 67.136 0.122 7.6 14.98 8.43
8/5/2022 9:45:00 PM 19.5 67.1 0.122 7.6 15.04 8.42
8/5/2022 10:00:00 PM 19.46 67.028 0.122 7.6 14.4 8.42
8/5/2022 10:15:00 PM 19.42 66.956 0.122 7.59 14.51 8.44
8/5/2022 10:30:00 PM 19.39 66.902 0.122 7.59 12.87 8.45
8/5/2022 10:45:00 PM 19.36 66.848 0.122 7.6 13.01 8.46
8/5/2022 11:00:00 PM 19.33 66.794 0.122 7.59 12.75 8.46
8/5/2022 11:15:00 PM 19.3 66.74 0.122 7.59 12.8 8.47
8/5/2022 11:30:00 PM 19.27 66.686 0.122 7.59 12.94 8.47
8/5/2022 11:45:00 PM 19.23 66.614 0.122 7.58 12.52 8.48
8/6/2022 12:00:00 AM 19.2 66.56 0.122 7.59 11.47 8.49
8/6/2022 12:15:00 AM 19.17 66.506 0.122 7.59 12.38 8.49
8/6/2022 12:30:00 AM 19.14 66.452 0.122 7.6 12.06 8.5
8/6/2022 12:45:00 AM 19.11 66.398 0.122 7.6 13.21 8.51
8/6/2022 1:00:00 AM 19.08 66.344 0.122 7.59 12.43 8.52
8/6/2022 1:15:00 AM 19.06 66.308 0.122 7.59 12.08 8.52
8/6/2022 1:30:00 AM 19.04 66.272 0.122 7.59 12.15 8.52
8/6/2022 1:45:00 AM 19.01 66.218 0.122 7.59 12.52 8.53
8/6/2022 2:00:00 AM 18.98 66.164 0.122 7.6 12.84 8.53
8/6/2022 2:15:00 AM 18.96 66.128 0.122 7.6 12.01 8.54
8/6/2022 2:30:00 AM 18.93 66.074 0.122 7.59 11.92 8.54
8/6/2022 2:45:00 AM 18.91 66.038 0.122 7.6 11.82 8.54
8/6/2022 3:00:00 AM 18.88 65.984 0.122 7.59 12.36 8.55
8/6/2022 3:15:00 AM 18.86 65.948 0.122 7.59 12.37 8.55
8/6/2022 3:30:00 AM 18.84 65.912 0.122 7.59 12.72 8.56
8/6/2022 3:45:00 AM 18.82 65.876 0.122 7.58 12.84 8.56
8/6/2022 4:00:00 AM 18.8 65.84 0.122 7.58 12.28 8.57
8/6/2022 4:15:00 AM 18.78 65.804 0.122 7.58 12.49 8.57
8/6/2022 4:30:00 AM 18.76 65.768 0.122 7.58 12.33 8.57
8/6/2022 4:45:00 AM 18.74 65.732 0.123 7.58 11.9 8.58
8/6/2022 5:00:00 AM 18.73 65.714 0.123 7.58 12.37 8.58
8/6/2022 5:15:00 AM 18.71 65.67799 0.123 7.58 12.56 8.59
8/6/2022 5:30:00 AM 18.7 65.66 0.123 7.58 12.52 8.59
8/6/2022 5:45:00 AM 18.69 65.642 0.123 7.58 12.92 8.59
8/6/2022 6:00:00 AM 18.68 65.624 0.123 7.57 12.91 8.59
8/6/2022 6:15:00 AM 18.67 65.606 0.123 7.57 13.52 8.6
8/6/2022 6:30:00 AM 18.66 65.588 0.123 7.57 13.54 8.6
8/6/2022 6:45:00 AM 18.65 65.57 0.123 7.57 14.08 8.61
8/6/2022 7:00:00 AM 18.65 65.57 0.123 7.57 13.43 8.64
8/6/2022 7:15:00 AM 18.66 65.588 0.123 7.56 13.5 8.66
8/6/2022 7:30:00 AM 18.66 65.588 0.123 7.58 13.52 8.68
8/6/2022 7:45:00 AM 18.68 65.624 0.123 7.59 11.31 8.7
8/6/2022 8:00:00 AM 18.69 65.642 0.123 7.6 12.63 8.72
8/6/2022 8:15:00 AM 18.72 65.696 0.122 7.62 13.08 8.77
8/6/2022 8:30:00 AM 18.76 65.768 0.122 7.65 12.72 8.82
8/6/2022 8:45:00 AM 18.84 65.912 0.122 7.68 12.74 8.88
8/6/2022 9:00:00 AM 18.89 66.002 0.122 7.7 12.42 8.85
8/6/2022 9:15:00 AM 18.97 66.146 0.122 7.71 12.34 8.9
8/6/2022 9:30:00 AM 19.03 66.254 0.122 7.72 12.07 8.84
8/6/2022 9:45:00 AM 19.14 66.452 0.122 7.72 12.12 8.85
8/6/2022 10:00:00 AM 19.32 66.776 0.122 7.74 11.99 8.86
8/6/2022 10:15:00 AM 19.45 67.01 0.121 7.74 11.74 8.85
8/6/2022 10:30:00 AM 19.64 67.352 0.121 7.77 11.38 8.83
8/6/2022 10:45:00 AM 19.91 67.838 0.121 7.79 11.58 8.84
8/6/2022 11:00:00 AM 19.96 67.92799 0.121 7.77 11.47 8.79
8/6/2022 11:15:00 AM 20.12 68.216 0.121 7.79 11.22 8.8
8/6/2022 11:30:00 AM 20.3 68.54 0.121 7.81 11.19 8.77
8/6/2022 11:45:00 AM 20.55 68.99 0.121 7.81 11.09 8.75
8/6/2022 12:00:00 PM 20.8 69.44 0.121 7.82 10.92 8.7
8/6/2022 12:15:00 PM 20.95 69.71 0.121 7.83 11.41 8.7
8/6/2022 12:30:00 PM 21.09 69.962 0.121 7.83 11.56 8.66
8/6/2022 12:45:00 PM 21.24 70.232 0.121 7.83 12.24 8.62
8/6/2022 1:00:00 PM 21.39 70.502 0.121 7.83 10.85 8.61
8/6/2022 1:15:00 PM 21.52 70.736 0.121 7.83 11.76 8.57
8/6/2022 1:30:00 PM 21.58 70.844 0.121 7.83 12.06 8.55
8/6/2022 1:45:00 PM 21.7 71.06 0.121 7.83 11.84 8.54
8/6/2022 2:00:00 PM 21.62 70.916 0.121 7.83 12.04 8.52
8/6/2022 2:15:00 PM 21.61 70.898 0.121 7.83 12.37 8.54
8/6/2022 2:30:00 PM 21.52 70.736 0.121 7.81 12.3 8.47
8/6/2022 2:45:00 PM 21.47 70.646 0.121 7.81 11.97 8.49
8/6/2022 3:00:00 PM 21.4 70.52 0.121 7.77 12.3 8.43
8/6/2022 3:15:00 PM 21.44 70.592 0.121 7.8 12.21 8.49
8/6/2022 3:30:00 PM 21.47 70.646 0.122 7.8 12.45 8.48
8/6/2022 3:45:00 PM 21.5 70.7 0.121 7.81 12.59 8.52
8/6/2022 4:00:00 PM 21.47 70.646 0.122 7.8 12.2 8.46
8/6/2022 4:15:00 PM 21.39 70.502 0.122 7.77 12.15 8.39
8/6/2022 4:30:00 PM 21.39 70.502 0.122 7.76 12.72 8.37
8/6/2022 4:45:00 PM 21.38 70.484 0.122 7.75 13.16 8.37
8/6/2022 5:00:00 PM 21.39 70.502 0.122 7.74 13.13 8.35
8/6/2022 5:15:00 PM 21.39 70.502 0.122 7.72 13.65 8.32
8/6/2022 5:30:00 PM 21.35 70.43 0.122 7.72 12.88 8.3
8/6/2022 5:45:00 PM 21.29 70.32201 0.122 7.7 13.9 8.28
8/6/2022 6:00:00 PM 21.24 70.232 0.122 7.68 13.14 8.27
8/6/2022 6:15:00 PM 21.2 70.16 0.123 7.66 13.55 8.26
8/6/2022 6:30:00 PM 21.18 70.124 0.123 7.66 12.95 8.28
8/6/2022 6:45:00 PM 21.15 70.07 0.123 7.65 12.98 8.25
8/6/2022 7:00:00 PM 21.1 69.98 0.123 7.63 13.46 8.23
8/6/2022 7:15:00 PM 21.05 69.89 0.123 7.61 12.99 8.19
8/6/2022 7:30:00 PM 21 69.8 0.123 7.6 13.22 8.18
8/6/2022 7:45:00 PM 20.96 69.728 0.123 7.59 12.87 8.2
8/6/2022 8:00:00 PM 20.9 69.62 0.123 7.59 13.3 8.19
8/6/2022 8:15:00 PM 20.86 69.548 0.124 7.58 13.51 8.18
8/6/2022 8:30:00 PM 20.81 69.458 0.124 7.58 13.77 8.17
8/6/2022 8:45:00 PM 20.76 69.368 0.124 7.59 15.57 8.17
8/6/2022 9:00:00 PM 20.71 69.278 0.124 7.57 14.29 8.18
8/6/2022 9:15:00 PM 20.66 69.188 0.124 7.57 13.37 8.19
8/6/2022 9:30:00 PM 20.63 69.134 0.122 7.56 17.51 8.14
8/6/2022 9:45:00 PM 20.59 69.062 0.121 7.54 20.55 8.11
8/6/2022 10:00:00 PM 20.55 68.99 0.121 7.53 17.45 8.13
8/6/2022 10:15:00 PM 20.5 68.9 0.121 7.54 17.45 8.15
8/6/2022 10:30:00 PM 20.45 68.81 0.121 7.53 17.45 8.17
8/6/2022 10:45:00 PM 20.4 68.72 0.122 7.53 15.49 8.19
8/6/2022 11:00:00 PM 20.35 68.63 0.122 7.53 15.24 8.21
8/6/2022 11:15:00 PM 20.31 68.558 0.122 7.53 14.66 8.23
8/6/2022 11:30:00 PM 20.26 68.468 0.122 7.53 14.4 8.25
8/6/2022 11:45:00 PM 20.22 68.396 0.123 7.52 13.57 8.26
8/7/2022 12:00:00 AM 20.18 68.324 0.123 7.53 13.77 8.27
8/7/2022 12:15:00 AM 20.14 68.252 0.123 7.54 12.7 8.28
8/7/2022 12:30:00 AM 20.1 68.18 0.123 7.55 12.6 8.29
8/7/2022 12:45:00 AM 20.06 68.108 0.123 7.55 12.71 8.3
8/7/2022 1:00:00 AM 20.02 68.036 0.123 7.55 12.68 8.31
8/7/2022 1:15:00 AM 19.99 67.982 0.123 7.55 12.77 8.33
8/7/2022 1:30:00 AM 19.95 67.91 0.123 7.57 12.52 8.34
8/7/2022 1:45:00 AM 19.92 67.856 0.123 7.56 12.44 8.35
8/7/2022 2:00:00 AM 19.88 67.784 0.123 7.57 12.65 8.36
8/7/2022 2:15:00 AM 19.82 67.676 0.123 7.59 34.28 8.43
8/7/2022 2:30:00 AM 19.76 67.568 0.123 7.59 29.46 8.48
8/7/2022 2:45:00 AM 19.69 67.442 0.122 7.6 28.03 8.5
8/7/2022 3:00:00 AM 19.63 67.334 0.122 7.6 23.29 8.52
8/7/2022 3:15:00 AM 19.58 67.244 0.122 7.6 19.92 8.52
8/7/2022 3:30:00 AM 19.54 67.172 0.121 7.59 18.11 8.53
8/7/2022 3:45:00 AM 19.5 67.1 0.121 7.57 17.37 8.53
8/7/2022 4:00:00 AM 19.46 67.028 0.12 7.56 16.67 8.53
8/7/2022 4:15:00 AM 19.43 66.974 0.12 7.56 15.64 8.54
8/7/2022 4:30:00 AM 19.4 66.92 0.12 7.56 15.63 8.54
8/7/2022 4:45:00 AM 19.37 66.866 0.12 7.55 15.97 8.55
8/7/2022 5:00:00 AM 19.34 66.812 0.12 7.54 15.19 8.55
8/7/2022 5:15:00 AM 19.32 66.776 0.12 7.53 15.55 8.55
8/7/2022 5:30:00 AM 19.29 66.722 0.12 7.53 15.94 8.56
8/7/2022 5:45:00 AM 19.27 66.686 0.12 7.52 16.06 8.56
8/7/2022 6:00:00 AM 19.25 66.65 0.12 7.5 16.57 8.56
8/7/2022 6:15:00 AM 19.23 66.614 0.12 7.49 16.69 8.56
8/7/2022 6:30:00 AM -99999.99 -179968 -99999.99 -99999.99 -99999.99 -99999.99
8/7/2022 6:45:00 AM 19.18 66.524 0.12 7.49 16.24 8.59
8/7/2022 7:00:00 AM 19.18 66.524 0.12 7.49 15.65 8.6
8/7/2022 7:15:00 AM 19.18 66.524 0.12 7.5 15.88 8.62
8/7/2022 7:30:00 AM 19.17 66.506 0.12 7.49 15.43 8.63
8/7/2022 7:45:00 AM 19.18 66.524 0.12 7.49 14.93 8.65
8/7/2022 8:00:00 AM 19.2 66.56 0.12 7.51 14.87 8.66
8/7/2022 8:15:00 AM 19.25 66.65 0.12 7.55 14.94 8.71
8/7/2022 8:30:00 AM 19.27 66.686 0.12 7.57 15 8.68
8/7/2022 8:45:00 AM 19.28 66.704 0.119 7.57 14.29 8.69
8/7/2022 9:00:00 AM 19.36 66.848 0.119 7.58 14.44 8.77
8/7/2022 9:15:00 AM 19.4 66.92 0.119 7.6 14.6 8.75
8/7/2022 9:30:00 AM 19.41 66.938 0.119 7.58 14.33 8.68
8/7/2022 9:45:00 AM 19.42 66.956 0.12 7.57 13.36 8.68
8/7/2022 10:00:00 AM 19.47 67.046 0.119 7.6 12.86 8.74
8/7/2022 10:15:00 AM 19.56 67.208 0.119 7.66 13.18 8.82
8/7/2022 10:30:00 AM 19.69 67.442 0.119 7.7 12.68 8.86
8/7/2022 10:45:00 AM 19.81 67.658 0.119 7.74 12.49 8.85
8/7/2022 11:00:00 AM 19.89 67.802 0.119 7.75 12.38 8.81
8/7/2022 11:15:00 AM 19.93 67.874 0.119 7.74 12.6 8.79
8/7/2022 11:30:00 AM 20.1 68.18 0.118 7.77 11.39 8.83
8/7/2022 11:45:00 AM 20.34 68.612 0.118 7.8 11.87 8.81
8/7/2022 12:00:00 PM 20.52 68.936 0.118 7.81 12.07 8.78
8/7/2022 12:15:00 PM 20.69 69.242 0.118 7.8 11.99 8.71
8/7/2022 12:30:00 PM 20.88 69.584 0.118 7.8 12.09 8.66
8/7/2022 12:45:00 PM 21.11 69.998 0.118 7.81 11.74 8.65
8/7/2022 1:00:00 PM 21.14 70.052 0.119 7.78 12.64 8.59
8/7/2022 1:15:00 PM 21.34 70.412 0.119 7.8 12.37 8.58
8/7/2022 1:30:00 PM 21.39 70.502 0.119 7.79 12.64 8.55
8/7/2022 1:45:00 PM 21.46 70.628 0.119 7.8 12.77 8.58
8/7/2022 2:00:00 PM 21.52 70.736 0.119 7.81 13.18 8.57
8/7/2022 2:15:00 PM 21.5 70.7 0.119 7.78 12.4 8.43
8/7/2022 2:30:00 PM 21.41 70.538 0.119 7.75 13.33 8.37
8/7/2022 2:45:00 PM 21.35 70.43 0.119 7.73 13.23 8.37
8/7/2022 3:00:00 PM 21.49 70.682 0.119 7.79 12.23 8.55
8/7/2022 3:15:00 PM 21.52 70.736 0.119 7.8 12.77 8.55
8/7/2022 3:30:00 PM 21.55 70.79 0.119 7.79 12.82 8.49
8/7/2022 3:45:00 PM 21.54 70.772 0.119 7.77 12.45 8.41
8/7/2022 4:00:00 PM 21.55 70.79 0.119 7.76 12.55 8.39
8/7/2022 4:15:00 PM 21.51 70.718 0.12 7.74 12.77 8.31
8/7/2022 4:30:00 PM 21.45 70.61 0.12 7.68 12.97 8.22
8/7/2022 4:45:00 PM 21.42 70.556 0.12 7.68 12.58 8.22
8/7/2022 5:00:00 PM 21.39 70.502 0.12 7.71 14.2 8.32
8/7/2022 5:15:00 PM 21.44 70.592 0.12 7.75 14.31 8.41
8/7/2022 5:30:00 PM 21.37 70.466 0.12 7.74 14.11 8.37
8/7/2022 5:45:00 PM 21.35 70.43 0.12 7.72 14.79 8.36
8/7/2022 6:00:00 PM 21.3 70.34 0.12 7.7 14.52 8.33
8/7/2022 6:15:00 PM 21.26 70.268 0.12 7.67 15.13 8.29
8/7/2022 6:30:00 PM 21.22 70.196 0.121 7.64 14.23 8.26
8/7/2022 6:45:00 PM 21.18 70.124 0.121 7.63 13.91 8.25
8/7/2022 7:00:00 PM 21.14 70.052 0.121 7.61 13.95 8.22
8/7/2022 7:15:00 PM 21.09 69.962 0.121 7.59 14.52 8.2
8/7/2022 7:30:00 PM 21.04 69.872 0.121 7.59 15.03 8.19
8/7/2022 7:45:00 PM 21 69.8 0.121 7.58 15.16 8.17
8/7/2022 8:00:00 PM 20.95 69.71 0.122 7.57 14.68 8.17
8/7/2022 8:15:00 PM 20.9 69.62 0.122 7.57 15.2 8.16
8/7/2022 8:30:00 PM 20.86 69.548 0.122 7.56 15.25 8.16
8/7/2022 8:45:00 PM 20.81 69.458 0.122 7.57 15.76 8.16
8/7/2022 9:00:00 PM 20.77 69.386 0.122 7.57 15.09 8.17
8/7/2022 9:15:00 PM 20.72 69.296 0.122 7.57 14.47 8.18
8/7/2022 9:30:00 PM 20.67 69.206 0.122 7.57 16 8.19
8/7/2022 9:45:00 PM 20.63 69.134 0.122 7.57 14.9 8.19
8/7/2022 10:00:00 PM 20.58 69.044 0.122 7.57 17.18 8.2
8/7/2022 10:15:00 PM 20.54 68.972 0.122 7.57 21.24 8.21
8/7/2022 10:30:00 PM 20.49 68.882 0.122 7.57 16.9 8.22
8/7/2022 10:45:00 PM 20.45 68.81 0.122 7.57 16.28 8.23
8/7/2022 11:00:00 PM 20.41 68.738 0.122 7.56 14.43 8.23
8/7/2022 11:15:00 PM 20.37 68.666 0.122 7.56 13.38 8.24
8/7/2022 11:30:00 PM 20.33 68.594 0.122 7.56 14.54 8.24
8/7/2022 11:45:00 PM 20.3 68.54 0.122 7.56 14.26 8.25
8/8/2022 12:00:00 AM 20.27 68.486 0.122 7.56 13.68 8.25
8/8/2022 12:15:00 AM 20.23 68.414 0.122 7.56 14.18 8.26
8/8/2022 12:30:00 AM 20.2 68.36 0.122 7.56 13.52 8.26
8/8/2022 12:45:00 AM 20.17 68.306 0.122 7.57 14.11 8.27
8/8/2022 1:00:00 AM 20.13 68.234 0.122 7.58 16.01 8.27
8/8/2022 1:15:00 AM 20.1 68.18 0.124 7.58 14.05 8.28
8/8/2022 1:30:00 AM 20.07 68.126 0.167 7.56 13.26 8.28
8/8/2022 1:45:00 AM 20.04 68.07201 0.189 7.56 12.81 8.29
8/8/2022 2:00:00 AM 20.01 68.018 0.174 7.56 13.07 8.29
8/8/2022 2:15:00 AM 19.99 67.982 0.182 7.56 12.86 8.3
8/8/2022 2:30:00 AM 19.95 67.91 0.22 7.56 12.46 8.3
8/8/2022 2:45:00 AM 19.93 67.874 0.205 7.56 13.01 8.31
8/8/2022 3:00:00 AM 19.89 67.802 0.191 7.57 12.63 8.32
8/8/2022 3:15:00 AM 19.87 67.766 0.251 7.55 11.76 8.32
8/8/2022 3:30:00 AM 19.84 67.712 0.262 7.55 11.06 8.32
8/8/2022 3:45:00 AM 19.81 67.658 0.228 7.57 11.74 8.33
8/8/2022 4:00:00 AM 19.79 67.622 0.2 7.57 12.13 8.33
8/8/2022 4:15:00 AM 19.78 67.604 0.182 7.57 12.25 8.33
8/8/2022 4:30:00 AM 19.77 67.586 0.169 7.57 12.8 8.34
8/8/2022 4:45:00 AM 19.76 67.568 0.161 7.56 12.46 8.33
8/8/2022 5:00:00 AM 19.74 67.532 0.155 7.56 13.11 8.33
8/8/2022 5:15:00 AM 19.73 67.514 0.151 7.56 13.73 8.34
8/8/2022 5:30:00 AM 19.71 67.478 0.147 7.56 13.78 8.33
8/8/2022 5:45:00 AM 19.69 67.442 0.144 7.56 13.46 8.34
8/8/2022 6:00:00 AM 19.67 67.406 0.142 7.56 14.53 8.34
8/8/2022 6:15:00 AM -99999.99 -179968 -99999.99 -99999.99 -99999.99 -99999.99
8/8/2022 6:30:00 AM 19.61 67.298 0.139 7.58 16.05 8.36
8/8/2022 6:45:00 AM 19.61 67.298 0.137 7.58 14.6 8.38
8/8/2022 7:00:00 AM 19.61 67.298 0.136 7.58 15.49 8.39
8/8/2022 7:15:00 AM 19.62 67.316 0.135 7.59 14.71 8.41
8/8/2022 7:30:00 AM 19.64 67.352 0.134 7.59 15.54 8.45
8/8/2022 7:45:00 AM 19.65 67.37 0.133 7.59 15.81 8.46
8/8/2022 8:00:00 AM 19.67 67.406 0.133 7.59 16.68 8.47
8/8/2022 8:15:00 AM 19.69 67.442 0.132 7.58 15.14 8.49
8/8/2022 8:30:00 AM 19.71 67.478 0.131 7.59 14.61 8.5
8/8/2022 8:45:00 AM 19.73 67.514 0.131 7.59 14.45 8.48
8/8/2022 9:00:00 AM 19.75 67.55 0.13 7.6 13.9 8.5
8/8/2022 9:15:00 AM 19.78 67.604 0.13 7.6 14.82 8.52
8/8/2022 9:30:00 AM 19.79 67.622 0.13 7.6 14 8.5
8/8/2022 9:45:00 AM 19.82 67.676 0.129 7.6 13.74 8.53
8/8/2022 10:00:00 AM 19.87 67.766 0.129 7.62 13.37 8.57
8/8/2022 10:15:00 AM 19.98 67.964 0.128 7.68 12.93 8.68
8/8/2022 10:30:00 AM 20.09 68.162 0.128 7.71 12.6 8.68
8/8/2022 10:45:00 AM 20.28 68.504 0.127 7.75 13.03 8.73
8/8/2022 11:00:00 AM 20.46 68.828 0.127 7.78 12.49 8.71
8/8/2022 11:15:00 AM 20.59 69.062 0.126 7.79 12.49 8.68
8/8/2022 11:30:00 AM 20.71 69.278 0.126 7.78 12.57 8.62
8/8/2022 11:45:00 AM 20.82 69.476 0.126 7.78 12.16 8.56
8/8/2022 12:00:00 PM 21.08 69.944 0.125 7.81 12.41 8.6
8/8/2022 12:15:00 PM 21.14 70.052 0.125 7.78 11.87 8.45
8/8/2022 12:30:00 PM 21.14 70.052 0.125 7.77 12.88 8.47
8/8/2022 12:45:00 PM 21.33 70.394 0.125 7.78 12.88 8.49
8/8/2022 1:00:00 PM 21.58 70.844 0.125 7.8 13.75 8.51
8/8/2022 1:15:00 PM 21.69 71.042 0.125 7.81 13.18 8.48
8/8/2022 1:30:00 PM 21.74 71.132 0.125 7.83 13.7 8.51
8/8/2022 1:45:00 PM 21.74 71.132 0.125 7.82 14.66 8.44
8/8/2022 2:00:00 PM 21.72 71.096 0.125 7.81 14.41 8.4
8/8/2022 2:15:00 PM 21.76 71.168 0.124 7.82 14.09 8.46
8/8/2022 2:30:00 PM 21.87 71.366 0.124 7.86 13.56 8.51
8/8/2022 2:45:00 PM 21.8 71.24 0.124 7.81 22.29 8.33
8/8/2022 3:00:00 PM 21.74 71.132 0.124 7.78 14.52 8.29
8/8/2022 3:15:00 PM 21.69 71.042 0.124 7.75 14.36 8.28
8/8/2022 3:30:00 PM 21.65 70.97 0.124 7.75 13.99 8.24
8/8/2022 3:45:00 PM 21.61 70.898 0.124 7.76 14.67 8.32
8/8/2022 4:00:00 PM 21.56 70.808 0.124 7.75 14.26 8.25
8/8/2022 4:15:00 PM 21.53 70.754 0.124 7.76 14.49 8.29
8/8/2022 4:30:00 PM 21.51 70.718 0.124 7.76 14.82 8.32
8/8/2022 4:45:00 PM 21.52 70.736 0.124 7.77 14.49 8.36
8/8/2022 5:00:00 PM 21.52 70.736 0.124 7.77 14.89 8.37
8/8/2022 5:15:00 PM 21.52 70.736 0.124 7.77 14.58 8.35
8/8/2022 5:30:00 PM 21.56 70.808 0.124 7.77 14.62 8.36
8/8/2022 5:45:00 PM 21.53 70.754 0.124 7.75 15.67 8.28
8/8/2022 6:00:00 PM 21.5 70.7 0.124 7.72 14.75 8.21
8/8/2022 6:15:00 PM 21.46 70.628 0.124 7.7 14.96 8.17
8/8/2022 6:30:00 PM 21.45 70.61 0.124 7.68 14.83 8.17
8/8/2022 6:45:00 PM 21.42 70.556 0.124 7.68 12.33 8.14
8/8/2022 7:00:00 PM 21.39 70.502 0.124 7.66 15.05 8.14
8/8/2022 7:15:00 PM 21.36 70.448 0.125 7.66 14.33 8.13
8/8/2022 7:30:00 PM 21.32 70.376 0.125 7.65 16.16 8.12
8/8/2022 7:45:00 PM 21.28 70.304 0.125 7.64 14.27 8.1
8/8/2022 8:00:00 PM 21.24 70.232 0.125 7.64 15.5 8.08
8/8/2022 8:15:00 PM 21.18 70.124 0.125 7.62 14.88 8.07
8/8/2022 8:30:00 PM 21.13 70.034 0.125 7.61 15.67 8.06
8/8/2022 8:45:00 PM 21.07 69.926 0.125 7.6 15.64 8.07
8/8/2022 9:00:00 PM 21.02 69.836 0.125 7.61 15.66 8.07
8/8/2022 9:15:00 PM 20.97 69.746 0.125 7.6 22.01 8.08
8/8/2022 9:30:00 PM 20.93 69.674 0.125 7.6 17.5 8.09
8/8/2022 9:45:00 PM 20.88 69.584 0.125 7.6 16.37 8.1
8/8/2022 10:00:00 PM 20.83 69.494 0.125 7.59 16.01 8.11
8/8/2022 10:15:00 PM 20.79 69.422 0.125 7.59 14.99 8.11
8/8/2022 10:30:00 PM 20.75 69.35 0.125 7.59 14.82 8.12
8/8/2022 10:45:00 PM 20.71 69.278 0.125 7.59 14.22 8.13
8/8/2022 11:00:00 PM 20.67 69.206 0.125 7.59 14.21 8.14
8/8/2022 11:15:00 PM 20.64 69.152 0.125 7.59 13.78 8.15
8/8/2022 11:30:00 PM 20.61 69.098 0.125 7.59 14.33 8.15
8/8/2022 11:45:00 PM 20.58 69.044 0.125 7.59 14.34 8.16
8/9/2022 12:00:00 AM 20.55 68.99 0.125 7.59 13.84 8.16
8/9/2022 12:15:00 AM 20.52 68.936 0.125 7.59 14.01 8.17
8/9/2022 12:30:00 AM 20.5 68.9 0.125 7.58 14.55 8.17
8/9/2022 12:45:00 AM 20.47 68.846 0.124 7.58 14.41 8.18
8/9/2022 1:00:00 AM 20.45 68.81 0.124 7.58 14.45 8.17
8/9/2022 1:15:00 AM -99999.99 -179968 -99999.99 -99999.99 -99999.99 -99999.99
8/9/2022 1:30:00 AM -99999.99 -179968 -99999.99 -99999.99 -99999.99 -99999.99
8/9/2022 1:45:00 AM -99999.99 -179968 -99999.99 -99999.99 -99999.99 -99999.99
8/9/2022 2:00:00 AM -99999.99 -179968 -99999.99 -99999.99 -99999.99 -99999.99
8/9/2022 2:15:00 AM -99999.99 -179968 -99999.99 -99999.99 -99999.99 -99999.99
8/9/2022 2:30:00 AM -99999.99 -179968 -99999.99 -99999.99 -99999.99 -99999.99
8/9/2022 2:45:00 AM -99999.99 -179968 -99999.99 -99999.99 -99999.99 -99999.99
8/9/2022 3:00:00 AM -99999.99 -179968 -99999.99 -99999.99 -99999.99 -99999.99
8/9/2022 3:15:00 AM -99999.99 -179968 -99999.99 -99999.99 -99999.99 -99999.99
8/9/2022 3:30:00 AM -99999.99 -179968 -99999.99 -99999.99 -99999.99 -99999.99
8/9/2022 3:45:00 AM -99999.99 -179968 -99999.99 -99999.99 -99999.99 -99999.99
8/9/2022 4:00:00 AM -99999.99 -179968 -99999.99 -99999.99 -99999.99 -99999.99
8/9/2022 4:15:00 AM -99999.99 -179968 -99999.99 -99999.99 -99999.99 -99999.99
8/9/2022 4:30:00 AM -99999.99 -179968 -99999.99 -99999.99 -99999.99 -99999.99
8/9/2022 4:45:00 AM -99999.99 -179968 -99999.99 -99999.99 -99999.99 -99999.99
8/9/2022 5:00:00 AM -99999.99 -179968 -99999.99 -99999.99 -99999.99 -99999.99
8/9/2022 5:15:00 AM -99999.99 -179968 -99999.99 -99999.99 -99999.99 -99999.99
8/9/2022 5:30:00 AM -99999.99 -179968 -99999.99 -99999.99 -99999.99 -99999.99
8/9/2022 5:45:00 AM -99999.99 -179968 -99999.99 -99999.99 -99999.99 -99999.99
8/9/2022 6:00:00 AM -99999.99 -179968 -99999.99 -99999.99 -99999.99 -99999.99
8/9/2022 6:15:00 AM -99999.99 -179968 -99999.99 -99999.99 -99999.99 -99999.99
8/9/2022 6:30:00 AM -99999.99 -179968 -99999.99 -99999.99 -99999.99 -99999.99
8/9/2022 6:45:00 AM -99999.99 -179968 -99999.99 -99999.99 -99999.99 -99999.99
8/9/2022 7:00:00 AM 20.11 68.198 0.125 7.54 15.95 8.26
8/9/2022 7:15:00 AM 20.11 68.198 0.125 7.54 15.75 8.28
8/9/2022 7:30:00 AM 20.12 68.216 0.125 7.54 15.61 8.3
8/9/2022 7:45:00 AM 20.12 68.216 0.125 7.54 15.67 8.3
8/9/2022 8:00:00 AM 20.13 68.234 0.124 7.54 15.49 8.32
8/9/2022 8:15:00 AM 20.14 68.252 0.124 7.54 15.86 8.32
8/9/2022 8:30:00 AM 20.15 68.27 0.124 7.55 14.96 8.38
8/9/2022 8:45:00 AM 20.22 68.396 0.124 7.58 14.67 8.47
8/9/2022 9:00:00 AM 20.29 68.522 0.124 7.64 15.47 8.49
8/9/2022 9:15:00 AM 20.29 68.522 0.124 7.63 14.4 8.36
8/9/2022 9:30:00 AM 20.29 68.522 0.122 7.63 17.76 8.31
8/9/2022 9:45:00 AM 20.29 68.522 0.122 7.63 16.65 8.34
8/9/2022 10:00:00 AM 20.3 68.54 0.122 7.65 15.17 8.37
8/9/2022 10:15:00 AM 20.31 68.558 0.122 7.66 15.54 8.38
8/9/2022 10:30:00 AM 20.28 68.504 0.122 7.66 15.66 8.35
8/9/2022 10:45:00 AM 20.3 68.54 0.121 7.69 14.02 8.5
8/9/2022 11:00:00 AM 20.47 68.846 0.121 7.76 14.55 8.65
8/9/2022 11:15:00 AM 20.59 69.062 0.121 7.76 14.09 8.57
8/9/2022 11:30:00 AM 20.57 69.026 0.121 7.74 13.52 8.53
8/9/2022 11:45:00 AM 20.61 69.098 0.121 7.78 13.25 8.63
8/9/2022 12:00:00 PM 20.65 69.17 0.121 7.77 13.72 8.56
8/9/2022 12:15:00 PM 20.67 69.206 0.121 7.76 14.12 8.55
8/9/2022 12:30:00 PM 20.68 69.224 0.121 7.76 13.38 8.53
8/9/2022 12:45:00 PM 20.72 69.296 0.121 7.77 14 8.55
8/9/2022 1:00:00 PM 20.72 69.296 0.121 7.75 14.45 8.49
8/9/2022 1:15:00 PM 20.78 69.404 0.121 7.78 14.04 8.59
8/9/2022 1:30:00 PM 20.87 69.566 0.121 7.82 14.77 8.64
8/9/2022 1:45:00 PM 20.97 69.746 0.121 7.84 15.01 8.65
8/9/2022 2:00:00 PM 21.03 69.854 0.121 7.85 14.79 8.63
8/9/2022 2:15:00 PM 21.13 70.034 0.121 7.85 15.71 8.6
8/9/2022 2:30:00 PM 21.28 70.304 0.121 7.85 15.54 8.57
8/9/2022 2:45:00 PM 21.28 70.304 0.121 7.84 15.19 8.55
8/9/2022 3:00:00 PM 21.34 70.412 0.121 7.84 15.18 8.52
8/9/2022 3:15:00 PM 21.47 70.646 0.121 7.84 15.8 8.52
8/9/2022 3:30:00 PM 21.57 70.826 0.121 7.84 16.33 8.5
8/9/2022 3:45:00 PM 21.58 70.844 0.122 7.81 15.85 8.39
8/9/2022 4:00:00 PM 21.56 70.808 0.122 7.81 15.5 8.41
8/9/2022 4:15:00 PM 21.53 70.754 0.122 7.8 15.77 8.39
8/9/2022 4:30:00 PM 21.59 70.862 0.122 7.79 16.34 8.34
8/9/2022 4:45:00 PM 21.57 70.826 0.122 7.77 15.16 8.29
8/9/2022 5:00:00 PM 21.6 70.88 0.122 7.77 15.74 8.33
8/9/2022 5:15:00 PM 21.56 70.808 0.122 7.74 15.05 8.23
8/9/2022 5:30:00 PM 21.52 70.736 0.122 7.72 14.87 8.22
8/9/2022 5:45:00 PM 21.44 70.592 0.123 7.7 15.59 8.17
8/9/2022 6:00:00 PM 21.38 70.484 0.123 7.69 15.39 8.16
8/9/2022 6:15:00 PM 21.31 70.358 0.123 7.67 15.98 8.15
8/9/2022 6:30:00 PM 21.26 70.268 0.123 7.67 15.67 8.17
8/9/2022 6:45:00 PM 21.21 70.17799 0.123 7.67 15.29 8.18
8/9/2022 7:00:00 PM 21.15 70.07 0.123 7.66 15.59 8.17
8/9/2022 7:15:00 PM 21.06 69.908 0.123 7.67 15.38 8.16
8/9/2022 7:30:00 PM 20.98 69.764 0.122 7.67 16.38 8.16
8/9/2022 7:45:00 PM 20.91 69.638 0.123 7.66 14.65 8.16
8/9/2022 8:00:00 PM 20.84 69.512 0.123 7.66 15.09 8.16
8/9/2022 8:15:00 PM 20.77 69.386 0.123 7.65 16.05 8.16
8/9/2022 8:30:00 PM 20.69 69.242 0.123 7.65 16.81 8.16
8/9/2022 8:45:00 PM 20.62 69.116 0.123 7.64 16.96 8.17
8/9/2022 9:00:00 PM 20.55 68.99 0.123 7.65 15.57 8.19
8/9/2022 9:15:00 PM 20.47 68.846 0.123 7.65 17.03 8.2
8/9/2022 9:30:00 PM 20.39 68.702 0.123 7.65 15.71 8.22
8/9/2022 9:45:00 PM 20.32 68.576 0.123 7.65 15.45 8.23
8/9/2022 10:00:00 PM 20.25 68.45 0.123 7.65 15.48 8.25
8/9/2022 10:15:00 PM 20.2 68.36 0.123 7.65 15.3 8.26
8/9/2022 10:30:00 PM 20.14 68.252 0.123 7.65 14.06 8.27
8/9/2022 10:45:00 PM 20.08 68.144 0.123 7.65 14 8.28
8/9/2022 11:00:00 PM 20.02 68.036 0.123 7.65 14.72 8.29
8/9/2022 11:15:00 PM 19.97 67.946 0.123 7.65 14.76 8.3
8/9/2022 11:30:00 PM 19.91 67.838 0.123 7.65 15.33 8.32
8/9/2022 11:45:00 PM 19.86 67.748 0.123 7.65 14.64 8.33
8/10/2022 12:00:00 AM 19.8 67.64 0.123 7.65 14.81 8.32
8/10/2022 12:15:00 AM 19.74 67.532 0.123 7.65 14.11 8.33
8/10/2022 12:30:00 AM 19.69 67.442 0.123 7.64 15.17 8.35
8/10/2022 12:45:00 AM 19.64 67.352 0.123 7.64 14.22 8.36
8/10/2022 1:00:00 AM 19.59 67.262 0.123 7.64 15.64 8.37
8/10/2022 1:15:00 AM 19.54 67.172 0.123 7.64 13.89 8.38
8/10/2022 1:30:00 AM 19.5 67.1 0.123 7.64 14.09 8.39
8/10/2022 1:45:00 AM 19.44 66.992 0.123 7.64 14.39 8.4
8/10/2022 2:00:00 AM 19.36 66.848 0.123 7.64 14.28 8.41
8/10/2022 2:15:00 AM 19.3 66.74 0.123 7.64 15.41 8.42
8/10/2022 2:30:00 AM 19.24 66.632 0.123 7.64 15.06 8.43
8/10/2022 2:45:00 AM 19.18 66.524 0.123 7.64 15 8.44
8/10/2022 3:00:00 AM 19.1 66.38 0.123 7.64 14.02 8.46
8/10/2022 3:15:00 AM 19.03 66.254 0.123 7.64 14.95 8.47
8/10/2022 3:30:00 AM 18.96 66.128 0.123 7.64 14.32 8.49
8/10/2022 3:45:00 AM 18.9 66.02 0.123 7.64 14.63 8.49
8/10/2022 4:00:00 AM 18.84 65.912 0.123 7.64 14.77 8.51
8/10/2022 4:15:00 AM 18.79 65.82201 0.123 7.64 13.84 8.52
8/10/2022 4:30:00 AM 18.73 65.714 0.123 7.63 14.9 8.53
8/10/2022 4:45:00 AM 18.67 65.606 0.123 7.64 13.83 8.54
8/10/2022 5:00:00 AM 18.63 65.534 0.123 7.63 13.82 8.55
8/10/2022 5:15:00 AM 18.6 65.48 0.123 7.64 14.01 8.56
8/10/2022 5:30:00 AM 18.56 65.408 0.123 7.63 14.46 8.57
8/10/2022 5:45:00 AM 18.5 65.3 0.123 7.63 15.88 8.58
8/10/2022 6:00:00 AM 18.44 65.192 0.123 7.63 15.55 8.59
8/10/2022 6:15:00 AM 18.37 65.066 0.123 7.63 15.99 8.6
8/10/2022 6:30:00 AM -99999.99 -179968 -99999.99 -99999.99 -99999.99 -99999.99
8/10/2022 6:45:00 AM 18.28 64.904 0.123 7.63 16.79 8.64
8/10/2022 7:00:00 AM 18.24 64.832 0.123 7.63 15.85 8.67
8/10/2022 7:15:00 AM 18.22 64.796 0.123 7.64 15.62 8.68
8/10/2022 7:30:00 AM 18.21 64.778 0.123 7.64 15.64 8.7
8/10/2022 7:45:00 AM 18.22 64.796 0.123 7.65 16.36 8.71
8/10/2022 8:00:00 AM 18.23 64.814 0.123 7.65 16.02 8.74
8/10/2022 8:15:00 AM 18.24 64.832 0.123 7.66 15.96 8.75
8/10/2022 8:30:00 AM 18.28 64.904 0.123 7.67 14.56 8.77
8/10/2022 8:45:00 AM 18.36 65.048 0.122 7.69 15.51 8.84
8/10/2022 9:00:00 AM 18.4 65.12 0.122 7.71 15.27 8.84
8/10/2022 9:15:00 AM 18.41 65.138 0.122 7.71 14.39 8.83
8/10/2022 9:30:00 AM 18.39 65.102 0.122 7.72 14.48 8.83
8/10/2022 9:45:00 AM 18.46 65.228 0.122 7.75 13.86 8.92
8/10/2022 10:00:00 AM 18.47 65.246 0.122 7.76 13.44 8.9
8/10/2022 10:15:00 AM 18.55 65.39 0.122 7.78 13.42 8.98
8/10/2022 10:30:00 AM 18.61 65.498 0.122 7.79 13.61 8.95
8/10/2022 10:45:00 AM 18.65 65.57 0.122 7.79 12.8 8.94
8/10/2022 11:00:00 AM 18.67 65.606 0.122 7.79 11.9 8.94
8/10/2022 11:15:00 AM 18.71 65.67799 0.122 7.8 12.78 8.96
8/10/2022 11:30:00 AM 18.75 65.75 0.122 7.82 12.77 8.96
8/10/2022 11:45:00 AM 18.78 65.804 0.122 7.82 13.48 8.95
8/10/2022 12:00:00 PM 18.82 65.876 0.122 7.82 12.22 8.94
8/10/2022 12:15:00 PM 18.88 65.984 0.122 7.84 12.44 9
8/10/2022 12:30:00 PM 18.99 66.182 0.121 7.87 12.84 9.04
8/10/2022 12:45:00 PM 19.04 66.272 0.121 7.88 13.07 9.01
8/10/2022 1:00:00 PM 19.14 66.452 0.121 7.88 13.16 9.01
8/10/2022 1:15:00 PM 19.35 66.83 0.121 7.89 12.67 8.98
8/10/2022 1:30:00 PM 19.38 66.884 0.121 7.89 13.62 8.96
8/10/2022 1:45:00 PM 19.48 67.064 0.121 7.9 13.96 8.94
8/10/2022 2:00:00 PM 19.54 67.172 0.121 7.88 13.58 8.86
8/10/2022 2:15:00 PM 19.71 67.478 0.122 7.88 14 8.86
8/10/2022 2:30:00 PM 19.8 67.64 0.122 7.89 14.84 8.85
8/10/2022 2:45:00 PM 19.81 67.658 0.122 7.87 14.76 8.79
8/10/2022 3:00:00 PM 19.86 67.748 0.122 7.84 15.18 8.72
8/10/2022 3:15:00 PM 19.9 67.82 0.122 7.82 13.58 8.67
8/10/2022 3:30:00 PM 19.92 67.856 0.122 7.83 13.55 8.7
8/10/2022 3:45:00 PM 19.94 67.892 0.122 7.85 14.65 8.74
8/10/2022 4:00:00 PM 19.92 67.856 0.122 7.82 14.61 8.65
8/10/2022 4:15:00 PM 19.84 67.712 0.122 7.79 13.35 8.57
8/10/2022 4:30:00 PM 19.83 67.694 0.123 7.77 11.63 8.53
8/10/2022 4:45:00 PM 19.82 67.676 0.123 7.75 15.39 8.51
8/10/2022 5:00:00 PM 19.85 67.73 0.123 7.77 15.07 8.57
8/10/2022 5:15:00 PM 19.88 67.784 0.123 7.79 15.45 8.6
8/10/2022 5:30:00 PM 19.9 67.82 0.123 7.78 15.85 8.61
8/10/2022 5:45:00 PM 19.89 67.802 0.123 7.78 15.15 8.56
8/10/2022 6:00:00 PM 19.82 67.676 0.123 7.74 16.29 8.46
8/10/2022 6:15:00 PM 19.78 67.604 0.123 7.73 15.32 8.48
8/10/2022 6:30:00 PM 19.77 67.586 0.123 7.72 15.01 8.48
8/10/2022 6:45:00 PM 19.75 67.55 0.123 7.72 14.03 8.48
8/10/2022 7:00:00 PM 19.7 67.46 0.124 7.7 15.82 8.44
8/10/2022 7:15:00 PM 19.63 67.334 0.124 7.7 14.79 8.41
8/10/2022 7:30:00 PM 19.55 67.19 0.124 7.69 15.36 8.4
8/10/2022 7:45:00 PM 19.47 67.046 0.124 7.68 15.78 8.4
8/10/2022 8:00:00 PM 19.4 66.92 0.124 7.67 16.26 8.4
8/10/2022 8:15:00 PM 19.32 66.776 0.124 7.67 15.95 8.41
8/10/2022 8:30:00 PM 19.27 66.686 0.124 7.66 16.41 8.41
8/10/2022 8:45:00 PM 19.2 66.56 0.124 7.66 16.05 8.42
8/10/2022 9:00:00 PM 19.13 66.434 0.124 7.66 16.48 8.43
8/10/2022 9:15:00 PM 19.06 66.308 0.124 7.66 13.32 8.45
8/10/2022 9:30:00 PM 19 66.2 0.124 7.66 20.09 8.46
8/10/2022 9:45:00 PM 18.93 66.074 0.124 7.66 17.36 8.47
8/10/2022 10:00:00 PM 18.85 65.93 0.124 7.65 15.42 8.48
8/10/2022 10:15:00 PM 18.78 65.804 0.124 7.65 14.32 8.5
8/10/2022 10:30:00 PM 18.7 65.66 0.124 7.65 14.37 8.51
8/10/2022 10:45:00 PM 18.63 65.534 0.124 7.65 14.24 8.53
8/10/2022 11:00:00 PM 18.55 65.39 0.124 7.65 13.94 8.54
8/10/2022 11:15:00 PM 18.47 65.246 0.124 7.65 13.43 8.56
8/10/2022 11:30:00 PM 18.4 65.12 0.124 7.65 13.11 8.57
8/10/2022 11:45:00 PM 18.32 64.976 0.124 7.65 13.61 8.59
8/11/2022 12:00:00 AM 18.26 64.868 0.124 7.65 14.29 8.6
8/11/2022 12:15:00 AM 18.19 64.742 0.124 7.65 13 8.61
8/11/2022 12:30:00 AM 18.12 64.616 0.124 7.64 12.79 8.63
8/11/2022 12:45:00 AM 18.05 64.49 0.124 7.64 12.55 8.64
8/11/2022 1:00:00 AM 17.99 64.382 0.124 7.64 12.6 8.65
8/11/2022 1:15:00 AM 17.93 64.274 0.124 7.64 13.18 8.67
8/11/2022 1:30:00 AM 17.86 64.148 0.124 7.64 12.82 8.68
8/11/2022 1:45:00 AM 17.8 64.04 0.124 7.64 13.02 8.69
8/11/2022 2:00:00 AM 17.74 63.932 0.124 7.64 13.52 8.7
8/11/2022 2:15:00 AM 17.68 63.824 0.124 7.64 12.43 8.71
8/11/2022 2:30:00 AM 17.62 63.716 0.124 7.64 14.09 8.72
8/11/2022 2:45:00 AM -99999.99 -179968 -99999.99 -99999.99 -99999.99 -99999.99
8/11/2022 3:00:00 AM -99999.99 -179968 -99999.99 -99999.99 -99999.99 -99999.99
8/11/2022 3:15:00 AM -99999.99 -179968 -99999.99 -99999.99 -99999.99 -99999.99
8/11/2022 3:30:00 AM -99999.99 -179968 -99999.99 -99999.99 -99999.99 -99999.99
8/11/2022 3:45:00 AM -99999.99 -179968 -99999.99 -99999.99 -99999.99 -99999.99
8/11/2022 4:00:00 AM -99999.99 -179968 -99999.99 -99999.99 -99999.99 -99999.99
8/11/2022 4:15:00 AM -99999.99 -179968 -99999.99 -99999.99 -99999.99 -99999.99
8/11/2022 4:30:00 AM -99999.99 -179968 -99999.99 -99999.99 -99999.99 -99999.99
8/11/2022 4:45:00 AM -99999.99 -179968 -99999.99 -99999.99 -99999.99 -99999.99
8/11/2022 5:00:00 AM -99999.99 -179968 -99999.99 -99999.99 -99999.99 -99999.99
8/11/2022 5:15:00 AM -99999.99 -179968 -99999.99 -99999.99 -99999.99 -99999.99
8/11/2022 5:30:00 AM -99999.99 -179968 -99999.99 -99999.99 -99999.99 -99999.99
8/11/2022 5:45:00 AM -99999.99 -179968 -99999.99 -99999.99 -99999.99 -99999.99
8/11/2022 6:00:00 AM -99999.99 -179968 -99999.99 -99999.99 -99999.99 -99999.99
8/11/2022 6:15:00 AM -99999.99 -179968 -99999.99 -99999.99 -99999.99 -99999.99
8/11/2022 6:30:00 AM -99999.99 -179968 -99999.99 -99999.99 -99999.99 -99999.99
8/11/2022 6:45:00 AM -99999.99 -179968 -99999.99 -99999.99 -99999.99 -99999.99
8/11/2022 7:00:00 AM 16.73 62.114 0.123 7.64 15.03 8.94
8/11/2022 7:15:00 AM 16.72 62.096 0.123 7.65 15.12 8.97
8/11/2022 7:30:00 AM 16.73 62.114 0.123 7.66 14.63 9
8/11/2022 7:45:00 AM 16.73 62.114 0.123 7.67 14.49 9.04
8/11/2022 8:00:00 AM 16.73 62.114 0.123 7.68 14.39 9.06
8/11/2022 8:15:00 AM 16.74 62.132 0.123 7.69 14.66 9.08
8/11/2022 8:30:00 AM 16.78 62.204 0.123 7.7 13.95 9.09
8/11/2022 8:45:00 AM 16.84 62.312 0.123 7.7 13.76 9.08
8/11/2022 9:00:00 AM 16.95 62.51 0.122 7.72 13.7 9.1
8/11/2022 9:15:00 AM 17.07 62.726 0.122 7.73 13.52 9.12
8/11/2022 9:30:00 AM 17.23 63.014 0.122 7.75 13.75 9.16
8/11/2022 9:45:00 AM 17.37 63.266 0.122 7.77 12.65 9.16
8/11/2022 10:00:00 AM 17.53 63.554 0.122 7.79 12.67 9.15
8/11/2022 10:15:00 AM 17.73 63.914 0.122 7.81 12.05 9.15
8/11/2022 10:30:00 AM 17.99 64.382 0.122 7.83 11.55 9.15
8/11/2022 10:45:00 AM 18.13 64.634 0.121 7.85 11.67 9.12
8/11/2022 11:00:00 AM 18.28 64.904 0.122 7.86 12.5 9.07
8/11/2022 11:15:00 AM 18.48 65.264 0.122 7.85 12.3 9.02
8/11/2022 11:30:00 AM 18.78 65.804 0.121 7.87 12.47 8.99
8/11/2022 11:45:00 AM 18.96 66.128 0.121 7.86 11.93 8.94
8/11/2022 12:00:00 PM 19.12 66.416 0.121 7.87 12.48 8.94
8/11/2022 12:15:00 PM 19.37 66.866 0.121 7.89 12.42 8.93
8/11/2022 12:30:00 PM 19.46 67.028 0.121 7.89 12.74 8.87
8/11/2022 12:45:00 PM 19.48 67.064 0.122 7.88 11.68 8.84
8/11/2022 1:00:00 PM 19.55 67.19 0.122 7.87 12.08 8.8
8/11/2022 1:15:00 PM 19.66 67.388 0.122 7.85 12.24 8.74
8/11/2022 1:30:00 PM 19.75 67.55 0.122 7.85 13.07 8.73
8/11/2022 1:45:00 PM 19.8 67.64 0.122 7.85 12.72 8.72
8/11/2022 2:00:00 PM 19.83 67.694 0.122 7.84 13.44 8.7
8/11/2022 2:15:00 PM 19.82 67.676 0.122 7.83 12.63 8.65
8/11/2022 2:30:00 PM 19.82 67.676 0.122 7.81 13.9 8.64
8/11/2022 2:45:00 PM 19.89 67.802 0.122 7.82 13.27 8.65
8/11/2022 3:00:00 PM 19.87 67.766 0.122 7.82 13.75 8.63
8/11/2022 3:15:00 PM 19.85 67.73 0.123 7.81 13.87 8.63
8/11/2022 3:30:00 PM 19.77 67.586 0.123 7.81 14.16 8.62
8/11/2022 3:45:00 PM 19.69 67.442 0.123 7.8 14.15 8.62
8/11/2022 4:00:00 PM 19.56 67.208 0.123 7.79 14.62 8.59
8/11/2022 4:15:00 PM 19.47 67.046 0.123 7.78 14.73 8.57
8/11/2022 4:30:00 PM 19.41 66.938 0.123 7.76 14.81 8.55
8/11/2022 4:45:00 PM 19.38 66.884 0.123 7.76 15.71 8.57
8/11/2022 5:00:00 PM 19.35 66.83 0.123 7.76 15.61 8.58
8/11/2022 5:15:00 PM 19.33 66.794 0.123 7.76 15.19 8.6
8/11/2022 5:30:00 PM 19.26 66.668 0.123 7.75 15.1 8.55
8/11/2022 5:45:00 PM 19.22 66.596 0.123 7.74 15.35 8.54
8/11/2022 6:00:00 PM 19.19 66.542 0.123 7.73 14.89 8.54
8/11/2022 6:15:00 PM 19.14 66.452 0.123 7.73 15.3 8.54
8/11/2022 6:30:00 PM 19.07 66.326 0.123 7.72 16.56 8.53
8/11/2022 6:45:00 PM 19.01 66.218 0.123 7.71 15.48 8.53
8/11/2022 7:00:00 PM 18.94 66.092 0.123 7.71 15.95 8.52
8/11/2022 7:15:00 PM 18.88 65.984 0.123 7.69 16.24 8.53
8/11/2022 7:30:00 PM 18.82 65.876 0.123 7.7 16.23 8.54
8/11/2022 7:45:00 PM 18.75 65.75 0.123 7.69 15.47 8.55
8/11/2022 8:00:00 PM 18.68 65.624 0.123 7.69 16.17 8.55
8/11/2022 8:15:00 PM 18.6 65.48 0.123 7.68 16.66 8.55
8/11/2022 8:30:00 PM 18.53 65.354 0.123 7.67 16.87 8.55
8/11/2022 8:45:00 PM 18.46 65.228 0.123 7.67 16.31 8.57
8/11/2022 9:00:00 PM 18.39 65.102 0.123 7.67 17.02 8.58
8/11/2022 9:15:00 PM 18.32 64.976 0.123 7.67 16.45 8.6
8/11/2022 9:30:00 PM 18.25 64.85 0.123 7.67 15.76 8.61
8/11/2022 9:45:00 PM 18.17 64.706 0.123 7.66 16.52 8.63
8/11/2022 10:00:00 PM 18.08 64.544 0.123 7.66 14.97 8.65
8/11/2022 10:15:00 PM 17.97 64.346 0.123 7.67 15.99 8.67
8/11/2022 10:30:00 PM 17.86 64.148 0.123 7.66 15.07 8.69
8/11/2022 10:45:00 PM 17.76 63.968 0.123 7.66 17.79 8.7
8/11/2022 11:00:00 PM 17.66 63.788 0.123 7.66 15.21 8.72
8/11/2022 11:15:00 PM 17.57 63.626 0.123 7.66 15.51 8.74
8/11/2022 11:30:00 PM 17.48 63.464 0.123 7.66 14.36 8.76
8/11/2022 11:45:00 PM 17.39 63.302 0.123 7.66 14.21 8.78
8/12/2022 12:00:00 AM 17.31 63.158 0.123 7.66 14.69 8.8
8/12/2022 12:15:00 AM 17.22 62.996 0.123 7.66 13.64 8.81
8/12/2022 12:30:00 AM 17.14 62.852 0.123 7.66 14.29 8.84
8/12/2022 12:45:00 AM 17.05 62.69 0.123 7.65 14.12 8.86
8/12/2022 1:00:00 AM 16.97 62.546 0.123 7.65 15.12 8.87
8/12/2022 1:15:00 AM 16.89 62.402 0.123 7.65 14.2 8.89
8/12/2022 1:30:00 AM 16.84 62.312 0.123 7.65 12.92 8.89
8/12/2022 1:45:00 AM 16.77 62.186 0.123 7.61 15.1 8.9
8/12/2022 2:00:00 AM 16.7 62.06 0.123 7.59 13.84 8.91
8/12/2022 2:15:00 AM 16.64 61.952 0.123 7.59 13.88 8.93
8/12/2022 2:30:00 AM 16.58 61.844 0.123 7.6 13.66 8.94
8/12/2022 2:45:00 AM 16.53 61.754 0.123 7.6 13.83 8.95
8/12/2022 3:00:00 AM 16.48 61.664 0.123 7.61 14 8.97
8/12/2022 3:15:00 AM 16.44 61.592 0.123 7.61 14.54 8.97
8/12/2022 3:30:00 AM 16.39 61.502 0.123 7.62 14.67 8.99
8/12/2022 3:45:00 AM 16.35 61.43 0.123 7.62 14.84 9
8/12/2022 4:00:00 AM 16.3 61.34 0.123 7.62 14.42 9.01
8/12/2022 4:15:00 AM 16.25 61.25 0.123 7.62 13.46 9.02
8/12/2022 4:30:00 AM 16.2 61.16 0.123 7.62 13.3 9.03
8/12/2022 4:45:00 AM 16.15 61.07 0.123 7.62 13.48 9.04
8/12/2022 5:00:00 AM 16.1 60.98 0.123 7.62 12.78 9.05
8/12/2022 5:15:00 AM 16.05 60.89 0.123 7.62 12.82 9.07
8/12/2022 5:30:00 AM 15.99 60.782 0.123 7.61 12.66 9.08
8/12/2022 5:45:00 AM 15.93 60.674 0.123 7.62 13.76 9.09
8/12/2022 6:00:00 AM 15.87 60.566 0.123 7.61 14.08 9.1
8/12/2022 6:15:00 AM 15.82 60.476 0.123 7.62 14.52 9.11
8/12/2022 6:30:00 AM 15.76 60.368 0.123 7.62 14.29 9.14
8/12/2022 6:45:00 AM 15.71 60.278 0.123 7.62 14.67 9.16
8/12/2022 7:00:00 AM 15.69 60.242 0.123 7.62 14.61 9.18
8/12/2022 7:15:00 AM 15.68 60.224 0.123 7.63 13.09 9.2
8/12/2022 7:30:00 AM 15.67 60.206 0.123 7.64 13.95 9.22
8/12/2022 7:45:00 AM 15.68 60.224 0.122 7.65 14.27 9.23
8/12/2022 8:00:00 AM 15.7 60.26 0.122 7.67 14.59 9.24
8/12/2022 8:15:00 AM 15.73 60.314 0.122 7.67 13.16 9.26
8/12/2022 8:30:00 AM 15.78 60.404 0.122 7.69 12.79 9.26
8/12/2022 8:45:00 AM 15.85 60.53 0.122 7.7 12.69 9.28
8/12/2022 9:00:00 AM 15.97 60.746 0.122 7.73 12.34 9.32
8/12/2022 9:15:00 AM 16.1 60.98 0.122 7.75 11.73 9.33
8/12/2022 9:30:00 AM 16.24 61.232 0.122 7.77 11.46 9.34
8/12/2022 9:45:00 AM 16.4 61.52 0.122 7.78 11.44 9.36
8/12/2022 10:00:00 AM 16.52 61.736 0.122 7.8 10.83 9.36
8/12/2022 10:15:00 AM 16.72 62.096 0.121 7.82 10.76 9.36
8/12/2022 10:30:00 AM 16.89 62.402 0.121 7.82 10.46 9.32
8/12/2022 10:45:00 AM 17.09 62.762 0.121 7.83 10.89 9.28
8/12/2022 11:00:00 AM 17.28 63.104 0.121 7.84 10.62 9.24
8/12/2022 11:15:00 AM 17.49 63.482 0.121 7.84 11.05 9.21
8/12/2022 11:30:00 AM 17.71 63.878 0.121 7.85 10.86 9.18
8/12/2022 11:45:00 AM 17.91 64.238 0.121 7.85 11.18 9.14
8/12/2022 12:00:00 PM 18.09 64.562 0.121 7.85 11.55 9.1
8/12/2022 12:15:00 PM 18.25 64.85 0.121 7.86 11.5 9.07
8/12/2022 12:30:00 PM 18.38 65.084 0.121 7.86 11.24 9.04
8/12/2022 12:45:00 PM 18.46 65.228 0.122 7.86 11.52 9.03
8/12/2022 1:00:00 PM 18.52 65.336 0.122 7.86 11.77 9.01
8/12/2022 1:15:00 PM 18.6 65.48 0.122 7.86 12.54 9.01
8/12/2022 1:30:00 PM 18.66 65.588 0.122 7.86 11.91 8.99
8/12/2022 1:45:00 PM 18.67 65.606 0.122 7.85 12.42 8.96
8/12/2022 2:00:00 PM 18.7 65.66 0.122 7.84 12.02 8.95
8/12/2022 2:15:00 PM 18.7 65.66 0.122 7.84 13.08 8.94
8/12/2022 2:30:00 PM 18.7 65.66 0.122 7.83 13.16 8.93
8/12/2022 2:45:00 PM 18.69 65.642 0.122 7.84 12.93 8.95
8/12/2022 3:00:00 PM 18.57 65.426 0.122 7.83 13.19 8.92
8/12/2022 3:15:00 PM 18.55 65.39 0.122 7.82 13.56 8.92
8/12/2022 3:30:00 PM 18.47 65.246 0.122 7.82 13.66 8.9
8/12/2022 3:45:00 PM 18.44 65.192 0.122 7.81 13.78 8.9
8/12/2022 4:00:00 PM 18.32 64.976 0.122 7.81 13.94 8.89
8/12/2022 4:15:00 PM 18.24 64.832 0.122 7.8 14.42 8.9
8/12/2022 4:30:00 PM 18.23 64.814 0.122 7.8 14.5 8.89
8/12/2022 4:45:00 PM 18.19 64.742 0.122 7.8 14.39 8.89
8/12/2022 5:00:00 PM 18.17 64.706 0.122 7.78 14.4 8.85
8/12/2022 5:15:00 PM 18.14 64.652 0.122 7.77 14.38 8.85
8/12/2022 5:30:00 PM 18.08 64.544 0.122 7.76 14.16 8.83
8/12/2022 5:45:00 PM 18 64.4 0.122 7.76 15.16 8.82
8/12/2022 6:00:00 PM 17.94 64.292 0.122 7.74 15.16 8.8
8/12/2022 6:15:00 PM 17.89 64.202 0.122 7.74 14.69 8.82
8/12/2022 6:30:00 PM 17.83 64.094 0.123 7.73 15.67 8.8
8/12/2022 6:45:00 PM 17.76 63.968 0.123 7.72 14.81 8.81
8/12/2022 7:00:00 PM 17.69 63.842 0.123 7.72 15.95 8.81
8/12/2022 7:15:00 PM 17.62 63.716 0.123 7.71 15.75 8.82
8/12/2022 7:30:00 PM 17.55 63.59 0.123 7.71 15.77 8.83
8/12/2022 7:45:00 PM 17.49 63.482 0.123 7.7 15.42 8.83
8/12/2022 8:00:00 PM 17.42 63.356 0.123 7.7 15.07 8.84
8/12/2022 8:15:00 PM 17.35 63.23 0.123 7.7 15.3 8.83
8/12/2022 8:30:00 PM 17.27 63.086 0.123 7.68 15.19 8.83
8/12/2022 8:45:00 PM 17.18 62.924 0.123 7.68 16.16 8.85
8/12/2022 9:00:00 PM 17.06 62.708 0.123 7.68 15.71 8.88
8/12/2022 9:15:00 PM 16.94 62.492 0.123 7.68 15.96 8.9
8/12/2022 9:30:00 PM 16.83 62.294 0.123 7.68 15.6 8.93
8/12/2022 9:45:00 PM 16.72 62.096 0.123 7.68 14.89 8.95
8/12/2022 10:00:00 PM 16.61 61.898 0.123 7.68 15.14 8.97
8/12/2022 10:15:00 PM 16.5 61.7 0.123 7.68 15.01 9
8/12/2022 10:30:00 PM 16.39 61.502 0.123 7.68 13.7 9.02
8/12/2022 10:45:00 PM 16.29 61.322 0.123 7.67 14.14 9.04
8/12/2022 11:00:00 PM 16.19 61.142 0.123 7.67 14.53 9.06
8/12/2022 11:15:00 PM 16.08 60.944 0.123 7.67 13.9 9.08
8/12/2022 11:30:00 PM 15.98 60.764 0.123 7.67 14.1 9.1
8/12/2022 11:45:00 PM 15.88 60.584 0.123 7.67 13.54 9.12
8/13/2022 12:00:00 AM 15.78 60.404 0.123 7.67 13.24 9.15
8/13/2022 12:15:00 AM 15.68 60.224 0.122 7.67 15.22 9.17
8/13/2022 12:30:00 AM 15.57 60.026 0.122 7.66 12.93 9.19
8/13/2022 12:45:00 AM 15.47 59.846 0.122 7.66 13.49 9.22
8/13/2022 1:00:00 AM 15.37 59.666 0.122 7.63 12.99 9.24
8/13/2022 1:15:00 AM 15.27 59.486 0.122 7.6 13.16 9.26
8/13/2022 1:30:00 AM 15.17 59.306 0.122 7.6 13.07 9.28
8/13/2022 1:45:00 AM 15.07 59.126 0.122 7.59 13.67 9.3
8/13/2022 2:00:00 AM 14.97 58.946 0.122 7.59 14.03 9.32
8/13/2022 2:15:00 AM 14.88 58.784 0.122 7.59 14.7 9.34
8/13/2022 2:30:00 AM 14.79 58.622 0.122 7.59 12.86 9.36
8/13/2022 2:45:00 AM 14.69 58.442 0.122 7.58 12.71 9.38
8/13/2022 3:00:00 AM 14.61 58.298 0.122 7.58 12.83 9.41
8/13/2022 3:15:00 AM 14.52 58.136 0.122 7.58 12.3 9.43
8/13/2022 3:30:00 AM 14.43 57.974 0.122 7.58 12.63 9.45
8/13/2022 3:45:00 AM 14.35 57.83 0.122 7.58 12.75 9.47
8/13/2022 4:00:00 AM 14.27 57.686 0.122 7.58 12.16 9.49
8/13/2022 4:15:00 AM 14.18 57.524 0.122 7.58 12.25 9.5
8/13/2022 4:30:00 AM 14.1 57.38 0.122 7.58 12.57 9.53
8/13/2022 4:45:00 AM 14.03 57.254 0.122 7.58 12.66 9.54
8/13/2022 5:00:00 AM 13.95 57.11 0.122 7.58 11.83 9.56
8/13/2022 5:15:00 AM 13.87 56.966 0.122 7.58 11.86 9.58
8/13/2022 5:30:00 AM 13.8 56.84 0.122 7.58 11.48 9.6
8/13/2022 5:45:00 AM 13.72 56.696 0.122 7.59 11.71 9.61
8/13/2022 6:00:00 AM 13.65 56.57 0.122 7.59 12.28 9.63
8/13/2022 6:15:00 AM 13.58 56.444 0.122 7.59 11.75 9.64
8/13/2022 6:30:00 AM 13.51 56.318 0.122 7.59 12.04 9.67
8/13/2022 6:45:00 AM 13.45 56.21 0.122 7.6 12.66 9.7
8/13/2022 7:00:00 AM 13.43 56.174 0.122 7.61 12.24 9.73
8/13/2022 7:15:00 AM 13.42 56.156 0.122 7.62 12.73 9.74
8/13/2022 7:30:00 AM 13.42 56.156 0.122 7.63 12.83 9.76
8/13/2022 7:45:00 AM 13.42 56.156 0.122 7.65 12.26 9.78
8/13/2022 8:00:00 AM 13.44 56.192 0.122 7.67 12.64 9.78
8/13/2022 8:15:00 AM 13.47 56.246 0.122 7.68 12.52 9.81
8/13/2022 8:30:00 AM 13.5 56.3 0.122 7.69 12.01 9.81
8/13/2022 8:45:00 AM 13.58 56.444 0.122 7.7 12.25 9.83
8/13/2022 9:00:00 AM 13.7 56.66 0.122 7.72 11.52 9.85
8/13/2022 9:15:00 AM 13.84 56.912 0.122 7.74 10.87 9.85
8/13/2022 9:30:00 AM 14.03 57.254 0.121 7.75 10.13 9.85
8/13/2022 9:45:00 AM 14.23 57.614 0.121 7.75 9.94 9.85
8/13/2022 10:00:00 AM 14.46 58.028 0.121 7.79 10.39 9.83
8/13/2022 10:15:00 AM 14.7 58.46 0.121 7.8 9.84 9.78
8/13/2022 10:30:00 AM 14.94 58.892 0.121 7.81 10.48 9.73
8/13/2022 10:45:00 AM 15.19 59.342 0.121 7.82 10.19 9.69
8/13/2022 11:00:00 AM 15.48 59.864 0.121 7.82 9.31 9.64
8/13/2022 11:15:00 AM 15.76 60.368 0.121 7.84 9.06 9.59
8/13/2022 11:30:00 AM 16.03 60.854 0.121 7.84 8.95 9.53
8/13/2022 11:45:00 AM 16.28 61.304 0.121 7.85 9.86 9.49
8/13/2022 12:00:00 PM 16.53 61.754 0.121 7.85 10.05 9.43
8/13/2022 12:15:00 PM 16.73 62.114 0.121 7.85 9.93 9.39
8/13/2022 12:30:00 PM 16.9 62.42 0.121 7.85 10.46 9.35
8/13/2022 12:45:00 PM 17.07 62.726 0.121 7.85 10.95 9.31
8/13/2022 1:00:00 PM 17.19 62.942 0.121 7.85 10.71 9.28
8/13/2022 1:15:00 PM 17.3 63.14 0.121 7.84 10.3 9.26
8/13/2022 1:30:00 PM 17.38 63.284 0.121 7.84 11.16 9.22
8/13/2022 1:45:00 PM 17.45 63.41 0.121 7.84 11.56 9.2
8/13/2022 2:00:00 PM 17.5 63.5 0.121 7.83 11.88 9.19
8/13/2022 2:15:00 PM 17.56 63.608 0.121 7.83 12.42 9.17
8/13/2022 2:30:00 PM 17.59 63.662 0.122 7.83 12.9 9.15
8/13/2022 2:45:00 PM 17.6 63.68 0.122 7.82 12.13 9.14
8/13/2022 3:00:00 PM 17.59 63.662 0.122 7.82 12.68 9.13
8/13/2022 3:15:00 PM 17.56 63.608 0.122 7.81 12.26 9.13
8/13/2022 3:30:00 PM 17.55 63.59 0.122 7.81 13.03 9.11
8/13/2022 3:45:00 PM 17.5 63.5 0.122 7.8 12.89 9.09
8/13/2022 4:00:00 PM 17.42 63.356 0.122 7.79 13.99 9.06
8/13/2022 4:15:00 PM 17.34 63.212 0.122 7.78 14.06 9.02
8/13/2022 4:30:00 PM 17.32 63.176 0.122 7.77 14.14 9.02
8/13/2022 4:45:00 PM 17.3 63.14 0.122 7.76 12.27 9
8/13/2022 5:00:00 PM 17.3 63.14 0.122 7.75 13.69 9
8/13/2022 5:15:00 PM 17.28 63.104 0.122 7.74 14.18 8.98
8/13/2022 5:30:00 PM 17.24 63.032 0.122 7.74 13.7 8.99
8/13/2022 5:45:00 PM 17.21 62.978 0.122 7.73 13.86 8.97
8/13/2022 6:00:00 PM 17.17 62.906 0.122 7.72 13.59 8.95
8/13/2022 6:15:00 PM 17.12 62.816 0.122 7.71 14.54 8.95
8/13/2022 6:30:00 PM 17.08 62.744 0.122 7.7 16.06 8.95
8/13/2022 6:45:00 PM 17.04 62.672 0.122 7.7 14.58 8.95
8/13/2022 7:00:00 PM 16.99 62.582 0.122 7.69 15.24 8.95
8/13/2022 7:15:00 PM 16.92 62.456 0.122 7.69 16.57 8.95
8/13/2022 7:30:00 PM 16.85 62.33 0.123 7.69 14.27 8.95
8/13/2022 7:45:00 PM 16.77 62.186 0.123 7.68 14.79 8.96
8/13/2022 8:00:00 PM 16.69 62.042 0.123 7.68 14.64 8.98
8/13/2022 8:15:00 PM 16.61 61.898 0.123 7.68 14.65 8.98
8/13/2022 8:30:00 PM 16.52 61.736 0.123 7.68 14.41 8.99
8/13/2022 8:45:00 PM 16.45 61.61 0.123 7.67 15.88 9
8/13/2022 9:00:00 PM 16.37 61.466 0.123 7.67 14.89 9.02
8/13/2022 9:15:00 PM 16.29 61.322 0.123 7.67 15.18 9.03
8/13/2022 9:30:00 PM 16.21 61.178 0.122 7.67 15.18 9.05
8/13/2022 9:45:00 PM 16.13 61.034 0.122 7.67 14.64 9.08
8/13/2022 10:00:00 PM 16.05 60.89 0.122 7.67 14.45 9.09
8/13/2022 10:15:00 PM 15.97 60.746 0.122 7.67 13.59 9.1
8/13/2022 10:30:00 PM 15.89 60.602 0.122 7.67 14.15 9.12
8/13/2022 10:45:00 PM 15.81 60.458 0.122 7.67 13.89 9.13
8/13/2022 11:00:00 PM 15.74 60.332 0.122 7.67 12.93 9.15
8/13/2022 11:15:00 PM 15.67 60.206 0.122 7.67 12.53 9.17
8/13/2022 11:30:00 PM 15.6 60.08 0.122 7.67 12.92 9.18
8/13/2022 11:45:00 PM 15.54 59.972 0.122 7.67 12.54 9.19
8/14/2022 12:00:00 AM 15.47 59.846 0.122 7.67 12.61 9.21
8/14/2022 12:15:00 AM 15.39 59.702 0.122 7.67 12.15 9.22
8/14/2022 12:30:00 AM 15.31 59.558 0.122 7.67 12.39 9.24
8/14/2022 12:45:00 AM 15.23 59.414 0.122 7.66 14.13 9.25
8/14/2022 1:00:00 AM 15.16 59.288 0.122 7.66 13.5 9.27
8/14/2022 1:15:00 AM 15.09 59.162 0.122 7.67 13.08 9.29
8/14/2022 1:30:00 AM 15.03 59.054 0.122 7.66 12.64 9.3
8/14/2022 1:45:00 AM 14.95 58.91 0.122 7.66 12.9 9.31
8/14/2022 2:00:00 AM 14.88 58.784 0.122 7.66 12.66 9.33
8/14/2022 2:15:00 AM 14.81 58.658 0.122 7.66 12.82 9.35
8/14/2022 2:30:00 AM 14.74 58.532 0.122 7.66 12.09 9.36
8/14/2022 2:45:00 AM 14.67 58.406 0.122 7.66 12.42 9.38
8/14/2022 3:00:00 AM 14.6 58.28 0.122 7.66 12.69 9.39
8/14/2022 3:15:00 AM 14.54 58.172 0.122 7.66 12.14 9.41
8/14/2022 3:30:00 AM 14.49 58.082 0.122 7.66 12.07 9.42
8/14/2022 3:45:00 AM 14.43 57.974 0.122 7.66 12.53 9.43
8/14/2022 4:00:00 AM 14.38 57.884 0.122 7.66 11.61 9.44
8/14/2022 4:15:00 AM 14.33 57.794 0.122 7.66 12.71 9.45
8/14/2022 4:30:00 AM 14.29 57.722 0.122 7.65 12.01 9.46
8/14/2022 4:45:00 AM 14.24 57.632 0.122 7.65 12.21 9.47
8/14/2022 5:00:00 AM 14.2 57.56 0.122 7.65 12.15 9.48
8/14/2022 5:15:00 AM 14.16 57.488 0.122 7.65 12.04 9.49
8/14/2022 5:30:00 AM 14.12 57.416 0.122 7.65 12.2 9.5
8/14/2022 5:45:00 AM 14.06 57.308 0.122 7.65 12 9.51
8/14/2022 6:00:00 AM 14.01 57.218 0.122 7.65 11.92 9.52
8/14/2022 6:15:00 AM 13.95 57.11 0.122 7.65 12.41 9.54
8/14/2022 6:30:00 AM 13.89 57.002 0.122 7.65 11.88 9.55
8/14/2022 6:45:00 AM 13.84 56.912 0.122 7.65 12.88 9.57
8/14/2022 7:00:00 AM 13.83 56.894 0.122 7.66 12.99 9.59
8/14/2022 7:15:00 AM 13.83 56.894 0.122 7.66 12.83 9.61
8/14/2022 7:30:00 AM 13.83 56.894 0.122 7.66 12.47 9.63
8/14/2022 7:45:00 AM 13.84 56.912 0.122 7.66 12.24 9.65
8/14/2022 8:00:00 AM 13.86 56.948 0.122 7.67 12.49 9.65
8/14/2022 8:15:00 AM 13.89 57.002 0.122 7.68 12.52 9.66
8/14/2022 8:30:00 AM 13.95 57.11 0.122 7.68 11.75 9.67
8/14/2022 8:45:00 AM 14.03 57.254 0.122 7.69 11.87 9.69
8/14/2022 9:00:00 AM 14.16 57.488 0.122 7.71 11.25 9.71
8/14/2022 9:15:00 AM 14.3 57.74 0.122 7.72 11.46 9.72
8/14/2022 9:30:00 AM 14.47 58.046 0.121 7.75 10.79 9.76
8/14/2022 9:45:00 AM 14.55 58.19 0.121 7.77 11.08 9.75
8/14/2022 10:00:00 AM 14.79 58.622 0.121 7.78 10.85 9.74
8/14/2022 10:15:00 AM 15.03 59.054 0.121 7.79 10.63 9.7
8/14/2022 10:30:00 AM 15.27 59.486 0.121 7.8 10.59 9.66
8/14/2022 10:45:00 AM 15.51 59.918 0.121 7.81 9.91 9.6
8/14/2022 11:00:00 AM 15.77 60.386 0.121 7.82 10.34 9.54
8/14/2022 11:15:00 AM 16.05 60.89 0.121 7.82 10.54 9.49
8/14/2022 11:30:00 AM 16.33 61.394 0.121 7.83 10.44 9.44
8/14/2022 11:45:00 AM 16.61 61.898 0.121 7.84 10.39 9.4
8/14/2022 12:00:00 PM 16.8 62.24 0.121 7.85 10.29 9.36
8/14/2022 12:15:00 PM 16.91 62.438 0.121 7.85 10.58 9.34
8/14/2022 12:30:00 PM 16.99 62.582 0.121 7.86 10.6 9.35
8/14/2022 12:45:00 PM 17.16 62.888 0.121 7.88 11.39 9.36
8/14/2022 1:00:00 PM 17.3 63.14 0.121 7.89 11.4 9.33
8/14/2022 1:15:00 PM 17.41 63.338 0.121 7.88 11.35 9.29
8/14/2022 1:30:00 PM 17.52 63.536 0.121 7.88 10.79 9.27
8/14/2022 1:45:00 PM 17.54 63.572 0.121 7.89 11.48 9.29
8/14/2022 2:00:00 PM 17.63 63.734 0.121 7.88 12.31 9.26
8/14/2022 2:15:00 PM 17.77 63.986 0.121 7.88 11.35 9.19
8/14/2022 2:30:00 PM 17.73 63.914 0.121 7.84 12.53 9.07
8/14/2022 2:45:00 PM 17.62 63.716 0.122 7.84 12.75 9.09
8/14/2022 3:00:00 PM 17.74 63.932 0.121 7.85 13.32 9.15
8/14/2022 3:15:00 PM 17.8 64.04 0.122 7.84 13.05 9.11
8/14/2022 3:30:00 PM 17.74 63.932 0.122 7.83 13.96 9.05
8/14/2022 3:45:00 PM 17.64 63.752 0.122 7.82 13.5 9.1
8/14/2022 4:00:00 PM 17.58 63.644 0.122 7.81 12.51 9.04
8/14/2022 4:15:00 PM 17.55 63.59 0.122 7.8 14.27 9.04
8/14/2022 4:30:00 PM 17.61 63.698 0.122 7.82 13.69 9.08
8/14/2022 4:45:00 PM 17.61 63.698 0.122 7.81 14.09 9.05
8/14/2022 5:00:00 PM 17.61 63.698 0.122 7.81 13.58 9.03
8/14/2022 5:15:00 PM 17.53 63.554 0.122 7.78 14.23 8.97
8/14/2022 5:30:00 PM 17.52 63.536 0.122 7.78 14.34 8.99
8/14/2022 5:45:00 PM 17.5 63.5 0.122 7.77 13.98 9
8/14/2022 6:00:00 PM 17.49 63.482 0.122 7.76 13.42 8.98
8/14/2022 6:15:00 PM 17.48 63.464 0.122 7.76 13.89 8.98
8/14/2022 6:30:00 PM 17.44 63.392 0.122 7.74 13.9 8.94
8/14/2022 6:45:00 PM 17.4 63.32 0.122 7.73 14.33 8.92
8/14/2022 7:00:00 PM 17.36 63.248 0.122 7.72 13.97 8.9
8/14/2022 7:15:00 PM 17.32 63.176 0.123 7.72 16.95 8.89
8/14/2022 7:30:00 PM 17.26 63.068 0.123 7.71 14.03 8.88
8/14/2022 7:45:00 PM 17.21 62.978 0.123 7.7 13.32 8.86
8/14/2022 8:00:00 PM 17.16 62.888 0.123 7.69 14.04 8.85
8/14/2022 8:15:00 PM 17.11 62.798 0.123 7.68 14.52 8.84
8/14/2022 8:30:00 PM 17.06 62.708 0.123 7.68 14.5 8.85
8/14/2022 8:45:00 PM 17.01 62.618 0.123 7.68 14.6 8.86
8/14/2022 9:00:00 PM 16.96 62.528 0.123 7.68 14.44 8.86
8/14/2022 9:15:00 PM 16.91 62.438 0.123 7.68 14.66 8.87
8/14/2022 9:30:00 PM 16.86 62.348 0.123 7.67 13.17 8.89
8/14/2022 9:45:00 PM 16.81 62.258 0.123 7.67 12.86 8.9
8/14/2022 10:00:00 PM 16.76 62.168 0.123 7.67 13.25 8.91
8/14/2022 10:15:00 PM 16.7 62.06 0.123 7.67 13.33 8.92
8/14/2022 10:30:00 PM 16.63 61.934 0.123 7.67 12.56 8.93
8/14/2022 10:45:00 PM 16.56 61.808 0.123 7.67 13.6 8.94
8/14/2022 11:00:00 PM 16.5 61.7 0.123 7.67 14.27 8.96
8/14/2022 11:15:00 PM 16.44 61.592 0.123 7.67 12.54 8.97
8/14/2022 11:30:00 PM 16.38 61.484 0.123 7.67 13.46 8.98
8/14/2022 11:45:00 PM 16.32 61.376 0.123 7.67 13.13 8.99
8/15/2022 12:00:00 AM 16.26 61.268 0.123 7.67 13.21 9
8/15/2022 12:15:00 AM 16.23 61.214 0.123 7.67 12.62 9.01
8/15/2022 12:30:00 AM 16.19 61.142 0.123 7.67 12.34 9.02
8/15/2022 12:45:00 AM 16.17 61.106 0.123 7.67 12.8 9.03
8/15/2022 1:00:00 AM 16.14 61.052 0.123 7.67 13.04 9.03
8/15/2022 1:15:00 AM 16.11 60.998 0.123 7.66 13.08 9.04
8/15/2022 1:30:00 AM 16.08 60.944 0.123 7.66 13.68 9.05
8/15/2022 1:45:00 AM 16.05 60.89 0.123 7.65 14.21 9.04
8/15/2022 2:00:00 AM 16.03 60.854 0.123 7.65 13.13 9.05
8/15/2022 2:15:00 AM 16.01 60.818 0.134 7.64 13.23 9.05
8/15/2022 2:30:00 AM 15.99 60.782 0.161 7.63 12.52 9.05
8/15/2022 2:45:00 AM 15.97 60.746 0.169 7.64 12.92 9.05
8/15/2022 3:00:00 AM 15.94 60.692 0.162 7.64 12.25 9.06
8/15/2022 3:15:00 AM 15.92 60.656 0.185 7.63 11.26 9.07
8/15/2022 3:30:00 AM 15.9 60.62 0.253 7.62 10.74 9.06
8/15/2022 3:45:00 AM 15.89 60.602 0.273 7.62 10.5 9.07
8/15/2022 4:00:00 AM 15.86 60.548 0.251 7.63 10.32 9.08
8/15/2022 4:15:00 AM 15.85 60.53 0.227 7.63 10.54 9.08
8/15/2022 4:30:00 AM 15.82 60.476 0.206 7.63 11.72 9.08
8/15/2022 4:45:00 AM 15.8 60.44 0.191 7.63 11.12 9.07
8/15/2022 5:00:00 AM 15.78 60.404 0.18 7.64 10.53 9.08
8/15/2022 5:15:00 AM 15.77 60.386 0.171 7.64 11.1 9.09
8/15/2022 5:30:00 AM 15.75 60.35 0.165 7.64 11.69 9.09
8/15/2022 5:45:00 AM 15.74 60.332 0.16 7.64 12.28 9.09
8/15/2022 6:00:00 AM 15.72 60.296 0.156 7.65 11.86 9.1
8/15/2022 6:15:00 AM 15.7 60.26 0.152 7.64 12.5 9.1
8/15/2022 6:30:00 AM 15.68 60.224 0.149 7.64 12.94 9.12
8/15/2022 6:45:00 AM 15.67 60.206 0.147 7.65 13.53 9.13
8/15/2022 7:00:00 AM 15.68 60.224 0.145 7.66 12.93 9.16
8/15/2022 7:15:00 AM 15.68 60.224 0.143 7.66 13.44 9.17
8/15/2022 7:30:00 AM 15.7 60.26 0.142 7.67 13.51 9.19
8/15/2022 7:45:00 AM 15.72 60.296 0.14 7.67 13.24 9.21
8/15/2022 8:00:00 AM 15.75 60.35 0.139 7.67 12.72 9.21
8/15/2022 8:15:00 AM 15.79 60.422 0.138 7.68 12.92 9.24
8/15/2022 8:30:00 AM 15.84 60.512 0.137 7.69 12.75 9.25
8/15/2022 8:45:00 AM 15.95 60.71 0.136 7.71 13.1 9.28
8/15/2022 9:00:00 AM 16.11 60.998 0.135 7.73 12.67 9.32
8/15/2022 9:15:00 AM 16.26 61.268 0.134 7.75 12.36 9.34
8/15/2022 9:30:00 AM 16.42 61.556 0.133 7.76 12.41 9.32
8/15/2022 9:45:00 AM 16.58 61.844 0.132 7.78 12.28 9.33
8/15/2022 10:00:00 AM 16.66 61.988 0.132 7.77 12.05 9.27
8/15/2022 10:15:00 AM 16.86 62.348 0.131 7.8 11.84 9.33
8/15/2022 10:30:00 AM 16.9 62.42 0.131 7.81 11.67 9.29
8/15/2022 10:45:00 AM 17.01 62.618 0.13 7.84 11.51 9.33
8/15/2022 11:00:00 AM 17.14 62.852 0.129 7.86 11.73 9.33
8/15/2022 11:15:00 AM 17.21 62.978 0.129 7.86 12.3 9.32
8/15/2022 11:30:00 AM 17.3 63.14 0.129 7.87 11.62 9.32
8/15/2022 11:45:00 AM 17.34 63.212 0.128 7.87 11.56 9.28
8/15/2022 12:00:00 PM 17.45 63.41 0.128 7.89 12.01 9.31
8/15/2022 12:15:00 PM 17.49 63.482 0.128 7.88 12.12 9.26
8/15/2022 12:30:00 PM 17.6 63.68 0.127 7.9 13.11 9.3
8/15/2022 12:45:00 PM 17.7 63.86 0.127 7.91 12.91 9.29
8/15/2022 1:00:00 PM 17.77 63.986 0.127 7.92 13.25 9.28
8/15/2022 1:15:00 PM 17.79 64.022 0.127 7.9 13.7 9.23
8/15/2022 1:30:00 PM 17.89 64.202 0.126 7.92 13.15 9.25
8/15/2022 1:45:00 PM 18.02 64.436 0.126 7.93 13.55 9.25
8/15/2022 2:00:00 PM 17.97 64.346 0.126 7.88 14.34 9.12
8/15/2022 2:15:00 PM 17.97 64.346 0.126 7.88 13.84 9.11
8/15/2022 2:30:00 PM 18.01 64.418 0.126 7.9 14.39 9.16
8/15/2022 2:45:00 PM 18.04 64.472 0.126 7.89 14.57 9.13
8/15/2022 3:00:00 PM 18.08 64.544 0.126 7.89 14.49 9.13
8/15/2022 3:15:00 PM 18.08 64.544 0.126 7.89 14.93 9.11
8/15/2022 3:30:00 PM 18.12 64.616 0.126 7.89 15.1 9.1
8/15/2022 3:45:00 PM 18.22 64.796 0.126 7.89 15.23 9.09
8/15/2022 4:00:00 PM 18.17 64.706 0.126 7.87 14.76 9.04
8/15/2022 4:15:00 PM 18.09 64.562 0.126 7.85 14.82 9
8/15/2022 4:30:00 PM 18.06 64.508 0.126 7.83 15.03 8.96
8/15/2022 4:45:00 PM 18.05 64.49 0.126 7.83 15.03 8.98
8/15/2022 5:00:00 PM 18.05 64.49 0.126 7.83 15.82 8.97
8/15/2022 5:15:00 PM 18.07 64.526 0.126 7.82 15.36 8.95
8/15/2022 5:30:00 PM 18.04 64.472 0.126 7.82 15.33 8.92
8/15/2022 5:45:00 PM 17.99 64.382 0.126 7.8 15.11 8.88
8/15/2022 6:00:00 PM 17.96 64.328 0.126 7.79 15.31 8.88
8/15/2022 6:15:00 PM 17.91 64.238 0.126 7.78 15.54 8.86
8/15/2022 6:30:00 PM 17.87 64.166 0.126 7.77 15.15 8.85
8/15/2022 6:45:00 PM 17.82 64.076 0.126 7.76 15.36 8.83
8/15/2022 7:00:00 PM 17.76 63.968 0.126 7.74 15.56 8.8
8/15/2022 7:15:00 PM 17.7 63.86 0.126 7.73 15.11 8.79
8/15/2022 7:30:00 PM 17.64 63.752 0.126 7.72 14.96 8.77
8/15/2022 7:45:00 PM 17.57 63.626 0.126 7.7 16.92 8.75
8/15/2022 8:00:00 PM 17.51 63.518 0.126 7.7 16.21 8.75
8/15/2022 8:15:00 PM 17.44 63.392 0.126 7.69 15.33 8.76
8/15/2022 8:30:00 PM 17.38 63.284 0.126 7.69 16.35 8.77
8/15/2022 8:45:00 PM 17.31 63.158 0.126 7.68 16.86 8.78
8/15/2022 9:00:00 PM 17.25 63.05 0.126 7.68 16.14 8.8
8/15/2022 9:15:00 PM 17.19 62.942 0.126 7.68 15.24 8.81
8/15/2022 9:30:00 PM 17.15 62.87 0.126 7.68 15.89 8.82
8/15/2022 9:45:00 PM 17.09 62.762 0.126 7.67 15.19 8.83
8/15/2022 10:00:00 PM 17.04 62.672 0.126 7.67 14.66 8.83
8/15/2022 10:15:00 PM 16.99 62.582 0.126 7.67 14.25 8.85
8/15/2022 10:30:00 PM 16.94 62.492 0.126 7.67 14.34 8.85
8/15/2022 10:45:00 PM 16.89 62.402 0.126 7.67 14.35 8.87
8/15/2022 11:00:00 PM 16.84 62.312 0.126 7.67 14.51 8.88
8/15/2022 11:15:00 PM 16.79 62.222 0.126 7.67 14.9 8.88
8/15/2022 11:30:00 PM 16.75 62.15 0.126 7.67 14.61 8.9
8/15/2022 11:45:00 PM 16.7 62.06 0.125 7.66 14.09 8.91
8/16/2022 12:00:00 AM 16.66 61.988 0.125 7.67 14.1 8.91
8/16/2022 12:15:00 AM 16.62 61.916 0.125 7.66 13.28 8.92
8/16/2022 12:30:00 AM 16.58 61.844 0.125 7.66 13.28 8.93
8/16/2022 12:45:00 AM 16.54 61.772 0.125 7.66 13.19 8.94
8/16/2022 1:00:00 AM 16.5 61.7 0.125 7.66 13.53 8.94
8/16/2022 1:15:00 AM 16.47 61.646 0.125 7.66 13.52 8.95
8/16/2022 1:30:00 AM 16.44 61.592 0.125 7.66 13.99 8.95
8/16/2022 1:45:00 AM 16.42 61.556 0.125 7.66 13.42 8.96
8/16/2022 2:00:00 AM 16.39 61.502 0.125 7.66 13.13 8.96
8/16/2022 2:15:00 AM 16.37 61.466 0.125 7.65 12.99 8.97
8/16/2022 2:30:00 AM 16.35 61.43 0.125 7.65 13.21 8.97
8/16/2022 2:45:00 AM 16.33 61.394 0.125 7.65 13.01 8.97
8/16/2022 3:00:00 AM 16.31 61.358 0.125 7.65 13.19 8.98
8/16/2022 3:15:00 AM 16.29 61.322 0.125 7.65 13.55 8.98
8/16/2022 3:30:00 AM 16.26 61.268 0.125 7.65 13.41 8.99
8/16/2022 3:45:00 AM 16.24 61.232 0.125 7.64 13.47 8.99
8/16/2022 4:00:00 AM 16.22 61.196 0.125 7.64 14.94 8.97
8/16/2022 4:15:00 AM 16.2 61.16 0.125 7.63 14.46 8.97
8/16/2022 4:30:00 AM 16.18 61.124 0.125 7.63 14.94 8.95
8/16/2022 4:45:00 AM 16.17 61.106 0.125 7.62 16.55 8.94
8/16/2022 5:00:00 AM 16.15 61.07 0.124 7.61 16.55 8.91
8/16/2022 5:15:00 AM 16.13 61.034 0.124 7.61 17.55 8.9
8/16/2022 5:30:00 AM 16.11 60.998 0.124 7.61 16.1 8.91
8/16/2022 5:45:00 AM 16.1 60.98 0.124 7.62 16.27 8.93
8/16/2022 6:00:00 AM 16.08 60.944 0.125 7.62 17.09 8.95
8/16/2022 6:15:00 AM 16.06 60.908 0.125 7.63 15.33 8.97
8/16/2022 6:30:00 AM 16.04 60.872 0.125 7.63 15.98 8.99
8/16/2022 6:45:00 AM 16.02 60.836 0.125 7.63 15.85 9
8/16/2022 7:00:00 AM -99999.99 -179968 -99999.99 -99999.99 -99999.99 -99999.99
8/16/2022 7:15:00 AM 15.99 60.782 0.125 7.64 15.95 9.04
8/16/2022 7:30:00 AM 15.99 60.782 0.125 7.64 14.88 9.08
8/16/2022 7:45:00 AM 16 60.8 0.124 7.65 14.51 9.12
8/16/2022 8:00:00 AM 16.02 60.836 0.124 7.67 14.3 9.14
8/16/2022 8:15:00 AM 16.03 60.854 0.124 7.67 14.59 9.16
8/16/2022 8:30:00 AM 16.05 60.89 0.124 7.68 13.32 9.18
8/16/2022 8:45:00 AM 16.07 60.926 0.124 7.69 12.91 9.18
8/16/2022 9:00:00 AM 16.1 60.98 0.124 7.69 12.17 9.18
8/16/2022 9:15:00 AM 16.14 61.052 0.124 7.71 12.69 9.25
8/16/2022 9:30:00 AM 16.18 61.124 0.124 7.73 11.87 9.28
8/16/2022 9:45:00 AM 16.22 61.196 0.124 7.73 11.32 9.27
8/16/2022 10:00:00 AM 16.26 61.268 0.124 7.74 11.74 9.25
8/16/2022 10:15:00 AM 16.29 61.322 0.124 7.74 11.52 9.25
8/16/2022 10:30:00 AM 16.33 61.394 0.124 7.74 10.99 9.25
8/16/2022 10:45:00 AM 16.37 61.466 0.124 7.74 11.28 9.25
8/16/2022 11:00:00 AM 16.41 61.538 0.124 7.75 11.57 9.27
8/16/2022 11:15:00 AM 16.45 61.61 0.124 7.76 11.21 9.26
8/16/2022 11:30:00 AM 16.46 61.628 0.124 7.75 10.96 9.2
8/16/2022 11:45:00 AM 16.49 61.682 0.124 7.74 11.66 9.21
8/16/2022 12:00:00 PM 16.54 61.772 0.124 7.76 11.88 9.28
8/16/2022 12:15:00 PM 16.62 61.916 0.123 7.79 12.38 9.34
8/16/2022 12:30:00 PM 16.73 62.114 0.123 7.83 12.88 9.4
8/16/2022 12:45:00 PM 16.91 62.438 0.123 7.86 13.47 9.43
8/16/2022 1:00:00 PM 17.23 63.014 0.123 7.89 13.73 9.42
8/16/2022 1:15:00 PM 17.42 63.356 0.123 7.9 14.68 9.39
8/16/2022 1:30:00 PM 17.56 63.608 0.123 7.89 14.73 9.3
8/16/2022 1:45:00 PM 17.72 63.896 0.123 7.86 14.97 9.2
8/16/2022 2:00:00 PM 17.83 64.094 0.123 7.84 14.77 9.13
8/16/2022 2:15:00 PM 17.91 64.238 0.123 7.83 15.39 9.09
8/16/2022 2:30:00 PM 18 64.4 0.123 7.83 14.37 9.08
8/16/2022 2:45:00 PM 18.11 64.598 0.123 7.84 14.96 9.09
8/16/2022 3:00:00 PM 17.93 64.274 0.123 7.77 15.14 8.89
8/16/2022 3:15:00 PM 17.91 64.238 0.123 7.75 14.59 8.91
8/16/2022 3:30:00 PM 17.91 64.238 0.123 7.76 14.3 8.96
8/16/2022 3:45:00 PM 17.87 64.166 0.124 7.76 16.18 8.88
8/16/2022 4:00:00 PM 17.69 63.842 0.112 7.64 53.13 8.81
8/16/2022 4:15:00 PM 17.56 63.608 0.108 7.58 74.66 8.78
8/16/2022 4:30:00 PM 17.49 63.482 0.107 7.56 119.61 8.73
8/16/2022 4:45:00 PM 17.53 63.554 0.107 7.56 78.65 8.73
8/16/2022 5:00:00 PM 17.45 63.41 0.11 7.59 73.44 8.8
8/16/2022 5:15:00 PM 17.32 63.176 0.124 7.6 160.77 8.81
8/16/2022 5:30:00 PM 17.19 62.942 0.124 7.61 101.6 8.87
8/16/2022 5:45:00 PM 17.09 62.762 0.119 7.61 57.02 8.89
8/16/2022 6:00:00 PM 17.01 62.618 0.117 7.62 41.23 8.93
8/16/2022 6:15:00 PM 16.93 62.474 0.116 7.62 34.16 8.95
8/16/2022 6:30:00 PM 16.86 62.348 0.116 7.63 33.16 8.97
8/16/2022 6:45:00 PM 16.8 62.24 0.116 7.63 31.53 8.99
8/16/2022 7:00:00 PM 16.75 62.15 0.116 7.63 29.51 9.01
8/16/2022 7:15:00 PM 16.7 62.06 0.116 7.64 27.6 9.01
8/16/2022 7:30:00 PM 16.65 61.97 0.116 7.64 26.02 9.02
8/16/2022 7:45:00 PM 16.6 61.88 0.116 7.65 23.49 9.02
8/16/2022 8:00:00 PM 16.55 61.79 0.116 7.64 22.64 9.02
8/16/2022 8:15:00 PM 16.49 61.682 0.117 7.64 21.1 9.03
8/16/2022 8:30:00 PM 16.44 61.592 0.117 7.64 21.1 9.04
8/16/2022 8:45:00 PM 16.39 61.502 0.117 7.64 21.24 9.06
8/16/2022 9:00:00 PM 16.34 61.412 0.117 7.64 19.94 9.07
8/16/2022 9:15:00 PM 16.29 61.322 0.117 7.64 20.15 9.08
8/16/2022 9:30:00 PM 16.24 61.232 0.117 7.64 18.57 9.09
8/16/2022 9:45:00 PM 16.2 61.16 0.117 7.64 18.4 9.1
8/16/2022 10:00:00 PM 16.16 61.088 0.117 7.64 18.35 9.1
8/16/2022 10:15:00 PM 16.12 61.016 0.117 7.64 17.72 9.11
8/16/2022 10:30:00 PM 16.08 60.944 0.117 7.64 17.24 9.11
8/16/2022 10:45:00 PM 16.05 60.89 0.117 7.64 17.41 9.12
8/16/2022 11:00:00 PM 16.02 60.836 0.117 7.64 16.97 9.13
8/16/2022 11:15:00 PM 15.99 60.782 0.118 7.64 16.76 9.13
8/16/2022 11:30:00 PM 15.96 60.728 0.118 7.64 16.46 9.14
8/16/2022 11:45:00 PM 15.94 60.692 0.118 7.64 16.14 9.15
8/17/2022 12:00:00 AM 15.91 60.638 0.118 7.64 15.27 9.16
8/17/2022 12:15:00 AM 15.89 60.602 0.118 7.64 15.98 9.16
8/17/2022 12:30:00 AM 15.87 60.566 0.118 7.64 15.85 9.17
8/17/2022 12:45:00 AM 15.84 60.512 0.118 7.64 15.57 9.18
8/17/2022 1:00:00 AM 15.8 60.44 0.118 7.64 15.7 9.18
8/17/2022 1:15:00 AM 15.77 60.386 0.118 7.64 15.15 9.19
8/17/2022 1:30:00 AM 15.75 60.35 0.118 7.64 15.1 9.19
8/17/2022 1:45:00 AM 15.72 60.296 0.118 7.64 15.46 9.2
8/17/2022 2:00:00 AM 15.68 60.224 0.118 7.64 15.14 9.2
8/17/2022 2:15:00 AM 15.65 60.17 0.119 7.64 14.39 9.21
8/17/2022 2:30:00 AM 15.63 60.134 0.119 7.64 15.02 9.22
8/17/2022 2:45:00 AM 15.6 60.08 0.119 7.64 14.51 9.22
8/17/2022 3:00:00 AM 15.57 60.026 0.119 7.63 14.64 9.23
8/17/2022 3:15:00 AM 15.55 59.99 0.119 7.64 15.33 9.23
8/17/2022 3:30:00 AM 15.53 59.954 0.119 7.64 15.22 9.24
8/17/2022 3:45:00 AM 15.5 59.9 0.119 7.64 15.32 9.24
8/17/2022 4:00:00 AM 15.47 59.846 0.119 7.64 14.83 9.25
8/17/2022 4:15:00 AM 15.45 59.81 0.119 7.64 14.76 9.25
8/17/2022 4:30:00 AM 15.42 59.756 0.119 7.64 14.99 9.26
8/17/2022 4:45:00 AM 15.4 59.72 0.119 7.63 15.48 9.26
8/17/2022 5:00:00 AM 15.37 59.666 0.119 7.63 15.1 9.27
8/17/2022 5:15:00 AM 15.34 59.612 0.119 7.64 15.01 9.28
8/17/2022 5:30:00 AM 15.31 59.558 0.119 7.63 14.94 9.28
8/17/2022 5:45:00 AM 15.28 59.504 0.119 7.63 15.76 9.29
8/17/2022 6:00:00 AM 15.25 59.45 0.119 7.63 15.91 9.3
8/17/2022 6:15:00 AM 15.21 59.378 0.119 7.63 16.4 9.3
8/17/2022 6:30:00 AM 15.19 59.342 0.119 7.63 15.96 9.31
8/17/2022 6:45:00 AM 15.18 59.324 0.119 7.63 16.21 9.32
8/17/2022 7:00:00 AM 15.17 59.306 0.119 7.64 16.68 9.34
8/17/2022 7:15:00 AM 15.17 59.306 0.119 7.65 16.27 9.36
8/17/2022 7:30:00 AM 15.17 59.306 0.119 7.65 16.08 9.39
8/17/2022 7:45:00 AM 15.19 59.342 0.119 7.66 15.98 9.42
8/17/2022 8:00:00 AM 15.2 59.36 0.119 7.67 15.81 9.43
8/17/2022 8:15:00 AM 15.21 59.378 0.119 7.67 15.46 9.43
8/17/2022 8:30:00 AM 15.24 59.432 0.119 7.68 14.92 9.45
8/17/2022 8:45:00 AM 15.26 59.468 0.119 7.69 14.77 9.45
8/17/2022 9:00:00 AM 15.27 59.486 0.119 7.68 14.22 9.41
8/17/2022 9:15:00 AM 15.29 59.522 0.119 7.69 14.73 9.43
8/17/2022 9:30:00 AM 15.33 59.594 0.119 7.7 14.38 9.47
8/17/2022 9:45:00 AM 15.38 59.684 0.119 7.72 13.72 9.52
8/17/2022 10:00:00 AM 15.45 59.81 0.119 7.74 14.06 9.56
8/17/2022 10:15:00 AM 15.52 59.936 0.119 7.75 13.48 9.55
8/17/2022 10:30:00 AM 15.57 60.026 0.119 7.75 12.63 9.52
8/17/2022 10:45:00 AM 15.64 60.152 0.119 7.76 12.96 9.53
8/17/2022 11:00:00 AM 15.74 60.332 0.119 7.79 12.05 9.57
8/17/2022 11:15:00 AM 15.82 60.476 0.119 7.78 12.74 9.52
8/17/2022 11:30:00 AM 15.87 60.566 0.119 7.78 11.88 9.51
8/17/2022 11:45:00 AM 15.95 60.71 0.119 7.8 12.17 9.52
8/17/2022 12:00:00 PM 16.04 60.872 0.119 7.8 12.15 9.52
8/17/2022 12:15:00 PM 16.2 61.16 0.119 7.83 12.15 9.55
8/17/2022 12:30:00 PM 16.49 61.682 0.119 7.86 12.62 9.54
8/17/2022 12:45:00 PM 16.59 61.862 0.119 7.86 12.7 9.48
8/17/2022 1:00:00 PM 16.78 62.204 0.119 7.87 12.5 9.48
8/17/2022 1:15:00 PM 17.07 62.726 0.119 7.88 12.54 9.45
8/17/2022 1:30:00 PM 17.14 62.852 0.119 7.87 12.79 9.36
8/17/2022 1:45:00 PM 17.12 62.816 0.119 7.84 12.43 9.3
8/17/2022 2:00:00 PM 17.3 63.14 0.119 7.83 12.95 9.22
8/17/2022 2:15:00 PM 17.28 63.104 0.119 7.81 12.69 9.18
8/17/2022 2:30:00 PM 17.37 63.266 0.119 7.83 13.31 9.23
8/17/2022 2:45:00 PM 17.35 63.23 0.119 7.81 13.42 9.16
8/17/2022 3:00:00 PM 17.38 63.284 0.119 7.82 13.93 9.2
8/17/2022 3:15:00 PM 17.33 63.194 0.12 7.77 13.9 9.08
8/17/2022 3:30:00 PM 17.24 63.032 0.12 7.75 14.26 8.98
8/17/2022 3:45:00 PM 17.12 62.816 0.12 7.73 15.44 8.95
8/17/2022 4:00:00 PM 17.02 62.636 0.12 7.73 15.04 8.98
8/17/2022 4:15:00 PM 16.93 62.474 0.12 7.72 15.46 9
8/17/2022 4:30:00 PM 16.84 62.312 0.12 7.73 14.71 9.03
8/17/2022 4:45:00 PM 16.78 62.204 0.12 7.74 15.1 9.07
8/17/2022 5:00:00 PM 16.73 62.114 0.12 7.74 14.87 9.08
8/17/2022 5:15:00 PM 16.69 62.042 0.12 7.75 15.55 9.12
8/17/2022 5:30:00 PM 16.67 62.006 0.12 7.75 15.11 9.15
8/17/2022 5:45:00 PM 16.65 61.97 0.12 7.76 14.66 9.16
8/17/2022 6:00:00 PM 16.6 61.88 0.12 7.75 15.21 9.12
8/17/2022 6:15:00 PM 16.56 61.808 0.12 7.73 14.78 9.09
8/17/2022 6:30:00 PM 16.52 61.736 0.121 7.72 16.2 9.08
8/17/2022 6:45:00 PM 16.5 61.7 0.121 7.72 15.7 9.1
8/17/2022 7:00:00 PM 16.48 61.664 0.121 7.71 15.8 9.1
8/17/2022 7:15:00 PM 16.45 61.61 0.121 7.71 15.84 9.08
8/17/2022 7:30:00 PM 16.41 61.538 0.121 7.7 16.81 9.07
8/17/2022 7:45:00 PM 16.36 61.448 0.121 7.7 16 9.07
8/17/2022 8:00:00 PM 16.31 61.358 0.121 7.69 16.12 9.06
8/17/2022 8:15:00 PM 16.28 61.304 0.121 7.69 16.61 9.06
8/17/2022 8:30:00 PM 16.23 61.214 0.121 7.68 16.48 9.06
8/17/2022 8:45:00 PM 16.18 61.124 0.121 7.68 16.83 9.07
8/17/2022 9:00:00 PM 16.14 61.052 0.121 7.68 16.2 9.09
8/17/2022 9:15:00 PM 16.1 60.98 0.121 7.68 16.41 9.09
8/17/2022 9:30:00 PM 16.06 60.908 0.121 7.67 16.26 9.1
8/17/2022 9:45:00 PM 16.01 60.818 0.121 7.66 17.13 9.1
8/17/2022 10:00:00 PM 15.98 60.764 0.121 7.66 16.46 9.11
8/17/2022 10:15:00 PM 15.94 60.692 0.121 7.66 16.33 9.11
8/17/2022 10:30:00 PM 15.92 60.656 0.121 7.66 17.19 9.12
8/17/2022 10:45:00 PM 15.88 60.584 0.121 7.66 16.36 9.13
8/17/2022 11:00:00 PM 15.84 60.512 0.121 7.66 16.08 9.13
8/17/2022 11:15:00 PM 15.8 60.44 0.121 7.66 15.58 9.14
8/17/2022 11:30:00 PM 15.77 60.386 0.121 7.66 15.72 9.15
8/17/2022 11:45:00 PM 15.74 60.332 0.121 7.66 15.39 9.15
8/18/2022 12:00:00 AM 15.71 60.278 0.121 7.66 15.61 9.16
8/18/2022 12:15:00 AM 15.68 60.224 0.121 7.66 18.26 9.17
8/18/2022 12:30:00 AM 15.66 60.188 0.121 7.66 15.08 9.17
8/18/2022 12:45:00 AM 15.64 60.152 0.121 7.66 15.26 9.18
8/18/2022 1:00:00 AM 15.61 60.098 0.121 7.66 15.24 9.18
8/18/2022 1:15:00 AM 15.58 60.044 0.121 7.66 15.55 9.19
8/18/2022 1:30:00 AM 15.56 60.008 0.121 7.66 28.1 9.19
8/18/2022 1:45:00 AM 15.53 59.954 0.121 7.66 17.65 9.2
8/18/2022 2:00:00 AM 15.5 59.9 0.121 7.66 16.95 9.21
8/18/2022 2:15:00 AM 15.46 59.828 0.121 7.66 15.74 9.22
8/18/2022 2:30:00 AM 15.43 59.774 0.121 7.66 15.67 9.23
8/18/2022 2:45:00 AM 15.39 59.702 0.121 7.66 16.69 9.24
8/18/2022 3:00:00 AM 15.35 59.63 0.121 7.66 16.56 9.26
8/18/2022 3:15:00 AM 15.3 59.54 0.121 7.66 17.22 9.28
8/18/2022 3:30:00 AM 15.25 59.45 0.121 7.66 16.85 9.29
8/18/2022 3:45:00 AM 15.21 59.378 0.121 7.66 19.69 9.3
8/18/2022 4:00:00 AM 15.16 59.288 0.121 7.66 17.31 9.31
8/18/2022 4:15:00 AM 15.12 59.216 0.121 7.66 16.63 9.32
8/18/2022 4:30:00 AM 15.08 59.144 0.121 7.66 15.36 9.33
8/18/2022 4:45:00 AM 15.04 59.072 0.121 7.66 15.26 9.34
8/18/2022 5:00:00 AM 15.01 59.018 0.121 7.66 16.22 9.34
8/18/2022 5:15:00 AM 14.97 58.946 0.121 7.66 15.12 9.35
8/18/2022 5:30:00 AM 14.95 58.91 0.121 7.66 15.42 9.36
8/18/2022 5:45:00 AM 14.92 58.856 0.121 7.66 15.22 9.37
8/18/2022 6:00:00 AM 14.89 58.802 0.121 7.66 15.23 9.37
8/18/2022 6:15:00 AM 14.86 58.748 0.121 7.66 15.63 9.37
8/18/2022 6:30:00 AM 14.83 58.694 0.121 7.66 16.03 9.38
8/18/2022 6:45:00 AM 14.81 58.658 0.12 7.66 15.52 9.39
8/18/2022 7:00:00 AM 14.79 58.622 0.12 7.66 13.41 9.41
8/18/2022 7:15:00 AM 14.77 58.586 0.12 7.67 15.54 9.43
8/18/2022 7:30:00 AM 14.76 58.568 0.12 7.67 15.63 9.45
8/18/2022 7:45:00 AM 14.74 58.532 0.12 7.68 14.97 9.46
8/18/2022 8:00:00 AM 14.73 58.514 0.12 7.68 15.1 9.47
8/18/2022 8:15:00 AM 14.72 58.496 0.12 7.68 14.23 9.49
8/18/2022 8:30:00 AM 14.71 58.478 0.12 7.69 14.89 9.51
8/18/2022 8:45:00 AM 14.72 58.496 0.12 7.7 14.58 9.54
8/18/2022 9:00:00 AM 14.74 58.532 0.12 7.71 15.2 9.58
8/18/2022 9:15:00 AM 14.77 58.586 0.12 7.73 14.23 9.62
8/18/2022 9:30:00 AM 14.82 58.676 0.12 7.75 14.12 9.65
8/18/2022 9:45:00 AM 14.93 58.874 0.119 7.76 14.28 9.66
8/18/2022 10:00:00 AM 15.1 59.18 0.119 7.77 13.88 9.65
8/18/2022 10:15:00 AM 15.25 59.45 0.119 7.78 13.77 9.63
8/18/2022 10:30:00 AM 15.41 59.738 0.119 7.79 13.15 9.59
8/18/2022 10:45:00 AM 15.65 60.17 0.119 7.79 13.47 9.55
8/18/2022 11:00:00 AM 15.9 60.62 0.119 7.79 13.42 9.5
8/18/2022 11:15:00 AM 16.16 61.088 0.119 7.8 13.06 9.46
8/18/2022 11:30:00 AM 16.44 61.592 0.119 7.81 13.16 9.42
8/18/2022 11:45:00 AM 16.69 62.042 0.119 7.82 13.28 9.37
8/18/2022 12:00:00 PM 16.74 62.132 0.119 7.8 13.22 9.27
8/18/2022 12:15:00 PM 16.88 62.384 0.119 7.8 12.96 9.28
8/18/2022 12:30:00 PM 17.07 62.726 0.119 7.82 12.8 9.3
8/18/2022 12:45:00 PM 17.2 62.96 0.119 7.83 13.36 9.28
8/18/2022 1:00:00 PM 17.1 62.78 0.12 7.81 13.08 9.21
8/18/2022 1:15:00 PM 17.08 62.744 0.119 7.81 13.23 9.26
8/18/2022 1:30:00 PM 17.05 62.69 0.12 7.78 14.12 9.17
8/18/2022 1:45:00 PM 17.06 62.708 0.12 7.79 13.95 9.18
8/18/2022 2:00:00 PM 17.18 62.924 0.12 7.81 13.49 9.23
8/18/2022 2:15:00 PM 17.31 63.158 0.12 7.81 14.04 9.21
8/18/2022 2:30:00 PM 17.36 63.248 0.12 7.81 13.81 9.2
8/18/2022 2:45:00 PM 17.34 63.212 0.12 7.8 13.8 9.17
8/18/2022 3:00:00 PM 17.37 63.266 0.12 7.8 13.76 9.16
8/18/2022 3:15:00 PM 17.29 63.122 0.12 7.79 14.16 9.1
8/18/2022 3:30:00 PM 17.34 63.212 0.12 7.8 14.56 9.13
8/18/2022 3:45:00 PM 17.43 63.374 0.12 7.81 14.81 9.16
8/18/2022 4:00:00 PM 17.37 63.266 0.12 7.8 14.85 9.1
8/18/2022 4:15:00 PM 17.35 63.23 0.12 7.8 14.78 9.14
8/18/2022 4:30:00 PM 17.35 63.23 0.12 7.79 15.46 9.1
8/18/2022 4:45:00 PM 17.32 63.176 0.12 7.76 15.77 9.03
8/18/2022 5:00:00 PM 17.34 63.212 0.12 7.77 15.64 9.08
8/18/2022 5:15:00 PM 17.3 63.14 0.12 7.76 15.81 9.03
8/18/2022 5:30:00 PM 17.3 63.14 0.12 7.75 15.91 9.04
8/18/2022 5:45:00 PM 17.28 63.104 0.12 7.75 15.71 9.03
8/18/2022 6:00:00 PM 17.23 63.014 0.121 7.72 16.14 8.97
8/18/2022 6:15:00 PM 17.17 62.906 0.121 7.7 16.51 8.95
8/18/2022 6:30:00 PM 17.12 62.816 0.121 7.69 16.16 8.94
8/18/2022 6:45:00 PM 17.07 62.726 0.121 7.68 16.44 8.95
8/18/2022 7:00:00 PM 17.02 62.636 0.121 7.68 16.23 8.93
8/18/2022 7:15:00 PM 16.97 62.546 0.121 7.67 16.79 8.93
8/18/2022 7:30:00 PM 16.93 62.474 0.121 7.67 16.38 8.94
8/18/2022 7:45:00 PM 16.87 62.366 0.122 7.67 16.65 8.94
8/18/2022 8:00:00 PM 16.81 62.258 0.122 7.67 16.95 8.94
8/18/2022 8:15:00 PM 16.74 62.132 0.122 7.67 17.38 8.94
8/18/2022 8:30:00 PM 16.68 62.024 0.122 7.66 16.9 8.95
8/18/2022 8:45:00 PM 16.62 61.916 0.122 7.66 17.26 8.96
8/18/2022 9:00:00 PM 16.56 61.808 0.122 7.66 17.56 8.97
8/18/2022 9:15:00 PM 16.49 61.682 0.122 7.66 18.64 8.99
8/18/2022 9:30:00 PM 16.43 61.574 0.122 7.66 16.92 9
8/18/2022 9:45:00 PM 16.37 61.466 0.122 7.66 16.62 9.02
8/18/2022 10:00:00 PM 16.31 61.358 0.122 7.66 16.21 9.03
8/18/2022 10:15:00 PM 16.25 61.25 0.122 7.66 16.14 9.04
8/18/2022 10:30:00 PM 16.19 61.142 0.122 7.66 16.05 9.05
8/18/2022 10:45:00 PM 16.14 61.052 0.122 7.66 16.07 9.06
8/18/2022 11:00:00 PM 16.08 60.944 0.122 7.66 15.54 9.07
8/18/2022 11:15:00 PM 16.02 60.836 0.122 7.65 15.76 9.08
8/18/2022 11:30:00 PM 15.97 60.746 0.122 7.66 16.22 9.1
8/18/2022 11:45:00 PM 15.91 60.638 0.122 7.65 15.28 9.11
8/19/2022 12:00:00 AM 15.85 60.53 0.122 7.65 15.3 9.12
8/19/2022 12:15:00 AM 15.8 60.44 0.122 7.65 15.15 9.13
8/19/2022 12:30:00 AM 15.74 60.332 0.122 7.65 15.62 9.15
8/19/2022 12:45:00 AM 15.68 60.224 0.122 7.65 15.05 9.16
8/19/2022 1:00:00 AM 15.63 60.134 0.122 7.65 14.83 9.17
8/19/2022 1:15:00 AM -99999.99 -179968 -99999.99 -99999.99 -99999.99 -99999.99
8/19/2022 1:30:00 AM -99999.99 -179968 -99999.99 -99999.99 -99999.99 -99999.99
8/19/2022 1:45:00 AM -99999.99 -179968 -99999.99 -99999.99 -99999.99 -99999.99
8/19/2022 2:00:00 AM -99999.99 -179968 -99999.99 -99999.99 -99999.99 -99999.99
8/19/2022 2:15:00 AM -99999.99 -179968 -99999.99 -99999.99 -99999.99 -99999.99
8/19/2022 2:30:00 AM -99999.99 -179968 -99999.99 -99999.99 -99999.99 -99999.99
8/19/2022 2:45:00 AM -99999.99 -179968 -99999.99 -99999.99 -99999.99 -99999.99
8/19/2022 3:00:00 AM -99999.99 -179968 -99999.99 -99999.99 -99999.99 -99999.99
8/19/2022 3:15:00 AM -99999.99 -179968 -99999.99 -99999.99 -99999.99 -99999.99
8/19/2022 3:30:00 AM -99999.99 -179968 -99999.99 -99999.99 -99999.99 -99999.99
8/19/2022 3:45:00 AM -99999.99 -179968 -99999.99 -99999.99 -99999.99 -99999.99
8/19/2022 4:00:00 AM -99999.99 -179968 -99999.99 -99999.99 -99999.99 -99999.99
8/19/2022 4:15:00 AM -99999.99 -179968 -99999.99 -99999.99 -99999.99 -99999.99
8/19/2022 4:30:00 AM -99999.99 -179968 -99999.99 -99999.99 -99999.99 -99999.99
8/19/2022 4:45:00 AM -99999.99 -179968 -99999.99 -99999.99 -99999.99 -99999.99
8/19/2022 5:00:00 AM -99999.99 -179968 -99999.99 -99999.99 -99999.99 -99999.99
8/19/2022 5:15:00 AM -99999.99 -179968 -99999.99 -99999.99 -99999.99 -99999.99
8/19/2022 5:30:00 AM -99999.99 -179968 -99999.99 -99999.99 -99999.99 -99999.99
8/19/2022 5:45:00 AM -99999.99 -179968 -99999.99 -99999.99 -99999.99 -99999.99
8/19/2022 6:00:00 AM -99999.99 -179968 -99999.99 -99999.99 -99999.99 -99999.99
8/19/2022 6:15:00 AM -99999.99 -179968 -99999.99 -99999.99 -99999.99 -99999.99
8/19/2022 6:30:00 AM -99999.99 -179968 -99999.99 -99999.99 -99999.99 -99999.99
8/19/2022 6:45:00 AM -99999.99 -179968 -99999.99 -99999.99 -99999.99 -99999.99
8/19/2022 7:00:00 AM -99999.99 -179968 -99999.99 -99999.99 -99999.99 -99999.99
8/19/2022 7:15:00 AM -99999.99 -179968 -99999.99 -99999.99 -99999.99 -99999.99
8/19/2022 7:30:00 AM 15.14 59.252 0.122 7.65 16.5 9.36
8/19/2022 7:45:00 AM 15.14 59.252 0.122 7.66 16.56 9.37
8/19/2022 8:00:00 AM 15.15 59.27 0.122 7.67 15.85 9.41
8/19/2022 8:15:00 AM 15.16 59.288 0.122 7.69 15.91 9.43
8/19/2022 8:30:00 AM 15.19 59.342 0.121 7.7 16.2 9.48
8/19/2022 8:45:00 AM 15.24 59.432 0.121 7.72 16.34 9.53
8/19/2022 9:00:00 AM 15.32 59.576 0.121 7.74 15.54 9.55
8/19/2022 9:15:00 AM 15.41 59.738 0.121 7.73 15.95 9.51
8/19/2022 9:30:00 AM 15.54 59.972 0.121 7.74 14.83 9.5
8/19/2022 9:45:00 AM 15.69 60.242 0.121 7.75 15.18 9.5
8/19/2022 10:00:00 AM 15.87 60.566 0.121 7.75 14.6 9.48
8/19/2022 10:15:00 AM 16.07 60.926 0.121 7.76 14.19 9.45
8/19/2022 10:30:00 AM 16.27 61.286 0.121 7.77 13.95 9.41
8/19/2022 10:45:00 AM 16.49 61.682 0.121 7.77 13.53 9.38
8/19/2022 11:00:00 AM 16.74 62.132 0.121 7.78 13.38 9.33
8/19/2022 11:15:00 AM 16.99 62.582 0.121 7.79 13.1 9.3
8/19/2022 11:30:00 AM 17.24 63.032 0.121 7.8 12.99 9.26
8/19/2022 11:45:00 AM 17.48 63.464 0.121 7.8 13.83 9.22
8/19/2022 12:00:00 PM 17.7 63.86 0.121 7.81 13.52 9.18
8/19/2022 12:15:00 PM 17.93 64.274 0.121 7.82 13.66 9.16
8/19/2022 12:30:00 PM 18.12 64.616 0.121 7.83 14.11 9.12
8/19/2022 12:45:00 PM 18.26 64.868 0.121 7.82 14.11 9.08
8/19/2022 1:00:00 PM 18.38 65.084 0.121 7.83 13.74 9.05
8/19/2022 1:15:00 PM 18.46 65.228 0.121 7.82 13.92 9.01
8/19/2022 1:30:00 PM 18.55 65.39 0.121 7.81 14.35 8.98
8/19/2022 1:45:00 PM 18.62 65.516 0.121 7.82 14.12 8.97
8/19/2022 2:00:00 PM 18.67 65.606 0.121 7.81 14.55 8.95
8/19/2022 2:15:00 PM 18.72 65.696 0.122 7.8 14.95 8.93
8/19/2022 2:30:00 PM 18.74 65.732 0.122 7.8 15.04 8.91
8/19/2022 2:45:00 PM 18.71 65.67799 0.122 7.79 14.83 8.87
8/19/2022 3:00:00 PM 18.64 65.552 0.122 7.77 15.32 8.87
8/19/2022 3:15:00 PM 18.59 65.462 0.122 7.75 15.09 8.85
8/19/2022 3:30:00 PM 18.67 65.606 0.122 7.76 15.4 8.87
8/19/2022 3:45:00 PM 18.65 65.57 0.122 7.77 14.84 8.86
8/19/2022 4:00:00 PM 18.58 65.444 0.122 7.76 15.52 8.82
8/19/2022 4:15:00 PM 18.52 65.336 0.122 7.74 15.81 8.78
8/19/2022 4:30:00 PM 18.48 65.264 0.122 7.72 15.96 8.77
8/19/2022 4:45:00 PM 18.49 65.282 0.122 7.73 15.77 8.8
8/19/2022 5:00:00 PM 18.49 65.282 0.122 7.73 16.34 8.81
8/19/2022 5:15:00 PM 18.48 65.264 0.122 7.72 16 8.78
8/19/2022 5:30:00 PM 18.43 65.174 0.122 7.7 16.38 8.74
8/19/2022 5:45:00 PM 18.38 65.084 0.123 7.69 15.95 8.72
8/19/2022 6:00:00 PM 18.34 65.012 0.123 7.69 16.74 8.71
8/19/2022 6:15:00 PM 18.28 64.904 0.123 7.67 16.94 8.71
8/19/2022 6:30:00 PM 18.24 64.832 0.123 7.67 16.85 8.72
8/19/2022 6:45:00 PM 18.19 64.742 0.123 7.66 16.31 8.71
8/19/2022 7:00:00 PM 18.13 64.634 0.123 7.66 16.63 8.71
8/19/2022 7:15:00 PM 18.08 64.544 0.123 7.65 17.32 8.71
8/19/2022 7:30:00 PM 18.01 64.418 0.123 7.66 16.17 8.71
8/19/2022 7:45:00 PM 17.94 64.292 0.123 7.65 16.8 8.72
8/19/2022 8:00:00 PM 17.87 64.166 0.123 7.65 16.63 8.72
8/19/2022 8:15:00 PM 17.79 64.022 0.123 7.65 17.2 8.72
8/19/2022 8:30:00 PM 17.72 63.896 0.123 7.65 16.48 8.74
8/19/2022 8:45:00 PM 17.64 63.752 0.123 7.66 17.29 8.75
8/19/2022 9:00:00 PM 17.57 63.626 0.123 7.65 17.23 8.77
8/19/2022 9:15:00 PM 17.5 63.5 0.123 7.65 16.94 8.79
8/19/2022 9:30:00 PM 17.44 63.392 0.123 7.65 16.14 8.79
8/19/2022 9:45:00 PM 17.37 63.266 0.123 7.65 16.12 8.81
8/19/2022 10:00:00 PM 17.3 63.14 0.123 7.65 15.55 8.82
8/19/2022 10:15:00 PM 17.23 63.014 0.123 7.65 16.27 8.84
8/19/2022 10:30:00 PM 17.17 62.906 0.123 7.65 15.33 8.85
8/19/2022 10:45:00 PM 17.11 62.798 0.123 7.65 15.29 8.86
8/19/2022 11:00:00 PM 17.04 62.672 0.123 7.65 15.41 8.88
8/19/2022 11:15:00 PM 16.98 62.564 0.123 7.65 15.41 8.89
8/19/2022 11:30:00 PM 16.92 62.456 0.123 7.65 16.09 8.9
8/19/2022 11:45:00 PM 16.86 62.348 0.123 7.65 15.35 8.92
8/20/2022 12:00:00 AM 16.8 62.24 0.123 7.65 15.37 8.93
8/20/2022 12:15:00 AM -99999.99 -179968 -99999.99 -99999.99 -99999.99 -99999.99
8/20/2022 12:30:00 AM -99999.99 -179968 -99999.99 -99999.99 -99999.99 -99999.99
8/20/2022 12:45:00 AM -99999.99 -179968 -99999.99 -99999.99 -99999.99 -99999.99
8/20/2022 1:00:00 AM -99999.99 -179968 -99999.99 -99999.99 -99999.99 -99999.99
8/20/2022 1:15:00 AM -99999.99 -179968 -99999.99 -99999.99 -99999.99 -99999.99
8/20/2022 1:30:00 AM -99999.99 -179968 -99999.99 -99999.99 -99999.99 -99999.99
8/20/2022 1:45:00 AM -99999.99 -179968 -99999.99 -99999.99 -99999.99 -99999.99
8/20/2022 2:00:00 AM -99999.99 -179968 -99999.99 -99999.99 -99999.99 -99999.99
8/20/2022 2:15:00 AM -99999.99 -179968 -99999.99 -99999.99 -99999.99 -99999.99
8/20/2022 2:30:00 AM -99999.99 -179968 -99999.99 -99999.99 -99999.99 -99999.99
8/20/2022 2:45:00 AM -99999.99 -179968 -99999.99 -99999.99 -99999.99 -99999.99
8/20/2022 3:00:00 AM -99999.99 -179968 -99999.99 -99999.99 -99999.99 -99999.99
8/20/2022 3:15:00 AM -99999.99 -179968 -99999.99 -99999.99 -99999.99 -99999.99
8/20/2022 3:30:00 AM -99999.99 -179968 -99999.99 -99999.99 -99999.99 -99999.99
8/20/2022 3:45:00 AM -99999.99 -179968 -99999.99 -99999.99 -99999.99 -99999.99
8/20/2022 4:00:00 AM -99999.99 -179968 -99999.99 -99999.99 -99999.99 -99999.99
8/20/2022 4:15:00 AM -99999.99 -179968 -99999.99 -99999.99 -99999.99 -99999.99
8/20/2022 4:30:00 AM -99999.99 -179968 -99999.99 -99999.99 -99999.99 -99999.99
8/20/2022 4:45:00 AM -99999.99 -179968 -99999.99 -99999.99 -99999.99 -99999.99
8/20/2022 5:00:00 AM -99999.99 -179968 -99999.99 -99999.99 -99999.99 -99999.99
8/20/2022 5:15:00 AM -99999.99 -179968 -99999.99 -99999.99 -99999.99 -99999.99
8/20/2022 5:30:00 AM -99999.99 -179968 -99999.99 -99999.99 -99999.99 -99999.99
8/20/2022 5:45:00 AM -99999.99 -179968 -99999.99 -99999.99 -99999.99 -99999.99
8/20/2022 6:00:00 AM -99999.99 -179968 -99999.99 -99999.99 -99999.99 -99999.99
8/20/2022 6:15:00 AM -99999.99 -179968 -99999.99 -99999.99 -99999.99 -99999.99
8/20/2022 6:30:00 AM -99999.99 -179968 -99999.99 -99999.99 -99999.99 -99999.99
8/20/2022 6:45:00 AM 15.61 60.098 0.123 7.63 15.73 9.19
8/20/2022 7:00:00 AM -99999.99 -179968 -99999.99 -99999.99 -99999.99 -99999.99
8/20/2022 7:15:00 AM 15.61 60.098 0.123 7.63 15.61 9.23
8/20/2022 7:30:00 AM 15.64 60.152 0.123 7.65 15.66 9.23
8/20/2022 7:45:00 AM 15.67 60.206 0.123 7.65 15.43 9.26
8/20/2022 8:00:00 AM 15.7 60.26 0.123 7.66 14.98 9.28
8/20/2022 8:15:00 AM 15.73 60.314 0.123 7.66 15.99 9.27
8/20/2022 8:30:00 AM 15.78 60.404 0.123 7.68 15.15 9.3
8/20/2022 8:45:00 AM 15.84 60.512 0.123 7.68 15.06 9.29
8/20/2022 9:00:00 AM 15.95 60.71 0.123 7.69 15.24 9.32
8/20/2022 9:15:00 AM 16.08 60.944 0.123 7.7 14.68 9.33
8/20/2022 9:30:00 AM 16.23 61.214 0.123 7.72 14.3 9.34
8/20/2022 9:45:00 AM 16.4 61.52 0.123 7.73 14.68 9.34
8/20/2022 10:00:00 AM 16.6 61.88 0.123 7.74 13.67 9.33
8/20/2022 10:15:00 AM 16.8 62.24 0.123 7.75 13.79 9.3
8/20/2022 10:30:00 AM 17.02 62.636 0.123 7.76 14.34 9.25
8/20/2022 10:45:00 AM 17.25 63.05 0.122 7.76 13.88 9.21
8/20/2022 11:00:00 AM 17.52 63.536 0.122 7.78 13.18 9.17
8/20/2022 11:15:00 AM 17.79 64.022 0.122 7.79 13.92 9.13
8/20/2022 11:30:00 AM 18.06 64.508 0.122 7.81 14.68 9.15
8/20/2022 11:45:00 AM 18.32 64.976 0.122 7.84 14.07 9.16
8/20/2022 12:00:00 PM 18.54 65.372 0.122 7.85 15.05 9.13
8/20/2022 12:15:00 PM 18.69 65.642 0.122 7.85 14.65 9.06
8/20/2022 12:30:00 PM 18.81 65.858 0.122 7.84 14.7 8.98
8/20/2022 12:45:00 PM 18.94 66.092 0.122 7.82 15.3 8.93
8/20/2022 1:00:00 PM 19.12 66.416 0.122 7.83 15.21 8.93
8/20/2022 1:15:00 PM 19.11 66.398 0.123 7.82 14.82 8.84
8/20/2022 1:30:00 PM 19.15 66.47 0.123 7.81 15.45 8.85
8/20/2022 1:45:00 PM 19.15 66.47 0.123 7.8 15.97 8.83
8/20/2022 2:00:00 PM 19.31 66.758 0.123 7.8 15.67 8.83
8/20/2022 2:15:00 PM 19.34 66.812 0.123 7.8 15.75 8.79
8/20/2022 2:30:00 PM 19.28 66.704 0.123 7.78 16.03 8.78
8/20/2022 2:45:00 PM 19.21 66.578 0.123 7.77 17.27 8.74
8/20/2022 3:00:00 PM 19.41 66.938 0.123 7.79 16.95 8.79
8/20/2022 3:15:00 PM 19.38 66.884 0.123 7.78 16.81 8.72
8/20/2022 3:30:00 PM 19.26 66.668 0.123 7.76 16.63 8.69
8/20/2022 3:45:00 PM 19.3 66.74 0.123 7.77 16.66 8.74
8/20/2022 4:00:00 PM 19.25 66.65 0.123 7.77 16.77 8.73
8/20/2022 4:15:00 PM 19.21 66.578 0.123 7.76 17.46 8.69
8/20/2022 4:30:00 PM 19.24 66.632 0.123 7.76 16.93 8.72
8/20/2022 4:45:00 PM 19.23 66.614 0.123 7.76 17.22 8.7
8/20/2022 5:00:00 PM 19.23 66.614 0.123 7.76 17.36 8.67
8/20/2022 5:15:00 PM 19.21 66.578 0.124 7.75 17.81 8.65
8/20/2022 5:30:00 PM 19.18 66.524 0.124 7.73 17.27 8.61
8/20/2022 5:45:00 PM 19.13 66.434 0.124 7.72 18.37 8.56
8/20/2022 6:00:00 PM 19.08 66.344 0.124 7.7 17.34 8.54
8/20/2022 6:15:00 PM 19.05 66.29 0.124 7.69 17.02 8.54
8/20/2022 6:30:00 PM 19.01 66.218 0.124 7.68 17.02 8.53
8/20/2022 6:45:00 PM 18.97 66.146 0.124 7.67 17.96 8.52
8/20/2022 7:00:00 PM 18.93 66.074 0.124 7.66 17.99 8.52
8/20/2022 7:15:00 PM 18.88 65.984 0.125 7.66 18.89 8.53
8/20/2022 7:30:00 PM 18.83 65.894 0.124 7.66 18.12 8.54
8/20/2022 7:45:00 PM 18.78 65.804 0.125 7.65 17.74 8.54
8/20/2022 8:00:00 PM 18.73 65.714 0.125 7.64 17.51 8.53
8/20/2022 8:15:00 PM 18.67 65.606 0.125 7.63 17.41 8.53
8/20/2022 8:30:00 PM 18.61 65.498 0.125 7.63 18.01 8.54
8/20/2022 8:45:00 PM 18.55 65.39 0.125 7.63 18.22 8.54
8/20/2022 9:00:00 PM 18.49 65.282 0.125 7.64 17.56 8.56
8/20/2022 9:15:00 PM 18.44 65.192 0.125 7.64 17.04 8.57
8/20/2022 9:30:00 PM 18.38 65.084 0.125 7.63 18.55 8.58
8/20/2022 9:45:00 PM 18.32 64.976 0.125 7.64 17.4 8.59
8/20/2022 10:00:00 PM 18.26 64.868 0.125 7.64 17.36 8.6
8/20/2022 10:15:00 PM 18.2 64.76 0.125 7.64 17.1 8.61
8/20/2022 10:30:00 PM 18.15 64.67 0.125 7.64 15.73 8.63
8/20/2022 10:45:00 PM 18.09 64.562 0.125 7.64 16.2 8.63
8/20/2022 11:00:00 PM 18.03 64.454 0.125 7.64 16.63 8.65
8/20/2022 11:15:00 PM 17.97 64.346 0.125 7.64 16.61 8.66
8/20/2022 11:30:00 PM 17.91 64.238 0.125 7.64 16.42 8.67
8/20/2022 11:45:00 PM 17.85 64.13 0.125 7.65 15.47 8.68
8/21/2022 12:00:00 AM 17.79 64.022 0.125 7.64 16.86 8.69
8/21/2022 12:15:00 AM 17.73 63.914 0.125 7.64 15.47 8.7
8/21/2022 12:30:00 AM 17.68 63.824 0.125 7.64 16.4 8.71
8/21/2022 12:45:00 AM 17.62 63.716 0.125 7.64 16.22 8.72
8/21/2022 1:00:00 AM 17.56 63.608 0.125 7.64 16.04 8.73
8/21/2022 1:15:00 AM -99999.99 -179968 -99999.99 -99999.99 -99999.99 -99999.99
8/21/2022 1:30:00 AM -99999.99 -179968 -99999.99 -99999.99 -99999.99 -99999.99
8/21/2022 1:45:00 AM -99999.99 -179968 -99999.99 -99999.99 -99999.99 -99999.99
8/21/2022 2:00:00 AM -99999.99 -179968 -99999.99 -99999.99 -99999.99 -99999.99
8/21/2022 2:15:00 AM -99999.99 -179968 -99999.99 -99999.99 -99999.99 -99999.99
8/21/2022 2:30:00 AM -99999.99 -179968 -99999.99 -99999.99 -99999.99 -99999.99
8/21/2022 2:45:00 AM -99999.99 -179968 -99999.99 -99999.99 -99999.99 -99999.99
8/21/2022 3:00:00 AM -99999.99 -179968 -99999.99 -99999.99 -99999.99 -99999.99
8/21/2022 3:15:00 AM -99999.99 -179968 -99999.99 -99999.99 -99999.99 -99999.99
8/21/2022 3:30:00 AM -99999.99 -179968 -99999.99 -99999.99 -99999.99 -99999.99
8/21/2022 3:45:00 AM -99999.99 -179968 -99999.99 -99999.99 -99999.99 -99999.99
8/21/2022 4:00:00 AM -99999.99 -179968 -99999.99 -99999.99 -99999.99 -99999.99
8/21/2022 4:15:00 AM -99999.99 -179968 -99999.99 -99999.99 -99999.99 -99999.99
8/21/2022 4:30:00 AM -99999.99 -179968 -99999.99 -99999.99 -99999.99 -99999.99
8/21/2022 4:45:00 AM -99999.99 -179968 -99999.99 -99999.99 -99999.99 -99999.99
8/21/2022 5:00:00 AM -99999.99 -179968 -99999.99 -99999.99 -99999.99 -99999.99
8/21/2022 5:15:00 AM -99999.99 -179968 -99999.99 -99999.99 -99999.99 -99999.99
8/21/2022 5:30:00 AM -99999.99 -179968 -99999.99 -99999.99 -99999.99 -99999.99
8/21/2022 5:45:00 AM -99999.99 -179968 -99999.99 -99999.99 -99999.99 -99999.99
8/21/2022 6:00:00 AM -99999.99 -179968 -99999.99 -99999.99 -99999.99 -99999.99
8/21/2022 6:15:00 AM -99999.99 -179968 -99999.99 -99999.99 -99999.99 -99999.99
8/21/2022 6:30:00 AM -99999.99 -179968 -99999.99 -99999.99 -99999.99 -99999.99
8/21/2022 6:45:00 AM -99999.99 -179968 -99999.99 -99999.99 -99999.99 -99999.99
8/21/2022 7:00:00 AM -99999.99 -179968 -99999.99 -99999.99 -99999.99 -99999.99
8/21/2022 7:15:00 AM -99999.99 -179968 -99999.99 -99999.99 -99999.99 -99999.99
8/21/2022 7:30:00 AM -99999.99 -179968 -99999.99 -99999.99 -99999.99 -99999.99
8/21/2022 7:45:00 AM 16.99 62.582 0.124 7.6 18.35 8.84
8/21/2022 8:00:00 AM 17 62.6 0.124 7.61 18.5 8.88
8/21/2022 8:15:00 AM 17.03 62.654 0.124 7.62 17.44 8.91
8/21/2022 8:30:00 AM 17.05 62.69 0.124 7.62 17.36 8.91
8/21/2022 8:45:00 AM 17.07 62.726 0.124 7.61 17.09 8.91
8/21/2022 9:00:00 AM 17.12 62.816 0.124 7.63 15.75 8.99
8/21/2022 9:15:00 AM 17.23 63.014 0.124 7.66 16.21 9.03
8/21/2022 9:30:00 AM 17.3 63.14 0.124 7.68 15.52 9.04
8/21/2022 9:45:00 AM 17.43 63.374 0.124 7.71 15.59 9.11
8/21/2022 10:00:00 AM 17.5 63.5 0.124 7.73 15.23 9.05
8/21/2022 10:15:00 AM 17.64 63.752 0.124 7.74 14.49 9.05
8/21/2022 10:30:00 AM 17.77 63.986 0.124 7.76 15.27 9.07
8/21/2022 10:45:00 AM 17.97 64.346 0.123 7.78 14.98 9.07
8/21/2022 11:00:00 AM 18.24 64.832 0.123 7.8 14.88 9.09
8/21/2022 11:15:00 AM 18.34 65.012 0.123 7.79 19.42 8.99
8/21/2022 11:30:00 AM 18.5 65.3 0.123 7.81 16.75 9.03
8/21/2022 11:45:00 AM 18.67 65.606 0.123 7.82 16.62 9.01
8/21/2022 12:00:00 PM 18.9 66.02 0.123 7.83 15.87 8.97
8/21/2022 12:15:00 PM 19.15 66.47 0.123 7.83 15.86 8.91
8/21/2022 12:30:00 PM 19.27 66.686 0.123 7.82 16.07 8.86
8/21/2022 12:45:00 PM 19.31 66.758 0.123 7.82 16.16 8.85
8/21/2022 1:00:00 PM 19.34 66.812 0.123 7.83 16.21 8.84
8/21/2022 1:15:00 PM 19.33 66.794 0.123 7.8 16.78 8.75
8/21/2022 1:30:00 PM 19.26 66.668 0.124 7.76 15.99 8.59
8/21/2022 1:45:00 PM 19.18 66.524 0.124 7.72 16.04 8.5
8/21/2022 2:00:00 PM 19.09 66.362 0.124 7.69 16.42 8.47
8/21/2022 2:15:00 PM 19.08 66.344 0.107 7.59 46.63 8.43
8/21/2022 2:30:00 PM 18.92 66.056 0.104 7.55 84.94 8.48
8/21/2022 2:45:00 PM 18.93 66.074 0.092 7.48 180.54 8.53
8/21/2022 3:00:00 PM 18.76 65.768 0.099 7.47 416.81 8.69
8/21/2022 3:15:00 PM 18.42 65.156 0.095 7.52 358.96 8.84
8/21/2022 3:30:00 PM 18.22 64.796 0.089 7.48 253.04 8.91
8/21/2022 3:45:00 PM 18.09 64.562 0.086 7.45 365.23 8.95
8/21/2022 4:00:00 PM 17.96 64.328 0.078 7.43 231.94 9
8/21/2022 4:15:00 PM 17.87 64.166 0.081 7.48 185.58 9.02
8/21/2022 4:30:00 PM 17.86 64.148 0.085 7.54 191.72 9.02
8/21/2022 4:45:00 PM 17.86 64.148 0.081 7.51 206.39 9.01
8/21/2022 5:00:00 PM 17.86 64.148 0.082 7.51 181.69 9
8/21/2022 5:15:00 PM 17.86 64.148 0.084 7.52 141.37 8.99
8/21/2022 5:30:00 PM 17.87 64.166 0.086 7.51 115.15 8.99
8/21/2022 5:45:00 PM 17.88 64.184 0.086 7.52 97.5 8.97
8/21/2022 6:00:00 PM 17.86 64.148 0.086 7.53 82.67 8.96
8/21/2022 6:15:00 PM 17.84 64.112 0.087 7.52 73.41 8.96
8/21/2022 6:30:00 PM 17.83 64.094 0.089 7.53 67.83 8.97
8/21/2022 6:45:00 PM 17.81 64.058 0.092 7.55 65.07 8.96
8/21/2022 7:00:00 PM 17.79 64.022 0.095 7.55 63.64 8.95
8/21/2022 7:15:00 PM 17.77 63.986 0.097 7.56 59.9 8.95
8/21/2022 7:30:00 PM 17.75 63.95 0.099 7.56 56.34 8.94
8/21/2022 7:45:00 PM 17.73 63.914 0.1 7.57 52.16 8.94
8/21/2022 8:00:00 PM 17.71 63.878 0.102 7.58 45.96 8.93
8/21/2022 8:15:00 PM 17.7 63.86 0.103 7.56 43.89 8.93
8/21/2022 8:30:00 PM 17.68 63.824 0.104 7.56 41.27 8.93
8/21/2022 8:45:00 PM 17.67 63.806 0.106 7.56 38.55 8.92
8/21/2022 9:00:00 PM 17.65 63.77 0.107 7.55 37.34 8.93
8/21/2022 9:15:00 PM 17.64 63.752 0.109 7.56 35.2 8.92
8/21/2022 9:30:00 PM 17.62 63.716 0.11 7.56 33.55 8.92
8/21/2022 9:45:00 PM 17.61 63.698 0.111 7.57 31.69 8.92
8/21/2022 10:00:00 PM 17.6 63.68 0.112 7.57 29.22 8.92
8/21/2022 10:15:00 PM 17.58 63.644 0.112 7.56 28.83 8.92
8/21/2022 10:30:00 PM 17.57 63.626 0.113 7.56 25.59 8.91
8/21/2022 10:45:00 PM 17.56 63.608 0.113 7.56 26.41 8.91
8/21/2022 11:00:00 PM 17.54 63.572 0.114 7.57 23.56 8.91
8/21/2022 11:15:00 PM 17.53 63.554 0.114 7.57 22.3 8.9
8/21/2022 11:30:00 PM 17.52 63.536 0.115 7.57 21.24 8.91
8/21/2022 11:45:00 PM 17.51 63.518 0.115 7.56 20.39 8.9
8/22/2022 12:00:00 AM 17.5 63.5 0.115 7.56 20.92 8.9
8/22/2022 12:15:00 AM 17.49 63.482 0.116 7.56 19.49 8.9
8/22/2022 12:30:00 AM 17.48 63.464 0.116 7.55 19.56 8.89
8/22/2022 12:45:00 AM 17.47 63.446 0.116 7.54 18.98 8.9
8/22/2022 1:00:00 AM 17.47 63.446 0.117 7.54 18.41 8.89
8/22/2022 1:15:00 AM 17.46 63.428 0.117 7.53 18.45 8.9
8/22/2022 1:30:00 AM 17.46 63.428 0.117 7.53 17.82 8.89
8/22/2022 1:45:00 AM 17.45 63.41 0.118 7.53 17.49 8.89
8/22/2022 2:00:00 AM 17.45 63.41 0.118 7.54 17.64 8.89
8/22/2022 2:15:00 AM 17.44 63.392 0.118 7.53 17.34 8.88
8/22/2022 2:30:00 AM 17.43 63.374 0.118 7.53 17.54 8.88
8/22/2022 2:45:00 AM 17.42 63.356 0.119 7.53 17.45 8.88
8/22/2022 3:00:00 AM 17.41 63.338 0.119 7.52 17.45 8.88
8/22/2022 3:15:00 AM 17.41 63.338 0.119 7.52 16.81 8.88
8/22/2022 3:30:00 AM 17.4 63.32 0.119 7.52 17.02 8.88
8/22/2022 3:45:00 AM 17.39 63.302 0.119 7.51 16.04 8.88
8/22/2022 4:00:00 AM 17.39 63.302 0.12 7.51 16.83 8.88
8/22/2022 4:15:00 AM 17.39 63.302 0.119 7.51 18.02 8.87
8/22/2022 4:30:00 AM 17.39 63.302 0.118 7.52 20.06 8.85
8/22/2022 4:45:00 AM 17.4 63.32 0.116 7.5 22.51 8.84
8/22/2022 5:00:00 AM 17.4 63.32 0.114 7.5 23.22 8.83
8/22/2022 5:15:00 AM 17.39 63.302 0.114 7.49 24.28 8.83
8/22/2022 5:30:00 AM 17.39 63.302 0.114 7.51 24 8.85
8/22/2022 5:45:00 AM 17.37 63.266 0.117 7.5 29.17 8.87
8/22/2022 6:00:00 AM 17.35 63.23 0.12 7.51 31.67 8.88
8/22/2022 6:15:00 AM 17.35 63.23 0.118 7.51 28.01 8.88
8/22/2022 6:30:00 AM 17.33 63.194 0.118 7.51 23.06 8.88
8/22/2022 6:45:00 AM 17.33 63.194 0.117 7.5 22.93 8.88
8/22/2022 7:00:00 AM 17.32 63.176 0.117 7.49 27.65 8.9
8/22/2022 7:15:00 AM 17.32 63.176 0.118 7.5 28.49 8.93
8/22/2022 7:30:00 AM 17.3 63.14 0.12 7.49 32.75 8.96
8/22/2022 7:45:00 AM 17.3 63.14 0.122 7.5 33.08 8.99
8/22/2022 8:00:00 AM 17.33 63.194 0.123 7.51 28.38 9
8/22/2022 8:15:00 AM 17.33 63.194 0.121 7.57 24.22 9
8/22/2022 8:30:00 AM 17.34 63.212 0.119 7.59 24.49 9.01
8/22/2022 8:45:00 AM 17.28 63.104 0.116 7.6 90.2 9.08
8/22/2022 9:00:00 AM 17.22 62.996 0.111 7.6 49.04 9.12
8/22/2022 9:15:00 AM 17.19 62.942 0.11 7.59 38.33 9.13
8/22/2022 9:30:00 AM 17.25 63.05 0.109 7.62 37.7 9.14
8/22/2022 9:45:00 AM 17.38 63.284 0.108 7.64 38.35 9.15
8/22/2022 10:00:00 AM 17.46 63.428 0.106 7.64 41.04 9.11
8/22/2022 10:15:00 AM 17.43 63.374 0.105 7.62 39.87 9.09
8/22/2022 10:30:00 AM 17.45 63.41 0.104 7.62 35.91 9.1
8/22/2022 10:45:00 AM 17.48 63.464 0.103 7.64 33.7 9.09
8/22/2022 11:00:00 AM 17.5 63.5 0.102 7.61 31.66 9.07
8/22/2022 11:15:00 AM 17.62 63.716 0.102 7.62 29.45 9.08
8/22/2022 11:30:00 AM 17.65 63.77 0.102 7.62 27.73 9.07
8/22/2022 11:45:00 AM 17.71 63.878 0.102 7.63 26.2 9.09
8/22/2022 12:00:00 PM 17.86 64.148 0.102 7.66 25.36 9.08
8/22/2022 12:15:00 PM 17.9 64.22 0.103 7.65 23.28 9.03
8/22/2022 12:30:00 PM 17.94 64.292 0.104 7.65 22.24 9.01
8/22/2022 12:45:00 PM 17.97 64.346 0.105 7.65 21.79 9.01
8/22/2022 1:00:00 PM 17.99 64.382 0.105 7.65 20.86 9
8/22/2022 1:15:00 PM 18.11 64.598 0.106 7.67 20.56 9.02
8/22/2022 1:30:00 PM 18.17 64.706 0.107 7.66 19.16 8.94
8/22/2022 1:45:00 PM 18.23 64.814 0.107 7.67 18.78 8.94
8/22/2022 2:00:00 PM 18.31 64.958 0.108 7.68 19.32 8.94
8/22/2022 2:15:00 PM 18.3 64.94 0.109 7.67 18.22 8.91
8/22/2022 2:30:00 PM 18.34 65.012 0.109 7.67 18.42 8.92
8/22/2022 2:45:00 PM 18.41 65.138 0.11 7.69 18.47 8.92
8/22/2022 3:00:00 PM 18.44 65.192 0.11 7.68 17.86 8.87
8/22/2022 3:15:00 PM 18.47 65.246 0.111 7.67 17.44 8.88
8/22/2022 3:30:00 PM 18.48 65.264 0.111 7.67 17.33 8.88
8/22/2022 3:45:00 PM 18.45 65.21 0.112 7.66 17.03 8.82
8/22/2022 4:00:00 PM 18.47 65.246 0.112 7.66 17.59 8.82
8/22/2022 4:15:00 PM 18.46 65.228 0.112 7.65 17.58 8.82
8/22/2022 4:30:00 PM 18.45 65.21 0.113 7.64 17.66 8.82
8/22/2022 4:45:00 PM 18.43 65.174 0.113 7.63 17.64 8.77
8/22/2022 5:00:00 PM 18.42 65.156 0.113 7.62 17.32 8.78
8/22/2022 5:15:00 PM 18.43 65.174 0.114 7.62 17.59 8.82
8/22/2022 5:30:00 PM 18.43 65.174 0.114 7.63 16.95 8.81
8/22/2022 5:45:00 PM 18.42 65.156 0.114 7.61 16.78 8.78
8/22/2022 6:00:00 PM 18.41 65.138 0.114 7.6 17.5 8.78
8/22/2022 6:15:00 PM 18.37 65.066 0.115 7.56 17.03 8.73
8/22/2022 6:30:00 PM 18.35 65.03 0.115 7.58 18.59 8.71
8/22/2022 6:45:00 PM 18.33 64.994 0.114 7.61 19.22 8.69
8/22/2022 7:00:00 PM 18.33 64.994 0.106 7.58 32.31 8.71
8/22/2022 7:15:00 PM 18.45 65.21 0.085 7.48 175.75 8.72
8/22/2022 7:30:00 PM 18.58 65.444 0.087 7.51 410.69 8.75
8/22/2022 7:45:00 PM 18.61 65.498 0.092 7.5 226.34 8.73
8/22/2022 8:00:00 PM 18.47 65.246 0.097 7.52 124.22 8.75
8/22/2022 8:15:00 PM 18.37 65.066 0.093 7.51 81.6 8.78
8/22/2022 8:30:00 PM 18.35 65.03 0.093 7.48 82.73 8.79
8/22/2022 8:45:00 PM 18.3 64.94 0.102 7.52 89.86 8.81
8/22/2022 9:00:00 PM 18.33 64.994 0.104 7.53 75.18 8.81
8/22/2022 9:15:00 PM 18.22 64.796 0.104 7.54 55.95 8.83
8/22/2022 9:30:00 PM 18.1 64.58 0.103 7.53 49.94 8.85
8/22/2022 9:45:00 PM 18.03 64.454 0.101 7.52 41.54 8.88
8/22/2022 10:00:00 PM 17.95 64.31 0.1 7.52 30.76 8.89
8/22/2022 10:15:00 PM 17.87 64.166 0.099 7.52 41.11 8.92
8/22/2022 10:30:00 PM 17.76 63.968 0.095 7.52 51.08 8.97
8/22/2022 10:45:00 PM 17.66 63.788 0.092 7.53 48.95 8.99
8/22/2022 11:00:00 PM 17.6 63.68 0.095 7.51 53.37 9
8/22/2022 11:15:00 PM 17.56 63.608 0.096 7.55 50.92 9
8/22/2022 11:30:00 PM 17.55 63.59 0.095 7.54 52.13 9
8/22/2022 11:45:00 PM 17.54 63.572 0.095 7.53 47.71 8.99
8/23/2022 12:00:00 AM 17.53 63.554 0.094 7.54 41.11 8.99
8/23/2022 12:15:00 AM 17.52 63.536 0.093 7.5 37.65 9
8/23/2022 12:30:00 AM 17.51 63.518 0.093 7.53 34.34 9
8/23/2022 12:45:00 AM 17.5 63.5 0.094 7.51 32.71 8.99
8/23/2022 1:00:00 AM 17.48 63.464 0.096 7.53 32 8.99
8/23/2022 1:15:00 AM 17.45 63.41 0.097 7.53 31.73 8.99
8/23/2022 1:30:00 AM 17.43 63.374 0.099 7.53 30.75 9
8/23/2022 1:45:00 AM 17.41 63.338 0.1 7.54 29.08 8.99
8/23/2022 2:00:00 AM 17.39 63.302 0.101 7.55 28.56 8.99
8/23/2022 2:15:00 AM 17.36 63.248 0.103 7.55 27.31 8.99
8/23/2022 2:30:00 AM 17.34 63.212 0.104 7.57 26.87 8.99
8/23/2022 2:45:00 AM 17.31 63.158 0.105 7.56 25.76 8.99
8/23/2022 3:00:00 AM 17.28 63.104 0.106 7.57 24.02 8.98
8/23/2022 3:15:00 AM 17.26 63.068 0.106 7.57 23.04 8.99
8/23/2022 3:30:00 AM 17.24 63.032 0.107 7.56 22.5 8.99
8/23/2022 3:45:00 AM 17.22 62.996 0.107 7.58 21.39 8.99
8/23/2022 4:00:00 AM 17.2 62.96 0.107 7.57 20.46 8.99
8/23/2022 4:15:00 AM 17.19 62.942 0.108 7.56 19.89 9
8/23/2022 4:30:00 AM 17.17 62.906 0.108 7.57 18.98 8.99
8/23/2022 4:45:00 AM 17.16 62.888 0.109 7.56 18.45 8.99
8/23/2022 5:00:00 AM 17.14 62.852 0.109 7.55 18.41 8.99
8/23/2022 5:15:00 AM 17.13 62.834 0.109 7.55 17.74 8.98
8/23/2022 5:30:00 AM 17.11 62.798 0.11 7.56 21.56 8.99
8/23/2022 5:45:00 AM 17.09 62.762 0.11 7.55 17.69 8.99
8/23/2022 6:00:00 AM 17.08 62.744 0.11 7.56 18 8.99
8/23/2022 6:15:00 AM 17.06 62.708 0.111 7.57 17.88 8.99
8/23/2022 6:30:00 AM 17.05 62.69 0.111 7.55 18.06 9
8/23/2022 6:45:00 AM 17.04 62.672 0.111 7.56 18.18 9
8/23/2022 7:00:00 AM 17.04 62.672 0.111 7.56 18.2 9.01
8/23/2022 7:15:00 AM 17.04 62.672 0.112 7.58 18.09 9.02
8/23/2022 7:30:00 AM 17.04 62.672 0.112 7.57 17.68 9.02
8/23/2022 7:45:00 AM 17.03 62.654 0.112 7.58 18.09 9.03
8/23/2022 8:00:00 AM 17.05 62.69 0.112 7.59 17.13 9.05
8/23/2022 8:15:00 AM 17.06 62.708 0.112 7.59 17.09 9.04
8/23/2022 8:30:00 AM 17.07 62.726 0.112 7.59 16.69 9.06
8/23/2022 8:45:00 AM 17.09 62.762 0.112 7.6 16.77 9.06
8/23/2022 9:00:00 AM 17.11 62.798 0.112 7.6 16.52 9.07
8/23/2022 9:15:00 AM 17.16 62.888 0.113 7.62 16.02 9.11
8/23/2022 9:30:00 AM 17.19 62.942 0.113 7.62 15.56 9.09
8/23/2022 9:45:00 AM 17.25 63.05 0.113 7.62 16.34 9.11
8/23/2022 10:00:00 AM 17.33 63.194 0.113 7.63 16.18 9.09
8/23/2022 10:15:00 AM 17.38 63.284 0.113 7.65 15.89 9.06
8/23/2022 10:30:00 AM 17.53 63.554 0.113 7.65 15.52 9.07
8/23/2022 10:45:00 AM 17.66 63.788 0.113 7.69 14.89 9.05
8/23/2022 11:00:00 AM 17.69 63.842 0.113 7.66 14.34 8.99
8/23/2022 11:15:00 AM 17.8 64.04 0.113 7.68 13.94 9.04
8/23/2022 11:30:00 AM 17.95 64.31 0.113 7.72 14.06 9.06
8/23/2022 11:45:00 AM 18.07 64.526 0.113 7.73 14.11 9.03
8/23/2022 12:00:00 PM 18.02 64.436 0.113 7.66 13.5 8.95
8/23/2022 12:15:00 PM 18.14 64.652 0.114 7.7 13.78 8.95
8/23/2022 12:30:00 PM 18.05 64.49 0.113 7.66 13.73 8.9
8/23/2022 12:45:00 PM 18 64.4 0.113 7.67 14.18 8.89
8/23/2022 1:00:00 PM 17.93 64.274 0.113 7.66 13.82 8.91
8/23/2022 1:15:00 PM 17.93 64.274 0.113 7.69 14.75 8.97
8/23/2022 1:30:00 PM 17.9 64.22 0.113 7.67 14.77 8.95
8/23/2022 1:45:00 PM 17.9 64.22 0.113 7.68 14.4 8.98
8/23/2022 2:00:00 PM 17.93 64.274 0.113 7.71 14.45 9.01
8/23/2022 2:15:00 PM 18.05 64.49 0.113 7.73 14.4 9.04
8/23/2022 2:30:00 PM 18.05 64.49 0.114 7.72 14.48 8.97
8/23/2022 2:45:00 PM 18.18 64.724 0.114 7.72 14.33 8.96
8/23/2022 3:00:00 PM 18.18 64.724 0.114 7.71 14.65 8.92
8/23/2022 3:15:00 PM 18.27 64.886 0.114 7.71 14.73 8.92
8/23/2022 3:30:00 PM 18.24 64.832 0.114 7.69 14.85 8.85
8/23/2022 3:45:00 PM 18.33 64.994 0.114 7.7 15.1 8.91
8/23/2022 4:00:00 PM 18.32 64.976 0.114 7.7 15.86 8.9
8/23/2022 4:15:00 PM 18.34 65.012 0.114 7.72 15.5 8.89
8/23/2022 4:30:00 PM 18.33 64.994 0.115 7.68 15.44 8.84
8/23/2022 4:45:00 PM 18.31 64.958 0.115 7.67 15.65 8.8
8/23/2022 5:00:00 PM 18.31 64.958 0.115 7.66 15.65 8.79
8/23/2022 5:15:00 PM 18.3 64.94 0.115 7.66 16.15 8.8
8/23/2022 5:30:00 PM 18.29 64.922 0.115 7.65 16.42 8.82
8/23/2022 5:45:00 PM 18.29 64.922 0.115 7.66 16.54 8.82
8/23/2022 6:00:00 PM 18.29 64.922 0.115 7.64 16.26 8.8
8/23/2022 6:15:00 PM 18.27 64.886 0.115 7.62 16.26 8.8
8/23/2022 6:30:00 PM 18.29 64.922 0.115 7.65 16.78 8.81
8/23/2022 6:45:00 PM 18.25 64.85 0.116 7.63 17.37 8.76
8/23/2022 7:00:00 PM 18.21 64.778 0.116 7.6 16.84 8.74
8/23/2022 7:15:00 PM 18.16 64.688 0.116 7.6 16.93 8.74
8/23/2022 7:30:00 PM 18.13 64.634 0.116 7.56 17.25 8.74
8/23/2022 7:45:00 PM 18.08 64.544 0.116 7.6 17.09 8.74
8/23/2022 8:00:00 PM 18.04 64.472 0.116 7.6 17.47 8.74
8/23/2022 8:15:00 PM 18 64.4 0.116 7.59 17.43 8.75
8/23/2022 8:30:00 PM 17.95 64.31 0.116 7.61 18.15 8.76
8/23/2022 8:45:00 PM 17.9 64.22 0.116 7.61 17.8 8.77
8/23/2022 9:00:00 PM 17.85 64.13 0.116 7.61 17.6 8.78
8/23/2022 9:15:00 PM 17.8 64.04 0.117 7.58 16.69 8.78
8/23/2022 9:30:00 PM 17.76 63.968 0.117 7.59 17.16 8.8
8/23/2022 9:45:00 PM 17.71 63.878 0.117 7.58 16.57 8.81
8/23/2022 10:00:00 PM -99999.99 -179968 -99999.99 -99999.99 -99999.99 -99999.99
8/23/2022 10:15:00 PM -99999.99 -179968 -99999.99 -99999.99 -99999.99 -99999.99
8/23/2022 10:30:00 PM -99999.99 -179968 -99999.99 -99999.99 -99999.99 -99999.99
8/23/2022 10:45:00 PM -99999.99 -179968 -99999.99 -99999.99 -99999.99 -99999.99
8/23/2022 11:00:00 PM -99999.99 -179968 -99999.99 -99999.99 -99999.99 -99999.99
8/23/2022 11:15:00 PM -99999.99 -179968 -99999.99 -99999.99 -99999.99 -99999.99
8/23/2022 11:30:00 PM -99999.99 -179968 -99999.99 -99999.99 -99999.99 -99999.99
8/23/2022 11:45:00 PM -99999.99 -179968 -99999.99 -99999.99 -99999.99 -99999.99
8/24/2022 12:00:00 AM -99999.99 -179968 -99999.99 -99999.99 -99999.99 -99999.99
8/24/2022 12:15:00 AM -99999.99 -179968 -99999.99 -99999.99 -99999.99 -99999.99
8/24/2022 12:30:00 AM -99999.99 -179968 -99999.99 -99999.99 -99999.99 -99999.99
8/24/2022 12:45:00 AM -99999.99 -179968 -99999.99 -99999.99 -99999.99 -99999.99
8/24/2022 1:00:00 AM -99999.99 -179968 -99999.99 -99999.99 -99999.99 -99999.99
8/24/2022 1:15:00 AM -99999.99 -179968 -99999.99 -99999.99 -99999.99 -99999.99
8/24/2022 1:30:00 AM -99999.99 -179968 -99999.99 -99999.99 -99999.99 -99999.99
8/24/2022 1:45:00 AM -99999.99 -179968 -99999.99 -99999.99 -99999.99 -99999.99
8/24/2022 2:00:00 AM -99999.99 -179968 -99999.99 -99999.99 -99999.99 -99999.99
8/24/2022 2:15:00 AM -99999.99 -179968 -99999.99 -99999.99 -99999.99 -99999.99
8/24/2022 2:30:00 AM -99999.99 -179968 -99999.99 -99999.99 -99999.99 -99999.99
8/24/2022 2:45:00 AM -99999.99 -179968 -99999.99 -99999.99 -99999.99 -99999.99
8/24/2022 3:00:00 AM -99999.99 -179968 -99999.99 -99999.99 -99999.99 -99999.99
8/24/2022 3:15:00 AM -99999.99 -179968 -99999.99 -99999.99 -99999.99 -99999.99
8/24/2022 3:30:00 AM -99999.99 -179968 -99999.99 -99999.99 -99999.99 -99999.99
8/24/2022 3:45:00 AM -99999.99 -179968 -99999.99 -99999.99 -99999.99 -99999.99
8/24/2022 4:00:00 AM -99999.99 -179968 -99999.99 -99999.99 -99999.99 -99999.99
8/24/2022 4:15:00 AM 16.75 62.15 0.118 7.61 16.66 9
8/24/2022 4:30:00 AM 16.73 62.114 0.118 7.6 16.16 9.01
8/24/2022 4:45:00 AM 16.7 62.06 0.118 7.58 16.31 9.01
8/24/2022 5:00:00 AM 16.67 62.006 0.118 7.6 16.43 9.01
8/24/2022 5:15:00 AM 16.64 61.952 0.118 7.59 16.14 9.03
8/24/2022 5:30:00 AM 16.62 61.916 0.118 7.58 16.15 9.03
8/24/2022 5:45:00 AM 16.6 61.88 0.118 7.59 15.89 9.04
8/24/2022 6:00:00 AM 16.57 61.826 0.118 7.61 16.48 9.04
8/24/2022 6:15:00 AM 16.55 61.79 0.118 7.61 17.21 9.04
8/24/2022 6:30:00 AM 16.52 61.736 0.118 7.59 17.16 9.05
8/24/2022 6:45:00 AM 16.49 61.682 0.118 7.61 17.16 9.06
8/24/2022 7:00:00 AM 16.47 61.646 0.118 7.62 16.69 9.08
8/24/2022 7:15:00 AM 16.45 61.61 0.118 7.6 17.39 9.1
8/24/2022 7:30:00 AM 16.43 61.574 0.118 7.62 17.49 9.11
8/24/2022 7:45:00 AM 16.42 61.556 0.118 7.64 16.65 9.13
8/24/2022 8:00:00 AM 16.42 61.556 0.118 7.63 16.29 9.15
8/24/2022 8:15:00 AM 16.42 61.556 0.118 7.65 15.91 9.17
8/24/2022 8:30:00 AM 16.43 61.574 0.118 7.65 15.53 9.2
8/24/2022 8:45:00 AM 16.45 61.61 0.118 7.67 16.1 9.23
8/24/2022 9:00:00 AM 16.52 61.736 0.118 7.68 15.56 9.28
8/24/2022 9:15:00 AM 16.58 61.844 0.118 7.7 15.65 9.27
8/24/2022 9:30:00 AM 16.7 62.06 0.118 7.72 15.26 9.3
8/24/2022 9:45:00 AM 16.88 62.384 0.118 7.72 14.57 9.27
8/24/2022 10:00:00 AM 17.05 62.69 0.118 7.72 14.53 9.22
8/24/2022 10:15:00 AM 17.21 62.978 0.118 7.73 13.83 9.18
8/24/2022 10:30:00 AM 17.35 63.23 0.118 7.74 13.77 9.16
8/24/2022 10:45:00 AM 17.48 63.464 0.118 7.75 13.32 9.16
8/24/2022 11:00:00 AM 17.72 63.896 0.118 7.76 13.2 9.16
8/24/2022 11:15:00 AM 17.96 64.328 0.118 7.76 13.44 9.14
8/24/2022 11:30:00 AM 17.96 64.328 0.118 7.72 13.34 8.99
8/24/2022 11:45:00 AM 17.83 64.094 0.118 7.68 12.61 8.96
8/24/2022 12:00:00 PM 18.02 64.436 0.118 7.73 13.19 9.05
8/24/2022 12:15:00 PM 18.14 64.652 0.118 7.75 13.95 9.07
8/24/2022 12:30:00 PM 18.18 64.724 0.118 7.74 13.24 8.99
8/24/2022 12:45:00 PM 18.31 64.958 0.118 7.75 13.64 9.01
8/24/2022 1:00:00 PM 18.4 65.12 0.118 7.76 13.81 8.97
8/24/2022 1:15:00 PM 18.37 65.066 0.118 7.72 14.03 8.95
8/24/2022 1:30:00 PM 18.49 65.282 0.118 7.75 13.96 8.95
8/24/2022 1:45:00 PM 18.39 65.102 0.118 7.73 14.46 8.89
8/24/2022 2:00:00 PM 18.48 65.264 0.118 7.73 14.9 8.92
8/24/2022 2:15:00 PM 18.53 65.354 0.119 7.73 15.43 8.92
8/24/2022 2:30:00 PM 18.43 65.174 0.119 7.72 15.06 8.86
8/24/2022 2:45:00 PM 18.5 65.3 0.119 7.73 15.09 8.89
8/24/2022 3:00:00 PM 18.55 65.39 0.119 7.72 15.96 8.88
8/24/2022 3:15:00 PM 18.44 65.192 0.119 7.7 16.15 8.84
8/24/2022 3:30:00 PM 18.54 65.372 0.119 7.71 15.8 8.87
8/24/2022 3:45:00 PM 18.49 65.282 0.119 7.71 16.36 8.83
8/24/2022 4:00:00 PM 18.42 65.156 0.119 7.7 15.56 8.79
8/24/2022 4:15:00 PM 18.38 65.084 0.119 7.68 16.62 8.8
8/24/2022 4:30:00 PM 18.34 65.012 0.119 7.68 16.59 8.77
8/24/2022 4:45:00 PM 18.32 64.976 0.119 7.68 16.22 8.77
8/24/2022 5:00:00 PM 18.28 64.904 0.119 7.66 16.87 8.76
8/24/2022 5:15:00 PM 18.25 64.85 0.119 7.66 17.25 8.77
8/24/2022 5:30:00 PM 18.23 64.814 0.119 7.66 17.4 8.79
8/24/2022 5:45:00 PM 18.19 64.742 0.119 7.65 17.13 8.77
8/24/2022 6:00:00 PM 18.16 64.688 0.12 7.64 17.64 8.77
8/24/2022 6:15:00 PM 18.12 64.616 0.12 7.61 17.69 8.77
8/24/2022 6:30:00 PM 18.07 64.526 0.12 7.62 18.17 8.77
8/24/2022 6:45:00 PM 18.03 64.454 0.12 7.63 18.38 8.77
8/24/2022 7:00:00 PM 17.97 64.346 0.12 7.64 17.94 8.78
8/24/2022 7:15:00 PM 17.9 64.22 0.12 7.64 18.85 8.78
8/24/2022 7:30:00 PM 17.82 64.076 0.12 7.64 18.6 8.79
8/24/2022 7:45:00 PM 17.74 63.932 0.12 7.64 18.76 8.8
8/24/2022 8:00:00 PM 17.67 63.806 0.12 7.64 18.82 8.81
8/24/2022 8:15:00 PM 17.6 63.68 0.12 7.63 19.53 8.82
8/24/2022 8:30:00 PM -99999.99 -179968 -99999.99 -99999.99 -99999.99 -99999.99
8/24/2022 8:45:00 PM -99999.99 -179968 -99999.99 -99999.99 -99999.99 -99999.99
8/24/2022 9:00:00 PM -99999.99 -179968 -99999.99 -99999.99 -99999.99 -99999.99
8/24/2022 9:15:00 PM -99999.99 -179968 -99999.99 -99999.99 -99999.99 -99999.99
8/24/2022 9:30:00 PM -99999.99 -179968 -99999.99 -99999.99 -99999.99 -99999.99
8/24/2022 9:45:00 PM -99999.99 -179968 -99999.99 -99999.99 -99999.99 -99999.99
8/24/2022 10:00:00 PM -99999.99 -179968 -99999.99 -99999.99 -99999.99 -99999.99
8/24/2022 10:15:00 PM -99999.99 -179968 -99999.99 -99999.99 -99999.99 -99999.99
8/24/2022 10:30:00 PM -99999.99 -179968 -99999.99 -99999.99 -99999.99 -99999.99
8/24/2022 10:45:00 PM -99999.99 -179968 -99999.99 -99999.99 -99999.99 -99999.99
8/24/2022 11:00:00 PM -99999.99 -179968 -99999.99 -99999.99 -99999.99 -99999.99
8/24/2022 11:15:00 PM -99999.99 -179968 -99999.99 -99999.99 -99999.99 -99999.99
8/24/2022 11:30:00 PM -99999.99 -179968 -99999.99 -99999.99 -99999.99 -99999.99
8/24/2022 11:45:00 PM -99999.99 -179968 -99999.99 -99999.99 -99999.99 -99999.99
8/25/2022 12:00:00 AM -99999.99 -179968 -99999.99 -99999.99 -99999.99 -99999.99
8/25/2022 12:15:00 AM -99999.99 -179968 -99999.99 -99999.99 -99999.99 -99999.99
8/25/2022 12:30:00 AM -99999.99 -179968 -99999.99 -99999.99 -99999.99 -99999.99
8/25/2022 12:45:00 AM -99999.99 -179968 -99999.99 -99999.99 -99999.99 -99999.99
8/25/2022 1:00:00 AM -99999.99 -179968 -99999.99 -99999.99 -99999.99 -99999.99
8/25/2022 1:15:00 AM -99999.99 -179968 -99999.99 -99999.99 -99999.99 -99999.99
8/25/2022 1:30:00 AM -99999.99 -179968 -99999.99 -99999.99 -99999.99 -99999.99
8/25/2022 1:45:00 AM -99999.99 -179968 -99999.99 -99999.99 -99999.99 -99999.99
8/25/2022 2:00:00 AM -99999.99 -179968 -99999.99 -99999.99 -99999.99 -99999.99
8/25/2022 2:15:00 AM -99999.99 -179968 -99999.99 -99999.99 -99999.99 -99999.99
8/25/2022 2:30:00 AM -99999.99 -179968 -99999.99 -99999.99 -99999.99 -99999.99
8/25/2022 2:45:00 AM -99999.99 -179968 -99999.99 -99999.99 -99999.99 -99999.99
8/25/2022 3:00:00 AM -99999.99 -179968 -99999.99 -99999.99 -99999.99 -99999.99
8/25/2022 3:15:00 AM -99999.99 -179968 -99999.99 -99999.99 -99999.99 -99999.99
8/25/2022 3:30:00 AM -99999.99 -179968 -99999.99 -99999.99 -99999.99 -99999.99
8/25/2022 3:45:00 AM -99999.99 -179968 -99999.99 -99999.99 -99999.99 -99999.99
8/25/2022 4:00:00 AM -99999.99 -179968 -99999.99 -99999.99 -99999.99 -99999.99
8/25/2022 4:15:00 AM -99999.99 -179968 -99999.99 -99999.99 -99999.99 -99999.99
8/25/2022 4:30:00 AM -99999.99 -179968 -99999.99 -99999.99 -99999.99 -99999.99
8/25/2022 4:45:00 AM -99999.99 -179968 -99999.99 -99999.99 -99999.99 -99999.99
8/25/2022 5:00:00 AM -99999.99 -179968 -99999.99 -99999.99 -99999.99 -99999.99
8/25/2022 5:15:00 AM -99999.99 -179968 -99999.99 -99999.99 -99999.99 -99999.99
8/25/2022 5:30:00 AM -99999.99 -179968 -99999.99 -99999.99 -99999.99 -99999.99